Provisional Data: Loyalsock Creek near Ringdale, PA


Please select a monitoring station.
Please select start date.
Please select start date.

Toggle Unit: C/F Toggle Unit: C/F
Sample Time Temperature (C) Temperature (F) Specific Conductivity (mS/cm) pH   Turbidity (NTU+) DO (mg/L)
10/22/2021 12:00:00 AM 12.07 53.726 0.03 6.75 2.66 10.15
10/22/2021 12:15:00 AM 12.08 53.744 0.03 6.73 2.73 10.12
10/22/2021 12:30:00 AM 12.08 53.744 0.03 6.76 2.63 10.15
10/22/2021 12:45:00 AM 12.08 53.744 0.03 6.74 2.64 10.14
10/22/2021 1:00:00 AM 12.09 53.762 0.03 6.76 2.57 10.15
10/22/2021 1:15:00 AM 12.08 53.744 0.03 6.74 2.63 10.12
10/22/2021 1:30:00 AM 12.08 53.744 0.03 6.73 2.85 10.14
10/22/2021 1:45:00 AM 12.07 53.726 0.03 6.75 2.69 10.15
10/22/2021 2:00:00 AM 12.05 53.69 0.03 6.74 2.66 10.13
10/22/2021 2:15:00 AM 12.04 53.672 0.03 6.73 3.15 10.14
10/22/2021 2:30:00 AM 12.02 53.636 0.03 6.73 2.63 10.13
10/22/2021 2:45:00 AM 12.02 53.636 0.03 6.74 2.69 10.15
10/22/2021 3:00:00 AM 12.01 53.618 0.03 6.77 2.62 10.17
10/22/2021 3:15:00 AM 12.01 53.618 0.03 6.74 2.61 10.14
10/22/2021 3:30:00 AM 12 53.6 0.03 6.74 2.61 10.15
10/22/2021 3:45:00 AM 12 53.6 0.03 6.74 2.55 10.14
10/22/2021 4:00:00 AM 11.98 53.564 0.03 6.76 2.59 10.17
10/22/2021 4:15:00 AM 11.96 53.528 0.03 6.74 2.59 10.16
10/22/2021 4:30:00 AM 11.92 53.456 0.029 6.76 2.63 10.18
10/22/2021 4:45:00 AM 11.89 53.402 0.029 6.73 2.54 10.16
10/22/2021 5:00:00 AM 11.84 53.312 0.029 6.76 2.62 10.19
10/22/2021 5:15:00 AM 11.8 53.24 0.029 6.76 2.55 10.21
10/22/2021 5:30:00 AM 11.76 53.168 0.029 6.76 2.73 10.22
10/22/2021 5:45:00 AM 11.74 53.132 0.029 6.75 2.57 10.21
10/22/2021 6:00:00 AM 11.71 53.078 0.029 6.74 2.63 10.22
10/22/2021 6:15:00 AM 11.68 53.024 0.029 6.74 2.61 10.23
10/22/2021 6:30:00 AM 11.66 52.988 0.029 6.74 2.62 10.23
10/22/2021 6:45:00 AM 11.64 52.952 0.029 6.74 2.7 10.24
10/22/2021 7:00:00 AM 11.62 52.916 0.029 6.76 2.59 10.27
10/22/2021 7:15:00 AM 11.61 52.898 0.029 6.74 2.54 10.26
10/22/2021 7:30:00 AM 11.59 52.862 0.029 6.74 2.61 10.28
10/22/2021 7:45:00 AM 11.58 52.844 0.029 6.73 2.58 10.28
10/22/2021 8:00:00 AM 11.58 52.844 0.029 6.75 2.6 10.33
10/22/2021 8:15:00 AM 11.58 52.844 0.029 6.75 2.55 10.35
10/22/2021 8:30:00 AM 11.6 52.88 0.029 6.76 2.55 10.39
10/22/2021 8:45:00 AM 11.61 52.898 0.029 6.77 2.62 10.48
10/22/2021 9:00:00 AM 11.62 52.916 0.029 6.79 2.56 10.52
10/22/2021 9:15:00 AM 11.63 52.934 0.029 6.8 2.54 10.57
10/22/2021 9:30:00 AM 11.65 52.97 0.029 6.82 2.52 10.63
10/22/2021 9:45:00 AM 11.69 53.042 0.029 6.82 2.57 10.67
10/22/2021 10:00:00 AM 11.75 53.15 0.029 6.82 2.49 10.71
10/22/2021 10:15:00 AM 11.8 53.24 0.029 6.84 2.55 10.73
10/22/2021 10:30:00 AM 11.86 53.348 0.029 6.85 2.51 10.75
10/22/2021 10:45:00 AM 11.9 53.42 0.029 6.83 2.48 10.75
10/22/2021 11:00:00 AM 11.96 53.528 0.029 6.86 2.51 10.78
10/22/2021 11:15:00 AM 12.02 53.636 0.029 6.87 2.54 10.8
10/22/2021 11:30:00 AM 12.11 53.798 0.029 6.88 2.54 10.82
10/22/2021 11:45:00 AM 12.15 53.87 0.029 6.89 2.48 10.81
10/22/2021 12:00:00 PM 12.23 54.014 0.029 6.9 2.45 10.82
10/22/2021 12:15:00 PM 12.27 54.086 0.029 6.89 2.46 10.8
10/22/2021 12:30:00 PM 12.29 54.122 0.029 6.88 2.46 10.76
10/22/2021 12:45:00 PM 12.28 54.104 0.029 6.87 2.53 10.72
10/22/2021 1:00:00 PM 12.27 54.086 0.029 6.83 2.38 10.7
10/22/2021 1:15:00 PM 12.28 54.104 0.029 6.83 2.43 10.68
10/22/2021 1:30:00 PM 12.29 54.122 0.029 6.87 2.46 10.68
10/22/2021 1:45:00 PM 12.34 54.212 0.029 6.87 2.42 10.74
10/22/2021 2:00:00 PM 12.39 54.302 0.028 6.89 2.47 10.74
10/22/2021 2:15:00 PM 12.43 54.374 0.028 6.9 2.49 10.75
10/22/2021 2:30:00 PM 12.46 54.428 0.028 6.88 2.49 10.72
10/22/2021 2:45:00 PM 12.48 54.464 0.028 6.88 2.47 10.72
10/22/2021 3:00:00 PM 12.5 54.5 0.028 6.88 2.48 10.71
10/22/2021 3:15:00 PM 12.51 54.518 0.028 6.9 2.39 10.73
10/22/2021 3:30:00 PM 12.52 54.536 0.028 6.92 2.49 10.73
10/22/2021 3:45:00 PM 12.53 54.554 0.028 6.91 2.43 10.71
10/22/2021 4:00:00 PM 12.55 54.59 0.028 6.91 2.47 10.71
10/22/2021 4:15:00 PM 12.57 54.626 0.028 6.9 2.48 10.7
10/22/2021 4:30:00 PM 12.58 54.644 0.028 6.89 2.42 10.67
10/22/2021 4:45:00 PM 12.57 54.626 0.028 6.88 2.4 10.65
10/22/2021 5:00:00 PM 12.55 54.59 0.028 6.89 2.56 10.61
10/22/2021 5:15:00 PM 12.53 54.554 0.028 6.89 2.44 10.6
10/22/2021 5:30:00 PM 12.5 54.5 0.028 6.88 2.51 10.55
10/22/2021 5:45:00 PM 12.45 54.41 0.028 6.87 2.52 10.51
10/22/2021 6:00:00 PM 12.39 54.302 0.028 6.83 2.47 10.44
10/22/2021 6:15:00 PM 12.33 54.194 0.028 6.85 2.53 10.42
10/22/2021 6:30:00 PM 12.29 54.122 0.028 6.83 2.59 10.36
10/22/2021 6:45:00 PM 12.25 54.05 0.028 6.81 2.45 10.32
10/22/2021 7:00:00 PM 12.22 53.996 0.029 6.78 2.55 10.27
10/22/2021 7:15:00 PM 12.18 53.924 0.029 6.78 2.5 10.25
10/22/2021 7:30:00 PM 12.15 53.87 0.029 6.8 2.53 10.25
10/22/2021 7:45:00 PM 12.11 53.798 0.029 6.79 2.62 10.24
10/22/2021 8:00:00 PM 12.08 53.744 0.029 6.8 2.67 10.24
10/22/2021 8:15:00 PM 12.04 53.672 0.029 6.8 2.59 10.25
10/22/2021 8:30:00 PM 12 53.6 0.029 6.77 2.55 10.24
10/22/2021 8:45:00 PM 11.97 53.546 0.029 6.78 2.64 10.25
10/22/2021 9:00:00 PM 11.92 53.456 0.029 6.77 2.55 10.26
10/22/2021 9:15:00 PM 11.87 53.366 0.029 6.76 2.71 10.26
10/22/2021 9:30:00 PM 11.81 53.258 0.029 6.78 2.57 10.27
10/22/2021 9:45:00 PM 11.75 53.15 0.029 6.75 2.54 10.27
10/22/2021 10:00:00 PM 11.67 53.006 0.029 6.78 2.55 10.3
10/22/2021 10:15:00 PM 11.6 52.88 0.029 6.76 2.53 10.31
10/22/2021 10:30:00 PM 11.52 52.736 0.029 6.77 2.56 10.33
10/22/2021 10:45:00 PM 11.45 52.61 0.029 6.77 2.63 10.35
10/22/2021 11:00:00 PM 11.36 52.448 0.029 6.77 2.56 10.35
10/22/2021 11:15:00 PM 11.29 52.322 0.029 6.76 2.57 10.36
10/22/2021 11:30:00 PM 11.21 52.178 0.029 6.74 2.53 10.38
10/22/2021 11:45:00 PM 11.13 52.034 0.029 6.76 2.62 10.4
10/23/2021 12:00:00 AM 11.05 51.89 0.029 6.78 2.57 10.44
10/23/2021 12:15:00 AM 10.99 51.782 0.029 6.77 2.55 10.45
10/23/2021 12:30:00 AM 10.94 51.692 0.029 6.78 2.65 10.47
10/23/2021 12:45:00 AM 10.91 51.638 0.029 6.75 2.59 10.46
10/23/2021 1:00:00 AM 10.86 51.548 0.029 6.78 2.57 10.5
10/23/2021 1:15:00 AM 10.84 51.512 0.029 6.75 2.66 10.48
10/23/2021 1:30:00 AM 10.81 51.458 0.029 6.75 2.68 10.5
10/23/2021 1:45:00 AM 10.79 51.422 0.029 6.74 2.63 10.49
10/23/2021 2:00:00 AM 10.75 51.35 0.029 6.76 2.56 10.52
10/23/2021 2:15:00 AM 10.72 51.296 0.029 6.74 2.56 10.52
10/23/2021 2:30:00 AM 10.69 51.242 0.029 6.76 2.69 10.55
10/23/2021 2:45:00 AM 10.66 51.188 0.029 6.75 2.58 10.56
10/23/2021 3:00:00 AM 10.63 51.134 0.029 6.76 2.71 10.56
10/23/2021 3:15:00 AM 10.6 51.08 0.029 6.76 2.6 10.57
10/23/2021 3:30:00 AM 10.58 51.044 0.029 6.76 2.57 10.58
10/23/2021 3:45:00 AM 10.54 50.972 0.029 6.76 2.57 10.59
10/23/2021 4:00:00 AM 10.51 50.918 0.029 6.75 2.58 10.58
10/23/2021 4:15:00 AM 10.48 50.864 0.029 6.76 2.59 10.6
10/23/2021 4:30:00 AM 10.44 50.792 0.029 6.76 2.64 10.61
10/23/2021 4:45:00 AM 10.41 50.738 0.029 6.75 2.63 10.61
10/23/2021 5:00:00 AM 10.38 50.684 0.029 6.77 2.55 10.62
10/23/2021 5:15:00 AM 10.35 50.63 0.029 6.75 2.48 10.61
10/23/2021 5:30:00 AM 10.31 50.558 0.029 6.76 2.56 10.65
10/23/2021 5:45:00 AM 10.28 50.504 0.029 6.75 2.52 10.64
10/23/2021 6:00:00 AM 10.25 50.45 0.029 6.74 2.49 10.64
10/23/2021 6:15:00 AM 10.22 50.396 0.029 6.77 2.59 10.67
10/23/2021 6:30:00 AM 10.2 50.36 0.029 6.74 2.56 10.66
10/23/2021 6:45:00 AM 10.17 50.306 0.029 6.76 2.59 10.69
10/23/2021 7:00:00 AM 10.15 50.27 0.029 6.77 2.55 10.69
10/23/2021 7:15:00 AM 10.12 50.216 0.029 6.75 2.56 10.69
10/23/2021 7:30:00 AM 10.1 50.18 0.029 6.76 2.6 10.7
10/23/2021 7:45:00 AM 10.08 50.144 0.029 6.76 2.58 10.72
10/23/2021 8:00:00 AM 10.06 50.108 0.029 6.75 2.53 10.73
10/23/2021 8:15:00 AM 10.04 50.072 0.029 6.78 2.61 10.8
10/23/2021 8:30:00 AM 10.04 50.072 0.029 6.78 2.53 10.84
10/23/2021 8:45:00 AM 10.04 50.072 0.029 6.79 2.56 10.89
10/23/2021 9:00:00 AM 10.05 50.09 0.029 6.8 2.54 10.95
10/23/2021 9:15:00 AM 10.07 50.126 0.029 6.78 2.57 10.97
10/23/2021 9:30:00 AM 10.09 50.162 0.029 6.83 2.59 11.06
10/23/2021 9:45:00 AM 10.13 50.234 0.029 6.84 2.56 11.1
10/23/2021 10:00:00 AM 10.16 50.288 0.029 6.83 2.49 11.13
10/23/2021 10:15:00 AM 10.19 50.342 0.029 6.84 2.54 11.17
10/23/2021 10:30:00 AM 10.22 50.396 0.029 6.86 2.52 11.19
10/23/2021 10:45:00 AM 10.27 50.486 0.029 6.88 2.57 11.21
10/23/2021 11:00:00 AM 10.32 50.576 0.029 6.89 2.52 11.24
10/23/2021 11:15:00 AM 10.38 50.684 0.029 6.86 2.59 11.24
10/23/2021 11:30:00 AM 10.45 50.81 0.029 6.87 2.49 11.24
10/23/2021 11:45:00 AM 10.51 50.918 0.029 6.89 2.47 11.26
10/23/2021 12:00:00 PM 10.55 50.99 0.029 6.9 2.51 11.22
10/23/2021 12:15:00 PM 10.57 51.026 0.029 6.88 2.51 11.2
10/23/2021 12:30:00 PM 10.59 51.062 0.029 6.87 2.55 11.19
10/23/2021 12:45:00 PM 10.61 51.098 0.029 6.86 2.79 11.16
10/23/2021 1:00:00 PM 10.63 51.134 0.029 6.88 2.53 11.18
10/23/2021 1:15:00 PM 10.64 51.152 0.029 6.87 2.5 11.17
10/23/2021 1:30:00 PM 10.64 51.152 0.029 6.87 2.42 11.16
10/23/2021 1:45:00 PM 10.65 51.17 0.029 6.86 2.54 11.14
10/23/2021 2:00:00 PM 10.66 51.188 0.029 6.89 2.48 11.13
10/23/2021 2:15:00 PM 10.66 51.188 0.029 6.86 2.51 11.1
10/23/2021 2:30:00 PM 10.66 51.188 0.029 6.89 2.44 11.1
10/23/2021 2:45:00 PM 10.67 51.206 0.029 6.86 2.52 11.08
10/23/2021 3:00:00 PM 10.66 51.188 0.029 6.87 2.49 11.07
10/23/2021 3:15:00 PM 10.66 51.188 0.029 6.88 2.55 11.06
10/23/2021 3:30:00 PM 10.65 51.17 0.029 6.86 2.49 11.02
10/23/2021 3:45:00 PM 10.63 51.134 0.029 6.85 2.39 10.99
10/23/2021 4:00:00 PM 10.61 51.098 0.029 6.85 2.46 10.97
10/23/2021 4:15:00 PM 10.59 51.062 0.029 6.85 2.48 10.96
10/23/2021 4:30:00 PM 10.57 51.026 0.029 6.84 2.54 10.94
10/23/2021 4:45:00 PM 10.55 50.99 0.029 6.84 2.57 10.92
10/23/2021 5:00:00 PM 10.54 50.972 0.029 6.84 2.48 10.92
10/23/2021 5:15:00 PM 10.53 50.954 0.029 6.83 2.53 10.9
10/23/2021 5:30:00 PM 10.51 50.918 0.029 6.84 2.47 10.88
10/23/2021 5:45:00 PM 10.49 50.882 0.029 6.82 2.51 10.86
10/23/2021 6:00:00 PM 10.46 50.828 0.029 6.83 2.53 10.86
10/23/2021 6:15:00 PM 10.42 50.756 0.029 6.84 2.58 10.85
10/23/2021 6:30:00 PM 10.38 50.684 0.029 6.81 2.5 10.81
10/23/2021 6:45:00 PM 10.33 50.594 0.029 6.81 2.58 10.79
10/23/2021 7:00:00 PM 10.28 50.504 0.029 6.81 2.61 10.78
10/23/2021 7:15:00 PM 10.24 50.432 0.029 6.82 2.58 10.77
10/23/2021 7:30:00 PM 10.22 50.396 0.029 6.8 2.58 10.75
10/23/2021 7:45:00 PM 10.19 50.342 0.029 6.79 2.62 10.75
10/23/2021 8:00:00 PM 10.17 50.306 0.029 6.8 2.59 10.74
10/23/2021 8:15:00 PM 10.15 50.27 0.029 6.79 2.53 10.74
10/23/2021 8:30:00 PM 10.14 50.252 0.029 6.79 2.62 10.74
10/23/2021 8:45:00 PM 10.12 50.216 0.029 6.78 2.57 10.74
10/23/2021 9:00:00 PM 10.1 50.18 0.029 6.78 2.58 10.77
10/23/2021 9:15:00 PM 10.09 50.162 0.029 6.79 2.55 10.77
10/23/2021 9:30:00 PM 10.07 50.126 0.029 6.79 2.58 10.76
10/23/2021 9:45:00 PM 10.05 50.09 0.029 6.78 2.7 10.76
10/23/2021 10:00:00 PM 10.03 50.054 0.029 6.78 2.56 10.78
10/23/2021 10:15:00 PM 10.01 50.018 0.029 6.79 2.58 10.79
10/23/2021 10:30:00 PM 10 50 0.029 6.78 2.64 10.78
10/23/2021 10:45:00 PM 9.98 49.964 0.029 6.78 2.47 10.78
10/23/2021 11:00:00 PM 9.95 49.91 0.029 6.77 2.59 10.79
10/23/2021 11:15:00 PM 9.93 49.874 0.029 6.77 2.61 10.8
10/23/2021 11:30:00 PM 9.9 49.82 0.029 6.78 2.61 10.8
10/23/2021 11:45:00 PM 9.89 49.802 0.029 6.76 2.6 10.8
10/24/2021 12:00:00 AM 9.86 49.748 0.029 6.78 2.55 10.82
10/24/2021 12:15:00 AM 9.84 49.712 0.029 6.79 2.68 10.84
10/24/2021 12:30:00 AM 9.82 49.676 0.029 6.77 2.86 10.83
10/24/2021 12:45:00 AM 9.8 49.64 0.029 6.77 2.61 10.84
10/24/2021 1:00:00 AM 9.78 49.604 0.029 6.75 2.56 10.82
10/24/2021 1:15:00 AM 9.75 49.55 0.029 6.77 2.6 10.85
10/24/2021 1:30:00 AM 9.72 49.496 0.029 6.77 2.66 10.86
10/24/2021 1:45:00 AM 9.68 49.424 0.029 6.78 2.6 10.87
10/24/2021 2:00:00 AM 9.66 49.388 0.029 6.77 2.59 10.87
10/24/2021 2:15:00 AM 9.64 49.352 0.029 6.76 2.6 10.86
10/24/2021 2:30:00 AM 9.61 49.298 0.029 6.77 2.69 10.89
10/24/2021 2:45:00 AM 9.59 49.262 0.029 6.77 2.78 10.88
10/24/2021 3:00:00 AM 9.57 49.226 0.029 6.76 2.65 10.89
10/24/2021 3:15:00 AM 9.54 49.172 0.029 6.78 2.6 10.9
10/24/2021 3:30:00 AM 9.51 49.118 0.029 6.76 2.65 10.91
10/24/2021 3:45:00 AM 9.48 49.064 0.029 6.76 2.55 10.91
10/24/2021 4:00:00 AM 9.45 49.01 0.029 6.76 2.74 10.92
10/24/2021 4:15:00 AM 9.41 48.938 0.029 6.77 2.7 10.94
10/24/2021 4:30:00 AM 9.37 48.866 0.029 6.76 2.69 10.95
10/24/2021 4:45:00 AM 9.33 48.794 0.029 6.78 2.59 10.95
10/24/2021 5:00:00 AM 9.29 48.722 0.029 6.76 2.61 10.95
10/24/2021 5:15:00 AM 9.25 48.65 0.029 6.76 2.64 10.97
10/24/2021 5:30:00 AM 9.22 48.596 0.029 6.74 2.58 10.96
10/24/2021 5:45:00 AM 9.18 48.524 0.029 6.76 2.61 10.99
10/24/2021 6:00:00 AM 9.14 48.452 0.029 6.77 2.61 11
10/24/2021 6:15:00 AM 9.1 48.38 0.029 6.76 2.6 11
10/24/2021 6:30:00 AM 9.06 48.308 0.029 6.76 2.59 11.01
10/24/2021 6:45:00 AM 9.02 48.236 0.029 6.74 2.58 11.04
10/24/2021 7:00:00 AM 8.98 48.164 0.029 6.75 2.5 11.04
10/24/2021 7:15:00 AM 8.94 48.092 0.029 6.74 2.5 11.06
10/24/2021 7:30:00 AM 8.89 48.002 0.029 6.75 2.59 11.09
10/24/2021 7:45:00 AM 8.84 47.912 0.029 6.77 2.57 11.11
10/24/2021 8:00:00 AM 8.79 47.822 0.029 6.76 2.58 11.14
10/24/2021 8:15:00 AM 8.74 47.732 0.029 6.76 2.53 11.19
10/24/2021 8:30:00 AM 8.69 47.642 0.029 6.77 2.59 11.25
10/24/2021 8:45:00 AM 8.65 47.57 0.029 6.79 2.45 11.33
10/24/2021 9:00:00 AM 8.63 47.534 0.029 6.8 2.54 11.38
10/24/2021 9:15:00 AM 8.6 47.48 0.029 6.82 2.51 11.41
10/24/2021 9:30:00 AM 8.6 47.48 0.029 6.81 2.55 11.5
10/24/2021 9:45:00 AM 8.64 47.552 0.029 6.83 2.89 11.54
10/24/2021 10:00:00 AM 8.7 47.66 0.029 6.83 2.55 11.58
10/24/2021 10:15:00 AM 8.79 47.822 0.029 6.83 2.53 11.61
10/24/2021 10:30:00 AM 8.9 48.02 0.029 6.83 2.52 11.62
10/24/2021 10:45:00 AM 8.98 48.164 0.029 6.85 2.49 11.65
10/24/2021 11:00:00 AM 9.05 48.29 0.029 6.87 2.51 11.66
10/24/2021 11:15:00 AM 9.16 48.488 0.029 6.86 2.49 11.65
10/24/2021 11:30:00 AM 9.24 48.632 0.029 6.87 2.5 11.66
10/24/2021 11:45:00 AM 9.33 48.794 0.029 6.89 2.56 11.65
10/24/2021 12:00:00 PM 9.4 48.92 0.029 6.87 2.53 11.63
10/24/2021 12:15:00 PM 9.48 49.064 0.029 6.89 2.68 11.61
10/24/2021 12:30:00 PM 9.53 49.154 0.029 6.88 2.52 11.59
10/24/2021 12:45:00 PM 9.57 49.226 0.029 6.88 2.5 11.56
10/24/2021 1:00:00 PM 9.59 49.262 0.029 6.89 2.55 11.53
10/24/2021 1:15:00 PM 9.6 49.28 0.029 6.89 2.5 11.49
10/24/2021 1:30:00 PM 9.61 49.298 0.028 6.88 2.48 11.47
10/24/2021 1:45:00 PM 9.63 49.334 0.028 6.89 2.46 11.46
10/24/2021 2:00:00 PM 9.65 49.37 0.028 6.9 2.48 11.45
10/24/2021 2:15:00 PM 9.66 49.388 0.028 6.88 2.47 11.42
10/24/2021 2:30:00 PM 9.67 49.406 0.028 6.87 2.45 11.39
10/24/2021 2:45:00 PM 9.68 49.424 0.028 6.87 2.5 11.37
10/24/2021 3:00:00 PM 9.69 49.442 0.028 6.87 2.49 11.35
10/24/2021 3:15:00 PM 9.7 49.46 0.028 6.88 2.53 11.3
10/24/2021 3:30:00 PM 9.71 49.478 0.028 6.86 2.52 11.29
10/24/2021 3:45:00 PM 9.73 49.514 0.028 6.88 2.56 11.3
10/24/2021 4:00:00 PM 9.76 49.568 0.028 6.86 2.54 11.29
10/24/2021 4:15:00 PM 9.77 49.586 0.028 6.87 2.5 11.3
10/24/2021 4:30:00 PM 9.8 49.64 0.028 6.87 2.54 11.29
10/24/2021 4:45:00 PM 9.81 49.658 0.028 6.86 2.57 11.27
10/24/2021 5:00:00 PM 9.81 49.658 0.028 6.88 2.55 11.23
10/24/2021 5:15:00 PM 9.81 49.658 0.028 6.86 2.59 11.2
10/24/2021 5:30:00 PM 9.81 49.658 0.029 6.85 2.56 11.15
10/24/2021 5:45:00 PM 9.8 49.64 0.029 6.84 2.66 11.09
10/24/2021 6:00:00 PM 9.78 49.604 0.029 6.83 2.52 11.06
10/24/2021 6:15:00 PM 9.77 49.586 0.029 6.83 2.58 11.04
10/24/2021 6:30:00 PM 9.76 49.568 0.029 6.82 2.51 11
10/24/2021 6:45:00 PM 9.76 49.568 0.029 6.81 2.54 10.97
10/24/2021 7:00:00 PM 9.75 49.55 0.029 6.81 2.55 10.96
10/24/2021 7:15:00 PM 9.75 49.55 0.029 6.8 2.71 10.93
10/24/2021 7:30:00 PM 9.73 49.514 0.029 6.82 2.66 10.94
10/24/2021 7:45:00 PM 9.72 49.496 0.029 6.8 2.58 10.93
10/24/2021 8:00:00 PM 9.71 49.478 0.029 6.81 2.65 10.93
10/24/2021 8:15:00 PM 9.71 49.478 0.029 6.81 2.66 10.93
10/24/2021 8:30:00 PM 9.7 49.46 0.029 6.81 2.94 10.92
10/24/2021 8:45:00 PM 9.7 49.46 0.029 6.81 2.63 10.93
10/24/2021 9:00:00 PM 9.7 49.46 0.029 6.81 2.64 10.92
10/24/2021 9:15:00 PM 9.69 49.442 0.03 6.8 2.65 10.91
10/24/2021 9:30:00 PM 9.69 49.442 0.03 6.79 2.61 10.91
10/24/2021 9:45:00 PM 9.68 49.424 0.03 6.81 2.62 10.93
10/24/2021 10:00:00 PM 9.68 49.424 0.03 6.79 2.62 10.9
10/24/2021 10:15:00 PM 9.68 49.424 0.03 6.81 2.68 10.92
10/24/2021 10:30:00 PM 9.68 49.424 0.03 6.8 2.64 10.91
10/24/2021 10:45:00 PM 9.68 49.424 0.03 6.8 2.64 10.91
10/24/2021 11:00:00 PM 9.68 49.424 0.03 6.8 2.56 10.91
10/24/2021 11:15:00 PM 9.69 49.442 0.03 6.78 2.63 10.91
10/24/2021 11:30:00 PM 9.69 49.442 0.03 6.8 2.65 10.9
10/24/2021 11:45:00 PM 9.7 49.46 0.03 6.81 2.69 10.9
10/25/2021 12:00:00 AM 9.71 49.478 0.03 6.8 2.77 10.9
10/25/2021 12:15:00 AM 9.71 49.478 0.03 6.81 2.68 10.89
10/25/2021 12:30:00 AM 9.73 49.514 0.03 6.79 2.73 10.89
10/25/2021 12:45:00 AM 9.74 49.532 0.03 6.8 2.81 10.87
10/25/2021 1:00:00 AM 9.75 49.55 0.03 6.8 2.68 10.88
10/25/2021 1:15:00 AM 9.76 49.568 0.03 6.81 2.69 10.88
10/25/2021 1:30:00 AM 9.78 49.604 0.03 6.8 2.63 10.87
10/25/2021 1:45:00 AM 9.8 49.64 0.03 6.8 2.73 10.87
10/25/2021 2:00:00 AM 9.81 49.658 0.03 6.79 2.71 10.84
10/25/2021 2:15:00 AM 9.83 49.694 0.03 6.81 2.8 10.86
10/25/2021 2:30:00 AM 9.85 49.73 0.03 6.79 2.69 10.84
10/25/2021 2:45:00 AM 9.87 49.766 0.03 6.81 2.71 10.85
10/25/2021 3:00:00 AM 9.89 49.802 0.03 6.79 2.74 10.82
10/25/2021 3:15:00 AM 9.91 49.838 0.029 6.8 2.66 10.84
10/25/2021 3:30:00 AM 9.93 49.874 0.029 6.81 2.63 10.84
10/25/2021 3:45:00 AM 9.95 49.91 0.029 6.79 2.78 10.82
10/25/2021 4:00:00 AM 9.96 49.928 0.029 6.79 2.76 10.82
10/25/2021 4:15:00 AM 9.96 49.928 0.029 6.79 2.64 10.81
10/25/2021 4:30:00 AM 9.96 49.928 0.029 6.8 2.62 10.83
10/25/2021 4:45:00 AM 9.95 49.91 0.029 6.8 2.73 10.81
10/25/2021 5:00:00 AM 9.94 49.892 0.029 6.8 2.75 10.81
10/25/2021 5:15:00 AM 9.93 49.874 0.029 6.8 2.71 10.82
10/25/2021 5:30:00 AM 9.92 49.856 0.029 6.8 2.74 10.82
10/25/2021 5:45:00 AM 9.9 49.82 0.029 6.8 2.7 10.81
10/25/2021 6:00:00 AM 9.89 49.802 0.029 6.8 2.76 10.81
10/25/2021 6:15:00 AM 9.88 49.784 0.029 6.79 2.79 10.81
10/25/2021 6:30:00 AM 9.87 49.766 0.029 6.79 2.7 10.82
10/25/2021 6:45:00 AM 9.86 49.748 0.029 6.78 2.7 10.8
10/25/2021 7:00:00 AM 9.84 49.712 0.029 6.78 2.77 10.82
10/25/2021 7:15:00 AM 9.83 49.694 0.029 6.78 2.76 10.82
10/25/2021 7:30:00 AM 9.82 49.676 0.029 6.78 2.78 10.83
10/25/2021 7:45:00 AM 9.81 49.658 0.029 6.78 2.83 10.83
10/25/2021 8:00:00 AM 9.8 49.64 0.029 6.77 2.74 10.83
10/25/2021 8:15:00 AM 9.79 49.622 0.029 6.79 2.67 10.86
10/25/2021 8:30:00 AM 9.78 49.604 0.029 6.79 2.71 10.88
10/25/2021 8:45:00 AM 9.78 49.604 0.029 6.78 2.72 10.93
10/25/2021 9:00:00 AM 9.78 49.604 0.029 6.8 2.74 10.97
10/25/2021 9:15:00 AM 9.8 49.64 0.029 6.81 2.78 11.01
10/25/2021 9:30:00 AM 9.84 49.712 0.029 6.81 2.66 11.04
10/25/2021 9:45:00 AM 9.9 49.82 0.029 6.83 2.66 11.11
10/25/2021 10:00:00 AM 9.98 49.964 0.029 6.83 2.73 11.12
10/25/2021 10:15:00 AM 10.09 50.162 0.029 6.86 2.69 11.16
10/25/2021 10:30:00 AM 10.2 50.36 0.029 6.86 2.58 11.17
10/25/2021 10:45:00 AM 10.33 50.594 0.029 6.86 2.73 11.16
10/25/2021 11:00:00 AM 10.49 50.882 0.029 6.87 2.64 11.18
10/25/2021 11:15:00 AM 10.65 51.17 0.029 6.86 2.63 11.14
10/25/2021 11:30:00 AM 10.8 51.44 0.028 6.88 2.61 11.14
10/25/2021 11:45:00 AM 10.99 51.782 0.028 6.88 2.63 11.13
10/25/2021 12:00:00 PM 11.16 52.088 0.028 6.89 2.65 11.09
10/25/2021 12:15:00 PM 11.36 52.448 0.028 6.91 2.66 11.09
10/25/2021 12:30:00 PM 11.5 52.7 0.028 6.9 2.61 11.07
10/25/2021 12:45:00 PM 11.68 53.024 0.028 6.91 2.63 11.04
10/25/2021 1:00:00 PM 11.83 53.294 0.028 6.91 2.63 11
10/25/2021 1:15:00 PM 11.96 53.528 0.028 6.93 2.59 10.97
10/25/2021 1:30:00 PM 12.1 53.78 0.028 6.92 2.55 10.93
10/25/2021 1:45:00 PM 12.24 54.032 0.028 6.93 2.65 10.9
10/25/2021 2:00:00 PM 12.35 54.23 0.028 6.92 2.62 10.86
10/25/2021 2:15:00 PM 12.47 54.446 0.028 6.95 2.57 10.84
10/25/2021 2:30:00 PM 12.56 54.608 0.028 6.92 2.58 10.79
10/25/2021 2:45:00 PM 12.65 54.77 0.028 6.91 2.65 10.76
10/25/2021 3:00:00 PM 12.73 54.914 0.028 6.96 2.67 10.76
10/25/2021 3:15:00 PM 12.78 55.004 0.028 6.94 2.63 10.74
10/25/2021 3:30:00 PM 12.8 55.04 0.028 6.95 2.67 10.73
10/25/2021 3:45:00 PM 12.78 55.004 0.028 6.95 2.67 10.72
10/25/2021 4:00:00 PM 12.74 54.932 0.028 6.94 2.55 10.71
10/25/2021 4:15:00 PM 12.7 54.86 0.028 6.93 2.6 10.7
10/25/2021 4:30:00 PM 12.65 54.77 0.028 6.92 2.63 10.68
10/25/2021 4:45:00 PM 12.61 54.698 0.028 6.92 2.7 10.65
10/25/2021 5:00:00 PM 12.56 54.608 0.028 6.93 2.65 10.63
10/25/2021 5:15:00 PM 12.5 54.5 0.028 6.91 2.75 10.58
10/25/2021 5:30:00 PM 12.43 54.374 0.028 6.9 2.71 10.53
10/25/2021 5:45:00 PM 12.37 54.266 0.028 6.88 2.66 10.49
10/25/2021 6:00:00 PM 12.32 54.176 0.028 6.86 2.79 10.44
10/25/2021 6:15:00 PM 12.27 54.086 0.028 6.86 2.74 10.4
10/25/2021 6:30:00 PM 12.23 54.014 0.028 6.84 2.74 10.36
10/25/2021 6:45:00 PM 12.18 53.924 0.028 6.82 2.8 10.31
10/25/2021 7:00:00 PM 12.15 53.87 0.028 6.82 3.18 10.28
10/25/2021 7:15:00 PM 12.12 53.816 0.028 6.81 2.77 10.28
10/25/2021 7:30:00 PM 12.1 53.78 0.028 6.81 2.82 10.27
10/25/2021 7:45:00 PM 12.08 53.744 0.028 6.79 2.76 10.24
10/25/2021 8:00:00 PM 12.07 53.726 0.028 6.8 2.82 10.25
10/25/2021 8:15:00 PM 12.06 53.708 0.028 6.78 2.7 10.24
10/25/2021 8:30:00 PM 12.05 53.69 0.029 6.78 2.81 10.22
10/25/2021 8:45:00 PM 12.04 53.672 0.029 6.78 2.75 10.23
10/25/2021 9:00:00 PM 12.02 53.636 0.029 6.77 2.8 10.23
10/25/2021 9:15:00 PM 12.01 53.618 0.029 6.77 2.81 10.23
10/25/2021 9:30:00 PM 12 53.6 0.029 6.76 2.79 10.24
10/25/2021 9:45:00 PM 11.99 53.582 0.029 6.77 2.82 10.24
10/25/2021 10:00:00 PM 11.98 53.564 0.029 6.75 2.77 10.23
10/25/2021 10:15:00 PM 11.98 53.564 0.029 6.75 2.95 10.23
10/25/2021 10:30:00 PM 11.97 53.546 0.029 6.75 2.77 10.24
10/25/2021 10:45:00 PM 11.96 53.528 0.029 6.74 3.07 10.22
10/25/2021 11:00:00 PM 11.97 53.546 0.029 6.74 2.97 10.23
10/25/2021 11:15:00 PM 11.98 53.564 0.029 6.73 2.94 10.21
10/25/2021 11:30:00 PM 11.98 53.564 0.029 6.74 2.72 10.22
10/25/2021 11:45:00 PM 11.99 53.582 0.029 6.75 2.66 10.22
10/26/2021 12:00:00 AM 12 53.6 0.029 6.75 2.72 10.22
10/26/2021 12:15:00 AM 12.01 53.618 0.029 6.77 2.76 10.22
10/26/2021 12:30:00 AM 12.02 53.636 0.029 6.76 3.01 10.21
10/26/2021 12:45:00 AM 12.02 53.636 0.029 6.76 3.26 10.19
10/26/2021 1:00:00 AM 12.02 53.636 0.029 6.78 2.99 10.19
10/26/2021 1:15:00 AM 12.03 53.654 0.029 6.78 2.83 10.19
10/26/2021 1:30:00 AM 12.03 53.654 0.029 6.79 2.79 10.19
10/26/2021 1:45:00 AM 12.03 53.654 0.028 6.77 2.89 10.18
10/26/2021 2:00:00 AM 12.04 53.672 0.028 6.77 2.7 10.17
10/26/2021 2:15:00 AM 12.04 53.672 0.028 6.77 2.86 10.17
10/26/2021 2:30:00 AM 12.03 53.654 0.028 6.77 2.96 10.17
10/26/2021 2:45:00 AM 12.03 53.654 0.028 6.76 2.96 10.16
10/26/2021 3:00:00 AM 12.03 53.654 0.028 6.77 2.91 10.17
10/26/2021 3:15:00 AM 12.03 53.654 0.028 6.77 3.02 10.17
10/26/2021 3:30:00 AM 12.03 53.654 0.028 6.77 2.94 10.17
10/26/2021 3:45:00 AM 12.04 53.672 0.028 6.76 3.04 10.16
10/26/2021 4:00:00 AM 12.05 53.69 0.028 6.77 3 10.17
10/26/2021 4:15:00 AM 12.06 53.708 0.028 6.78 2.93 10.17
10/26/2021 4:30:00 AM 12.06 53.708 0.028 6.76 2.8 10.16
10/26/2021 4:45:00 AM 12.07 53.726 0.028 6.77 2.97 10.16
10/26/2021 5:00:00 AM 12.07 53.726 0.028 6.76 2.78 10.15
10/26/2021 5:15:00 AM 12.08 53.744 0.028 6.77 2.92 10.16
10/26/2021 5:30:00 AM 12.08 53.744 0.028 6.76 2.89 10.16
10/26/2021 5:45:00 AM 12.08 53.744 0.028 6.76 2.95 10.16
10/26/2021 6:00:00 AM 12.08 53.744 0.028 6.77 2.9 10.16
10/26/2021 6:15:00 AM 12.09 53.762 0.028 6.75 2.9 10.15
10/26/2021 6:30:00 AM 12.09 53.762 0.028 6.76 2.93 10.16
10/26/2021 6:45:00 AM 12.09 53.762 0.028 6.75 2.87 10.16
10/26/2021 7:00:00 AM 12.09 53.762 0.028 6.76 3.04 10.16
10/26/2021 7:15:00 AM 12.09 53.762 0.028 6.75 2.95 10.15
10/26/2021 7:30:00 AM 12.09 53.762 0.028 6.76 2.88 10.16
10/26/2021 7:45:00 AM 12.09 53.762 0.028 6.77 2.9 10.16
10/26/2021 8:00:00 AM 12.09 53.762 0.028 6.77 2.97 10.17
10/26/2021 8:15:00 AM 12.08 53.744 0.028 6.78 3.61 10.18
10/26/2021 8:30:00 AM 12.08 53.744 0.028 6.79 4.33 10.19
10/26/2021 8:45:00 AM 12.08 53.744 0.028 6.8 4.61 10.21
10/26/2021 9:00:00 AM 12.08 53.744 0.028 6.8 4.45 10.23
10/26/2021 9:15:00 AM 12.09 53.762 0.028 6.8 4.35 10.24
10/26/2021 9:30:00 AM 12.09 53.762 0.028 6.8 4.02 10.26
10/26/2021 9:45:00 AM 12.1 53.78 0.028 6.82 4.21 10.27
10/26/2021 10:00:00 AM 12.1 53.78 0.028 6.84 4.47 10.29
10/26/2021 10:15:00 AM 12.11 53.798 0.028 6.86 4.76 10.3
10/26/2021 10:30:00 AM 12.12 53.816 0.029 6.87 5.43 10.32
10/26/2021 10:45:00 AM 12.13 53.834 0.029 6.87 6.06 10.33
10/26/2021 11:00:00 AM 12.14 53.852 0.029 6.87 5.75 10.35
10/26/2021 11:15:00 AM 12.15 53.87 0.028 6.87 5.54 10.36
10/26/2021 11:30:00 AM 12.15 53.87 0.028 6.86 5.66 10.37
10/26/2021 11:45:00 AM 12.15 53.87 0.028 6.89 5.89 10.37
10/26/2021 12:00:00 PM 12.14 53.852 0.028 6.9 5.77 10.37
10/26/2021 12:15:00 PM 12.12 53.816 0.028 6.91 6.13 10.37
10/26/2021 12:30:00 PM 12.11 53.798 0.029 6.9 6.35 10.38
10/26/2021 12:45:00 PM 12.09 53.762 0.029 6.9 6.45 10.38
10/26/2021 1:00:00 PM 12.07 53.726 0.029 6.9 6.48 10.38
10/26/2021 1:15:00 PM 12.04 53.672 0.028 6.88 7.03 10.39
10/26/2021 1:30:00 PM 12 53.6 0.028 6.87 7.29 10.39
10/26/2021 1:45:00 PM 11.97 53.546 0.028 6.86 7.13 10.4
10/26/2021 2:00:00 PM 11.94 53.492 0.028 6.85 7.46 10.41
10/26/2021 2:15:00 PM 11.89 53.402 0.028 6.85 7.82 10.41
10/26/2021 2:30:00 PM 11.84 53.312 0.028 6.83 8.51 10.41
10/26/2021 2:45:00 PM 11.79 53.222 0.028 6.82 8.52 10.41
10/26/2021 3:00:00 PM 11.74 53.132 0.027 6.82 8.74 10.42
10/26/2021 3:15:00 PM 11.69 53.042 0.027 6.79 9.33 10.42
10/26/2021 3:30:00 PM 11.65 52.97 0.027 6.77 10.31 10.41
10/26/2021 3:45:00 PM 11.62 52.916 0.027 6.78 11.44 10.42
10/26/2021 4:00:00 PM 11.59 52.862 0.026 6.77 11.77 10.43
10/26/2021 4:15:00 PM 11.56 52.808 0.026 6.75 12.3 10.43
10/26/2021 4:30:00 PM 11.52 52.736 0.026 6.74 13.54 10.43
10/26/2021 4:45:00 PM 11.5 52.7 0.025 6.73 14.05 10.43
10/26/2021 5:00:00 PM 11.46 52.628 0.025 6.72 13.82 10.43
10/26/2021 5:15:00 PM 11.43 52.574 0.025 6.68 13.84 10.43
10/26/2021 5:30:00 PM 11.4 52.52 0.025 6.68 14.37 10.44
10/26/2021 5:45:00 PM 11.36 52.448 0.025 6.69 13.99 10.44
10/26/2021 6:00:00 PM 11.33 52.394 0.024 6.68 14.07 10.45
10/26/2021 6:15:00 PM 11.29 52.322 0.024 6.67 14.21 10.45
10/26/2021 6:30:00 PM 11.25 52.25 0.024 6.65 13.64 10.46
10/26/2021 6:45:00 PM 11.22 52.196 0.024 6.65 13.42 10.47
10/26/2021 7:00:00 PM 11.19 52.142 0.024 6.63 13.64 10.48
10/26/2021 7:15:00 PM 11.16 52.088 0.024 6.63 13.16 10.48
10/26/2021 7:30:00 PM 11.14 52.052 0.024 6.61 12.56 10.5
10/26/2021 7:45:00 PM 11.12 52.016 0.024 6.61 11.74 10.5
10/26/2021 8:00:00 PM 11.1 51.98 0.024 6.59 13.52 10.5
10/26/2021 8:15:00 PM 11.09 51.962 0.024 6.57 12.23 10.52
10/26/2021 8:30:00 PM 11.07 51.926 0.023 6.58 10.94 10.52
10/26/2021 8:45:00 PM 11.06 51.908 0.023 6.56 11.1 10.52
10/26/2021 9:00:00 PM 11.05 51.89 0.023 6.56 11.04 10.53
10/26/2021 9:15:00 PM 11.05 51.89 0.023 6.56 10.68 10.53
10/26/2021 9:30:00 PM 11.05 51.89 0.023 6.54 10.76 10.54
10/26/2021 9:45:00 PM 11.05 51.89 0.023 6.53 10.34 10.55
10/26/2021 10:00:00 PM 11.06 51.908 0.023 6.52 9.82 10.55
10/26/2021 10:15:00 PM 11.06 51.908 0.023 6.51 10.26 10.56
10/26/2021 10:30:00 PM 11.07 51.926 0.022 6.52 10.52 10.55
10/26/2021 10:45:00 PM 11.08 51.944 0.022 6.51 10.23 10.56
10/26/2021 11:00:00 PM 11.09 51.962 0.022 6.51 9.96 10.56
10/26/2021 11:15:00 PM 11.1 51.98 0.022 6.49 11.24 10.56
10/26/2021 11:30:00 PM 11.1 51.98 0.022 6.48 10.39 10.56
10/26/2021 11:45:00 PM 11.11 51.998 0.022 6.47 10.15 10.55
10/27/2021 12:00:00 AM 11.12 52.016 0.022 6.46 10.69 10.56
10/27/2021 12:15:00 AM 11.12 52.016 0.021 6.45 10.31 10.56
10/27/2021 12:30:00 AM 11.12 52.016 0.021 6.44 10.64 10.56
10/27/2021 12:45:00 AM 11.12 52.016 0.021 6.44 10.62 10.56
10/27/2021 1:00:00 AM 11.12 52.016 0.021 6.43 10.79 10.57
10/27/2021 1:15:00 AM 11.12 52.016 0.021 6.42 10.65 10.57
10/27/2021 1:30:00 AM 11.11 51.998 0.021 6.41 10.57 10.57
10/27/2021 1:45:00 AM 11.11 51.998 0.021 6.36 10.83 10.57
10/27/2021 2:00:00 AM 11.11 51.998 0.021 6.31 10.8 10.57
10/27/2021 2:15:00 AM 11.1 51.98 0.021 6.33 11.04 10.57
10/27/2021 2:30:00 AM 11.1 51.98 0.021 6.34 10.86 10.58
10/27/2021 2:45:00 AM 11.1 51.98 0.02 6.35 11.26 10.58
10/27/2021 3:00:00 AM 11.09 51.962 0.02 6.35 10.63 10.58
10/27/2021 3:15:00 AM 11.09 51.962 0.02 6.34 10.68 10.58
10/27/2021 3:30:00 AM 11.09 51.962 0.02 6.35 10.6 10.58
10/27/2021 3:45:00 AM 11.08 51.944 0.02 6.35 10.07 10.58
10/27/2021 4:00:00 AM 11.08 51.944 0.02 6.34 9.8 10.58
10/27/2021 4:15:00 AM 11.07 51.926 0.02 6.33 9.77 10.58
10/27/2021 4:30:00 AM 11.07 51.926 0.02 6.34 9.32 10.58
10/27/2021 4:45:00 AM 11.06 51.908 0.02 6.34 9.31 10.59
10/27/2021 5:00:00 AM 11.06 51.908 0.02 6.33 9.24 10.59
10/27/2021 5:15:00 AM 11.05 51.89 0.02 6.34 8.84 10.59
10/27/2021 5:30:00 AM 11.04 51.872 0.02 6.33 8.77 10.6
10/27/2021 5:45:00 AM 11.03 51.854 0.02 6.33 8.86 10.6
10/27/2021 6:00:00 AM 11.03 51.854 0.02 6.32 8.66 10.6
10/27/2021 6:15:00 AM 11.02 51.836 0.02 6.32 8.62 10.6
10/27/2021 6:30:00 AM 11.01 51.818 0.02 6.32 8.25 10.6
10/27/2021 6:45:00 AM 11 51.8 0.02 6.32 8.01 10.61
10/27/2021 7:00:00 AM 10.99 51.782 0.02 6.31 8.12 10.62
10/27/2021 7:15:00 AM 10.98 51.764 0.02 6.31 7.64 10.62
10/27/2021 7:30:00 AM 10.97 51.746 0.02 6.3 7.86 10.62
10/27/2021 7:45:00 AM 10.96 51.728 0.02 6.3 7.6 10.63
10/27/2021 8:00:00 AM 10.95 51.71 0.02 6.3 7.38 10.63
10/27/2021 8:15:00 AM 10.94 51.692 0.02 6.29 7.4 10.64
10/27/2021 8:30:00 AM 10.93 51.674 0.02 6.29 7.39 10.64
10/27/2021 8:45:00 AM 10.92 51.656 0.02 6.29 7.13 10.64
10/27/2021 9:00:00 AM 10.91 51.638 0.02 6.29 6.97 10.65
10/27/2021 9:15:00 AM 10.9 51.62 0.02 6.29 6.97 10.66
10/27/2021 9:30:00 AM 10.88 51.584 0.02 6.29 6.69 10.66
10/27/2021 9:45:00 AM 10.88 51.584 0.02 6.29 6.63 10.67
10/27/2021 10:00:00 AM 10.87 51.566 0.02 6.28 6.69 10.68
10/27/2021 10:15:00 AM 10.86 51.548 0.02 6.28 6.49 10.69
10/27/2021 10:30:00 AM 10.86 51.548 0.02 6.28 6.35 10.7
10/27/2021 10:45:00 AM 10.85 51.53 0.019 6.28 6.27 10.71
10/27/2021 11:00:00 AM 10.85 51.53 0.019 6.29 6.25 10.71
10/27/2021 11:15:00 AM 10.84 51.512 0.019 6.28 6.08 10.72
10/27/2021 11:30:00 AM 10.85 51.53 0.019 6.28 5.94 10.73
10/27/2021 11:45:00 AM 10.86 51.548 0.019 6.28 5.97 10.75
10/27/2021 12:00:00 PM 10.89 51.602 0.019 6.28 7.51 10.76
10/27/2021 12:15:00 PM 10.94 51.692 0.019 6.29 5.64 10.77
10/27/2021 12:30:00 PM 10.97 51.746 0.019 6.29 5.62 10.77
10/27/2021 12:45:00 PM 11.04 51.872 0.019 6.29 5.82 10.77
10/27/2021 1:00:00 PM 11.12 52.016 0.019 6.29 5.66 10.76
10/27/2021 1:15:00 PM 11.09 51.962 0.019 6.3 5.54 10.76
10/27/2021 1:30:00 PM 11.15 52.07 0.019 6.3 5.35 10.76
10/27/2021 1:45:00 PM 11.2 52.16 0.019 6.3 5.31 10.75
10/27/2021 2:00:00 PM 11.26 52.268 0.019 6.3 5.22 10.74
10/27/2021 2:15:00 PM 11.29 52.322 0.019 6.31 5.19 10.73
10/27/2021 2:30:00 PM 11.32 52.376 0.019 6.3 5.2 10.71
10/27/2021 2:45:00 PM 11.35 52.43 0.019 6.3 4.9 10.71
10/27/2021 3:00:00 PM 11.37 52.466 0.019 6.3 4.88 10.69
10/27/2021 3:15:00 PM 11.41 52.538 0.019 6.3 5 10.68
10/27/2021 3:30:00 PM 11.43 52.574 0.019 6.3 4.88 10.66
10/27/2021 3:45:00 PM 11.45 52.61 0.019 6.31 4.8 10.65
10/27/2021 4:00:00 PM 11.47 52.646 0.019 6.31 4.59 10.64
10/27/2021 4:15:00 PM 11.48 52.664 0.019 6.31 4.42 10.63
10/27/2021 4:30:00 PM 11.48 52.664 0.019 6.32 4.47 10.61
10/27/2021 4:45:00 PM 11.49 52.682 0.019 6.31 4.48 10.6
10/27/2021 5:00:00 PM 11.48 52.664 0.02 6.3 4.52 10.59
10/27/2021 5:15:00 PM 11.49 52.682 0.02 6.3 4.33 10.58
10/27/2021 5:30:00 PM 11.49 52.682 0.019 6.29 4.55 10.57
10/27/2021 5:45:00 PM 11.48 52.664 0.019 6.29 4.56 10.57
10/27/2021 6:00:00 PM 11.47 52.646 0.019 6.29 4.47 10.57
10/27/2021 6:15:00 PM 11.46 52.628 0.019 6.28 4.24 10.57
10/27/2021 6:30:00 PM 11.43 52.574 0.019 6.27 4.42 10.57
10/27/2021 6:45:00 PM 11.41 52.538 0.019 6.28 4.35 10.57
10/27/2021 7:00:00 PM 11.38 52.484 0.019 6.28 4.45 10.58
10/27/2021 7:15:00 PM 11.34 52.412 0.019 6.28 4.44 10.58
10/27/2021 7:30:00 PM 11.31 52.358 0.019 6.27 4.42 10.59
10/27/2021 7:45:00 PM 11.27 52.286 0.019 6.27 4.3 10.6
10/27/2021 8:00:00 PM 11.24 52.232 0.019 6.28 4.38 10.61
10/27/2021 8:15:00 PM 11.2 52.16 0.019 6.28 4.16 10.62
10/27/2021 8:30:00 PM 11.16 52.088 0.019 6.28 4.19 10.63
10/27/2021 8:45:00 PM 11.13 52.034 0.019 6.28 4.42 10.64
10/27/2021 9:00:00 PM 11.09 51.962 0.019 6.28 4.23 10.65
10/27/2021 9:15:00 PM 11.05 51.89 0.019 6.28 4.18 10.66
10/27/2021 9:30:00 PM 11.01 51.818 0.019 6.28 4.09 10.67
10/27/2021 9:45:00 PM 10.97 51.746 0.019 6.28 4.06 10.68
10/27/2021 10:00:00 PM 10.92 51.656 0.019 6.29 4.06 10.68
10/27/2021 10:15:00 PM 10.88 51.584 0.019 6.29 4.06 10.7
10/27/2021 10:30:00 PM 10.84 51.512 0.019 6.29 4.86 10.71
10/27/2021 10:45:00 PM 10.8 51.44 0.019 6.28 4.09 10.72
10/27/2021 11:00:00 PM 10.76 51.368 0.019 6.29 4.11 10.72
10/27/2021 11:15:00 PM 10.72 51.296 0.019 6.28 4.11 10.74
10/27/2021 11:30:00 PM 10.67 51.206 0.019 6.28 3.98 10.75
10/27/2021 11:45:00 PM 10.63 51.134 0.019 6.28 4 10.75
10/28/2021 12:00:00 AM 10.58 51.044 0.019 6.28 3.86 10.76
10/28/2021 12:15:00 AM 10.54 50.972 0.019 6.29 3.83 10.78
10/28/2021 12:30:00 AM 10.5 50.9 0.019 6.29 3.82 10.78
10/28/2021 12:45:00 AM 10.45 50.81 0.019 6.29 3.69 10.79
10/28/2021 1:00:00 AM 10.41 50.738 0.019 6.29 3.77 10.81
10/28/2021 1:15:00 AM 10.37 50.666 0.019 6.3 3.79 10.82
10/28/2021 1:30:00 AM 10.33 50.594 0.019 6.29 3.66 10.83
10/28/2021 1:45:00 AM 10.29 50.522 0.019 6.3 3.56 10.84
10/28/2021 2:00:00 AM 10.24 50.432 0.019 6.3 3.63 10.85
10/28/2021 2:15:00 AM 10.19 50.342 0.019 6.3 3.53 10.86
10/28/2021 2:30:00 AM 10.13 50.234 0.019 6.3 3.48 10.88
10/28/2021 2:45:00 AM 10.08 50.144 0.019 6.31 3.52 10.89
10/28/2021 3:00:00 AM 10.04 50.072 0.019 6.3 723.24 10.9
10/28/2021 3:15:00 AM 9.99 49.982 0.019 6.3 3.49 10.92
10/28/2021 3:30:00 AM 9.95 49.91 0.019 6.3 3.47 10.93
10/28/2021 3:45:00 AM 9.9 49.82 0.019 6.3 3.59 10.94
10/28/2021 4:00:00 AM 9.86 49.748 0.019 6.31 3.58 10.95
10/28/2021 4:15:00 AM 9.81 49.658 0.019 6.32 3.73 10.96
10/28/2021 4:30:00 AM 9.77 49.586 0.019 6.31 3.51 10.97
10/28/2021 4:45:00 AM 9.72 49.496 0.019 6.31 3.47 10.98
10/28/2021 5:00:00 AM 9.67 49.406 0.019 6.32 3.48 10.99
10/28/2021 5:15:00 AM 9.62 49.316 0.019 6.32 3.3 11.01
10/28/2021 5:30:00 AM 9.57 49.226 0.02 6.32 3.34 11.02
10/28/2021 5:45:00 AM 9.5 49.1 0.02 6.32 3.36 11.03
10/28/2021 6:00:00 AM 9.45 49.01 0.02 6.32 3.35 11.05
10/28/2021 6:15:00 AM 9.41 48.938 0.02 6.32 3.3 11.06
10/28/2021 6:30:00 AM 9.35 48.83 0.02 6.32 3.32 11.07
10/28/2021 6:45:00 AM 9.3 48.74 0.02 6.32 3.33 11.08
10/28/2021 7:00:00 AM 9.26 48.668 0.02 6.31 3.3 11.09
10/28/2021 7:15:00 AM 9.21 48.578 0.02 6.32 3.27 11.1
10/28/2021 7:30:00 AM 9.17 48.506 0.02 6.32 3.32 11.13
10/28/2021 7:45:00 AM 9.12 48.416 0.02 6.32 3.38 11.14
10/28/2021 8:00:00 AM 9.08 48.344 0.02 6.33 3.37 11.15
10/28/2021 8:15:00 AM 9.04 48.272 0.02 6.33 3.39 11.18
10/28/2021 8:30:00 AM 9.01 48.218 0.02 6.33 3.33 11.19
10/28/2021 8:45:00 AM 8.98 48.164 0.02 6.33 3.37 11.21
10/28/2021 9:00:00 AM 8.96 48.128 0.02 6.34 3.24 11.22
10/28/2021 9:15:00 AM 8.95 48.11 0.02 6.35 3.25 11.24
10/28/2021 9:30:00 AM 8.96 48.128 0.02 6.35 3.28 11.26
10/28/2021 9:45:00 AM 8.98 48.164 0.02 6.36 3.29 11.28
10/28/2021 10:00:00 AM 9.02 48.236 0.02 6.36 3.32 11.28
10/28/2021 10:15:00 AM 9.07 48.326 0.02 6.37 3.15 11.29
10/28/2021 10:30:00 AM 9.13 48.434 0.02 6.37 3.34 11.29
10/28/2021 10:45:00 AM 9.21 48.578 0.02 6.38 3.19 11.29
10/28/2021 11:00:00 AM 9.29 48.722 0.02 6.39 3.2 11.29
10/28/2021 11:15:00 AM 9.39 48.902 0.02 6.4 3.16 11.28
10/28/2021 11:30:00 AM 9.49 49.082 0.02 6.4 3.17 11.27
10/28/2021 11:45:00 AM 9.58 49.244 0.02 6.41 3.18 11.25
10/28/2021 12:00:00 PM 9.68 49.424 0.02 6.42 3.12 11.24
10/28/2021 12:15:00 PM 9.78 49.604 0.02 6.42 3.2 11.22
10/28/2021 12:30:00 PM 9.88 49.784 0.02 6.42 3.13 11.2
10/28/2021 12:45:00 PM 9.96 49.928 0.02 6.43 3.13 11.19
10/28/2021 1:00:00 PM 10.04 50.072 0.02 6.43 3.09 11.16
10/28/2021 1:15:00 PM 10.12 50.216 0.02 6.44 3.15 11.15
10/28/2021 1:30:00 PM 10.19 50.342 0.02 6.44 3.03 11.13
10/28/2021 1:45:00 PM 10.25 50.45 0.02 6.44 3.16 11.12
10/28/2021 2:00:00 PM 10.32 50.576 0.02 6.45 3.03 11.09
10/28/2021 2:15:00 PM 10.37 50.666 0.02 6.45 3.05 11.07
10/28/2021 2:30:00 PM 10.43 50.774 0.02 6.45 3.03 11.05
10/28/2021 2:45:00 PM 10.49 50.882 0.02 6.46 3.13 11.03
10/28/2021 3:00:00 PM 10.55 50.99 0.02 6.46 3 11.02
10/28/2021 3:15:00 PM 10.6 51.08 0.02 6.46 3.03 11
10/28/2021 3:30:00 PM 10.66 51.188 0.02 6.46 3.09 10.97
10/28/2021 3:45:00 PM 10.71 51.278 0.02 6.46 3.37 10.96
10/28/2021 4:00:00 PM 10.75 51.35 0.02 6.47 3.21 10.94
10/28/2021 4:15:00 PM 10.77 51.386 0.02 6.47 2.97 10.92
10/28/2021 4:30:00 PM 10.79 51.422 0.02 6.46 3.07 10.89
10/28/2021 4:45:00 PM 10.8 51.44 0.02 6.46 3.04 10.86
10/28/2021 5:00:00 PM 10.83 51.494 0.02 6.46 3.01 10.84
10/28/2021 5:15:00 PM 10.87 51.566 0.02 6.46 2.96 10.83
10/28/2021 5:30:00 PM 10.91 51.638 0.02 6.46 3.03 10.82
10/28/2021 5:45:00 PM 10.94 51.692 0.02 6.46 3.05 10.8
10/28/2021 6:00:00 PM 10.94 51.692 0.02 6.45 2.88 10.76
10/28/2021 6:15:00 PM 10.94 51.692 0.02 6.44 3.08 10.73
10/28/2021 6:30:00 PM 10.94 51.692 0.02 6.44 3.03 10.7
10/28/2021 6:45:00 PM 10.93 51.674 0.02 6.43 2.99 10.69
10/28/2021 7:00:00 PM 10.93 51.674 0.02 6.43 3.05 10.68
10/28/2021 7:15:00 PM 10.92 51.656 0.02 6.43 3.06 10.67
10/28/2021 7:30:00 PM 10.92 51.656 0.02 6.42 3.06 10.67
10/28/2021 7:45:00 PM 10.9 51.62 0.02 6.42 3.07 10.66
10/28/2021 8:00:00 PM 10.88 51.584 0.021 6.43 3.04 10.67
10/28/2021 8:15:00 PM 10.85 51.53 0.021 6.42 3.07 10.68
10/28/2021 8:30:00 PM 10.82 51.476 0.021 6.41 3.12 10.67
10/28/2021 8:45:00 PM 10.79 51.422 0.021 6.41 3 10.69
10/28/2021 9:00:00 PM 10.75 51.35 0.021 6.42 3.15 10.69
10/28/2021 9:15:00 PM 10.71 51.278 0.021 6.42 2.95 10.71
10/28/2021 9:30:00 PM 10.67 51.206 0.021 6.42 2.99 10.71
10/28/2021 9:45:00 PM 10.62 51.116 0.021 6.42 2.98 10.73
10/28/2021 10:00:00 PM 10.57 51.026 0.021 6.42 2.99 10.74
10/28/2021 10:15:00 PM 10.52 50.936 0.021 6.42 3.09 10.75
10/28/2021 10:30:00 PM 10.48 50.864 0.021 6.42 3.05 10.76
10/28/2021 10:45:00 PM 10.44 50.792 0.021 6.42 3.08 10.77
10/28/2021 11:00:00 PM 10.4 50.72 0.021 6.42 2.93 10.79
10/28/2021 11:15:00 PM 10.36 50.648 0.021 6.41 2.91 10.79
10/28/2021 11:30:00 PM 10.35 50.63 0.021 6.42 2.9 10.81
10/28/2021 11:45:00 PM 10.35 50.63 0.021 6.42 2.99 10.81
10/29/2021 12:00:00 AM 10.36 50.648 0.021 6.43 2.99 10.81
10/29/2021 12:15:00 AM 10.35 50.63 0.021 6.43 2.96 10.82
10/29/2021 12:30:00 AM 10.35 50.63 0.021 6.43 3.02 10.82
10/29/2021 12:45:00 AM 10.35 50.63 0.021 6.44 2.99 10.83
10/29/2021 1:00:00 AM 10.34 50.612 0.021 6.43 2.98 10.83
10/29/2021 1:15:00 AM 10.34 50.612 0.021 6.44 2.93 10.82
10/29/2021 1:30:00 AM 10.34 50.612 0.021 6.44 2.9 10.83
10/29/2021 1:45:00 AM 10.33 50.594 0.021 6.44 2.92 10.82
10/29/2021 2:00:00 AM 10.33 50.594 0.021 6.44 2.89 10.82
10/29/2021 2:15:00 AM 10.32 50.576 0.021 6.44 2.82 10.83
10/29/2021 2:30:00 AM 10.31 50.558 0.021 6.44 2.88 10.83
10/29/2021 2:45:00 AM 10.29 50.522 0.021 6.45 2.96 10.83
10/29/2021 3:00:00 AM 10.28 50.504 0.021 6.45 2.86 10.83
10/29/2021 3:15:00 AM 10.27 50.486 0.021 6.44 2.83 10.83
10/29/2021 3:30:00 AM 10.25 50.45 0.021 6.45 2.75 10.84
10/29/2021 3:45:00 AM 10.24 50.432 0.021 6.45 2.81 10.84
10/29/2021 4:00:00 AM 10.23 50.414 0.021 6.45 2.77 10.84
10/29/2021 4:15:00 AM 10.21 50.378 0.021 6.45 2.95 10.84
10/29/2021 4:30:00 AM 10.19 50.342 0.021 6.45 2.86 10.84
10/29/2021 4:45:00 AM 10.18 50.324 0.021 6.45 2.87 10.85
10/29/2021 5:00:00 AM 10.16 50.288 0.021 6.45 2.86 10.85
10/29/2021 5:15:00 AM 10.15 50.27 0.021 6.46 2.8 10.85
10/29/2021 5:30:00 AM 10.14 50.252 0.021 6.46 2.93 10.86
10/29/2021 5:45:00 AM 10.12 50.216 0.021 6.46 2.85 10.86
10/29/2021 6:00:00 AM 10.11 50.198 0.021 6.46 2.81 10.86
10/29/2021 6:15:00 AM 10.1 50.18 0.021 6.46 2.81 10.86
10/29/2021 6:30:00 AM 10.09 50.162 0.021 6.46 2.78 10.86
10/29/2021 6:45:00 AM 10.08 50.144 0.021 6.47 2.91 10.86
10/29/2021 7:00:00 AM 10.07 50.126 0.021 6.47 2.96 10.87
10/29/2021 7:15:00 AM 10.05 50.09 0.021 6.47 2.78 10.87
10/29/2021 7:30:00 AM 10.03 50.054 0.021 6.47 2.89 10.87
10/29/2021 7:45:00 AM 10.02 50.036 0.021 6.47 2.82 10.88
10/29/2021 8:00:00 AM 10.01 50.018 0.021 6.47 2.86 10.88
10/29/2021 8:15:00 AM 10 50 0.021 6.48 2.85 10.89
10/29/2021 8:30:00 AM 9.99 49.982 0.021 6.48 2.98 10.91
10/29/2021 8:45:00 AM 9.98 49.964 0.021 6.49 2.89 10.92
10/29/2021 9:00:00 AM 9.97 49.946 0.021 6.49 3.25 10.94
10/29/2021 9:15:00 AM 9.97 49.946 0.021 6.5 2.91 10.96
10/29/2021 9:30:00 AM 9.97 49.946 0.021 6.5 2.73 10.97
10/29/2021 9:45:00 AM 9.96 49.928 0.021 6.5 2.84 11
10/29/2021 10:00:00 AM 10.02 50.036 0.021 6.52 2.76 11.03
10/29/2021 10:15:00 AM 10.07 50.126 0.021 6.52 2.82 11.06
10/29/2021 10:30:00 AM 10.09 50.162 0.021 6.53 2.71 11.07
10/29/2021 10:45:00 AM 10.11 50.198 0.021 6.53 2.63 11.09
10/29/2021 11:00:00 AM 10.14 50.252 0.021 6.54 2.72 11.09
10/29/2021 11:15:00 AM 10.18 50.324 0.021 6.54 2.76 11.09
10/29/2021 11:30:00 AM 10.2 50.36 0.021 6.54 2.75 11.09
10/29/2021 11:45:00 AM 10.23 50.414 0.021 6.55 2.58 11.09
10/29/2021 12:00:00 PM 10.27 50.486 0.021 6.55 2.59 11.09
10/29/2021 12:15:00 PM 10.28 50.504 0.021 6.56 2.79 11.08
10/29/2021 12:30:00 PM 10.28 50.504 0.021 6.55 2.59 11.07
10/29/2021 12:45:00 PM 10.29 50.522 0.021 6.56 2.67 11.08
10/29/2021 1:00:00 PM 10.36 50.648 0.021 6.57 2.69 11.08
10/29/2021 1:15:00 PM 10.46 50.828 0.021 6.56 2.72 11.06
10/29/2021 1:30:00 PM 10.52 50.936 0.021 6.57 2.93 11.06
10/29/2021 1:45:00 PM 10.47 50.846 0.021 6.57 2.58 11.03
10/29/2021 2:00:00 PM 10.42 50.756 0.021 6.56 2.67 11.02
10/29/2021 2:15:00 PM 10.39 50.702 0.021 6.56 2.73 11
10/29/2021 2:30:00 PM 10.42 50.756 0.021 6.56 2.64 11.01
10/29/2021 2:45:00 PM 10.43 50.774 0.022 6.57 2.69 11
10/29/2021 3:00:00 PM 10.41 50.738 0.022 6.55 2.61 10.98
10/29/2021 3:15:00 PM 10.39 50.702 0.022 6.56 2.56 10.97
10/29/2021 3:30:00 PM 10.36 50.648 0.022 6.55 2.68 10.96
10/29/2021 3:45:00 PM 10.35 50.63 0.022 6.55 2.72 10.94
10/29/2021 4:00:00 PM 10.33 50.594 0.022 6.54 2.57 10.91
10/29/2021 4:15:00 PM 10.3 50.54 0.022 6.54 2.68 10.89
10/29/2021 4:30:00 PM 10.28 50.504 0.022 6.54 2.66 10.89
10/29/2021 4:45:00 PM 10.26 50.468 0.022 6.54 2.6 10.88
10/29/2021 5:00:00 PM 10.23 50.414 0.022 6.54 2.64 10.88
10/29/2021 5:15:00 PM 10.21 50.378 0.022 6.54 2.69 10.87
10/29/2021 5:30:00 PM 10.19 50.342 0.022 6.53 2.59 10.85
10/29/2021 5:45:00 PM 10.16 50.288 0.022 6.53 2.57 10.82
10/29/2021 6:00:00 PM 10.14 50.252 0.022 6.52 2.73 10.8
10/29/2021 6:15:00 PM 10.12 50.216 0.022 6.53 2.66 10.8
10/29/2021 6:30:00 PM 10.1 50.18 0.022 6.52 2.62 10.79
10/29/2021 6:45:00 PM 10.08 50.144 0.022 6.52 2.9 10.79
10/29/2021 7:00:00 PM 10.07 50.126 0.022 6.52 2.74 10.8
10/29/2021 7:15:00 PM 10.05 50.09 0.022 6.52 2.76 10.79
10/29/2021 7:30:00 PM 10.04 50.072 0.022 6.53 3.29 10.8
10/29/2021 7:45:00 PM 10.02 50.036 0.022 6.54 3.28 10.8
10/29/2021 8:00:00 PM 10 50 0.022 6.53 3.06 10.81
10/29/2021 8:15:00 PM 9.98 49.964 0.022 6.55 3.73 10.81
10/29/2021 8:30:00 PM 9.94 49.892 0.022 6.56 4.88 10.83
10/29/2021 8:45:00 PM 9.91 49.838 0.022 6.58 5.39 10.84
10/29/2021 9:00:00 PM 9.88 49.784 0.022 6.58 4.74 10.85
10/29/2021 9:15:00 PM 9.86 49.748 0.023 6.6 5.64 10.85
10/29/2021 9:30:00 PM 9.84 49.712 0.023 6.62 6.76 10.87
10/29/2021 9:45:00 PM 9.83 49.694 0.023 6.63 7.92 10.87
10/29/2021 10:00:00 PM 9.81 49.658 0.023 6.62 9.18 10.88
10/29/2021 10:15:00 PM 9.79 49.622 0.023 6.61 8.8 10.89
10/29/2021 10:30:00 PM 9.78 49.604 0.023 6.58 8.42 10.88
10/29/2021 10:45:00 PM 9.77 49.586 0.023 6.57 8.02 10.89
10/29/2021 11:00:00 PM 9.75 49.55 0.022 6.56 8.22 10.89
10/29/2021 11:15:00 PM 9.74 49.532 0.022 6.54 9.18 10.91
10/29/2021 11:30:00 PM 9.74 49.532 0.022 6.55 9.81 10.9
10/29/2021 11:45:00 PM 9.73 49.514 0.022 6.53 10.58 10.91
10/30/2021 12:00:00 AM 9.73 49.514 0.022 6.54 11.88 10.92
10/30/2021 12:15:00 AM 9.72 49.496 0.021 6.51 12.61 10.91
10/30/2021 12:30:00 AM 9.71 49.478 0.021 6.49 9.3 10.92
10/30/2021 12:45:00 AM 9.7 49.46 0.021 6.48 8.16 10.92
10/30/2021 1:00:00 AM 9.69 49.442 0.021 6.48 7.89 10.92
10/30/2021 1:15:00 AM 9.68 49.424 0.021 6.46 7.77 10.92
10/30/2021 1:30:00 AM 9.67 49.406 0.021 6.45 8.64 10.93
10/30/2021 1:45:00 AM 9.67 49.406 0.021 6.46 9.32 10.93
10/30/2021 2:00:00 AM 9.66 49.388 0.021 6.46 9.55 10.93
10/30/2021 2:15:00 AM 9.66 49.388 0.021 6.46 9.31 10.92
10/30/2021 2:30:00 AM 9.66 49.388 0.021 6.45 8.56 10.93
10/30/2021 2:45:00 AM 9.66 49.388 0.021 6.44 8.51 10.93
10/30/2021 3:00:00 AM 9.66 49.388 0.02 6.43 7.82 10.92
10/30/2021 3:15:00 AM 9.66 49.388 0.02 6.44 7.29 10.93
10/30/2021 3:30:00 AM 9.66 49.388 0.02 6.42 7.33 10.92
10/30/2021 3:45:00 AM 9.65 49.37 0.02 6.42 7.12 10.93
10/30/2021 4:00:00 AM 9.65 49.37 0.02 6.41 7.04 10.93
10/30/2021 4:15:00 AM 9.65 49.37 0.02 6.41 6.54 10.93
10/30/2021 4:30:00 AM 9.64 49.352 0.02 6.41 6.38 10.92
10/30/2021 4:45:00 AM 9.64 49.352 0.02 6.41 6.07 10.93
10/30/2021 5:00:00 AM 9.64 49.352 0.02 6.4 5.83 10.92
10/30/2021 5:15:00 AM 9.63 49.334 0.02 6.4 5.75 10.92
10/30/2021 5:30:00 AM 9.63 49.334 0.02 6.4 5.64 10.93
10/30/2021 5:45:00 AM 9.62 49.316 0.02 6.38 5.47 10.93
10/30/2021 6:00:00 AM 9.62 49.316 0.02 6.38 5.39 10.93
10/30/2021 6:15:00 AM 9.62 49.316 0.02 6.38 5.18 10.93
10/30/2021 6:30:00 AM 9.62 49.316 0.02 6.38 5.22 10.94
10/30/2021 6:45:00 AM 9.62 49.316 0.02 6.38 5.16 10.93
10/30/2021 7:00:00 AM 9.61 49.298 0.02 6.38 4.96 10.93
10/30/2021 7:15:00 AM 9.61 49.298 0.02 6.37 4.99 10.94
10/30/2021 7:30:00 AM 9.61 49.298 0.02 6.38 4.85 10.94
10/30/2021 7:45:00 AM 9.61 49.298 0.02 6.37 4.87 10.94
10/30/2021 8:00:00 AM 9.61 49.298 0.019 6.37 4.71 10.94
10/30/2021 8:15:00 AM 9.62 49.316 0.019 6.37 4.63 10.95
10/30/2021 8:30:00 AM 9.63 49.334 0.019 6.37 4.64 10.96
10/30/2021 8:45:00 AM 9.63 49.334 0.019 6.37 4.64 10.96
10/30/2021 9:00:00 AM 9.64 49.352 0.019 6.37 4.42 10.96
10/30/2021 9:15:00 AM 9.66 49.388 0.019 6.37 4.36 10.97
10/30/2021 9:30:00 AM 9.66 49.388 0.019 6.38 4.28 10.98
10/30/2021 9:45:00 AM 9.68 49.424 0.019 6.38 4.36 10.98
10/30/2021 10:00:00 AM 9.7 49.46 0.019 6.38 4.29 10.99
10/30/2021 10:15:00 AM 9.72 49.496 0.019 6.38 4.28 11
10/30/2021 10:30:00 AM 9.73 49.514 0.019 6.38 4.29 11
10/30/2021 10:45:00 AM 9.74 49.532 0.019 6.38 4.29 10.98
10/30/2021 11:00:00 AM 9.75 49.55 0.019 6.38 4.11 10.98
10/30/2021 11:15:00 AM 9.76 49.568 0.019 6.38 4.24 10.98
10/30/2021 11:30:00 AM 9.79 49.622 0.019 6.39 4.14 10.99
10/30/2021 11:45:00 AM 9.81 49.658 0.019 6.39 4.11 11
10/30/2021 12:00:00 PM 9.83 49.694 0.019 6.39 4.08 10.98
10/30/2021 12:15:00 PM 9.85 49.73 0.019 6.4 4.1 10.99
10/30/2021 12:30:00 PM 9.87 49.766 0.019 6.4 4.13 10.98
10/30/2021 12:45:00 PM 9.88 49.784 0.019 6.4 4.11 10.96
10/30/2021 1:00:00 PM 9.9 49.82 0.019 6.4 4.06 10.96
10/30/2021 1:15:00 PM 9.92 49.856 0.019 6.4 4.02 10.95
10/30/2021 1:30:00 PM 9.96 49.928 0.019 6.4 3.93 10.95
10/30/2021 1:45:00 PM 9.99 49.982 0.019 6.4 4.1 10.95
10/30/2021 2:00:00 PM 10.02 50.036 0.019 6.4 4.03 10.95
10/30/2021 2:15:00 PM 10.03 50.054 0.019 6.4 4.04 10.92
10/30/2021 2:30:00 PM 10.04 50.072 0.019 6.41 3.9 10.9
10/30/2021 2:45:00 PM 10.06 50.108 0.019 6.4 3.96 10.88
10/30/2021 3:00:00 PM 10.07 50.126 0.019 6.39 3.96 10.88
10/30/2021 3:15:00 PM 10.11 50.198 0.019 6.4 3.95 10.89
10/30/2021 3:30:00 PM 10.2 50.36 0.019 6.41 3.98 10.92
10/30/2021 3:45:00 PM 10.26 50.468 0.019 6.42 3.97 10.93
10/30/2021 4:00:00 PM 10.27 50.486 0.019 6.42 3.97 10.91
10/30/2021 4:15:00 PM 10.27 50.486 0.019 6.41 3.84 10.89
10/30/2021 4:30:00 PM 10.28 50.504 0.019 6.42 3.79 10.87
10/30/2021 4:45:00 PM 10.29 50.522 0.02 6.41 3.93 10.86
10/30/2021 5:00:00 PM 10.29 50.522 0.02 6.41 3.85 10.85
10/30/2021 5:15:00 PM 10.29 50.522 0.02 6.41 3.83 10.84
10/30/2021 5:30:00 PM 10.29 50.522 0.02 6.4 3.86 10.83
10/30/2021 5:45:00 PM 10.27 50.486 0.019 6.4 3.81 10.82
10/30/2021 6:00:00 PM 10.26 50.468 0.019 6.39 3.84 10.8
10/30/2021 6:15:00 PM 10.24 50.432 0.019 6.39 3.83 10.8
10/30/2021 6:30:00 PM 10.22 50.396 0.019 6.38 3.84 10.8
10/30/2021 6:45:00 PM 10.2 50.36 0.019 6.39 3.79 10.79
10/30/2021 7:00:00 PM 10.19 50.342 0.019 6.38 3.55 10.79
10/30/2021 7:15:00 PM 10.17 50.306 0.019 6.38 3.7 10.8
10/30/2021 7:30:00 PM 10.15 50.27 0.019 6.37 3.6 10.8
10/30/2021 7:45:00 PM 10.13 50.234 0.019 6.37 3.55 10.8
10/30/2021 8:00:00 PM 10.12 50.216 0.019 6.37 3.59 10.81
10/30/2021 8:15:00 PM 10.1 50.18 0.019 6.37 3.68 10.81
10/30/2021 8:30:00 PM 10.08 50.144 0.019 6.38 3.62 10.82
10/30/2021 8:45:00 PM 10.05 50.09 0.019 6.38 3.66 10.83
10/30/2021 9:00:00 PM 10.02 50.036 0.019 6.38 3.65 10.83
10/30/2021 9:15:00 PM 10 50 0.019 6.38 3.69 10.83
10/30/2021 9:30:00 PM 9.98 49.964 0.019 6.37 3.72 10.84
10/30/2021 9:45:00 PM 9.96 49.928 0.019 6.38 3.77 10.85
10/30/2021 10:00:00 PM 9.94 49.892 0.019 6.38 3.57 10.86
10/30/2021 10:15:00 PM 9.92 49.856 0.019 6.37 3.49 10.86
10/30/2021 10:30:00 PM 9.9 49.82 0.019 6.37 3.76 10.87
10/30/2021 10:45:00 PM 9.89 49.802 0.019 6.37 3.66 10.86
10/30/2021 11:00:00 PM 9.87 49.766 0.019 6.37 3.38 10.87
10/30/2021 11:15:00 PM 9.85 49.73 0.019 6.37 3.58 10.88
10/30/2021 11:30:00 PM 9.83 49.694 0.019 6.37 3.62 10.87
10/30/2021 11:45:00 PM 9.81 49.658 0.019 6.37 3.56 10.88
10/31/2021 12:00:00 AM 9.79 49.622 0.019 6.36 3.42 10.88
10/31/2021 12:15:00 AM 9.77 49.586 0.019 6.36 4.25 10.89
10/31/2021 12:30:00 AM 9.75 49.55 0.019 6.36 3.41 10.89
10/31/2021 12:45:00 AM 9.74 49.532 0.019 6.36 3.58 10.89
10/31/2021 1:00:00 AM 9.72 49.496 0.019 6.36 3.59 10.89
10/31/2021 1:15:00 AM 9.71 49.478 0.02 6.36 3.92 10.9
10/31/2021 1:30:00 AM 9.7 49.46 0.019 6.36 3.29 10.9
10/31/2021 1:45:00 AM 9.68 49.424 0.02 6.36 3.33 10.9
10/31/2021 2:00:00 AM 9.66 49.388 0.02 6.36 3.29 10.9
10/31/2021 2:15:00 AM 9.64 49.352 0.02 6.36 3.29 10.91
10/31/2021 2:30:00 AM 9.62 49.316 0.02 6.36 3.28 10.9
10/31/2021 2:45:00 AM 9.6 49.28 0.02 6.36 3.32 10.91
10/31/2021 3:00:00 AM 9.58 49.244 0.02 6.36 3.24 10.92
10/31/2021 3:15:00 AM 9.55 49.19 0.02 6.36 4.59 10.91
10/31/2021 3:30:00 AM 9.53 49.154 0.02 6.36 3.18 10.92
10/31/2021 3:45:00 AM 9.51 49.118 0.02 6.36 3.14 10.93
10/31/2021 4:00:00 AM 9.5 49.1 0.02 6.36 3.12 10.93
10/31/2021 4:15:00 AM 9.48 49.064 0.02 6.36 3.1 10.94
10/31/2021 4:30:00 AM 9.45 49.01 0.02 6.36 3.1 10.94
10/31/2021 4:45:00 AM 9.43 48.974 0.02 6.36 3.11 10.94
10/31/2021 5:00:00 AM 9.41 48.938 0.02 6.36 3.03 10.95
10/31/2021 5:15:00 AM 9.4 48.92 0.02 6.36 3.02 10.96
10/31/2021 5:30:00 AM 9.38 48.884 0.02 6.36 3.14 10.96
10/31/2021 5:45:00 AM 9.37 48.866 0.02 6.36 3.07 10.97
10/31/2021 6:00:00 AM 9.35 48.83 0.02 6.36 3.04 10.98
10/31/2021 6:15:00 AM 9.34 48.812 0.02 6.36 3.1 10.98
10/31/2021 6:30:00 AM 9.33 48.794 0.02 6.37 2.95 10.99
10/31/2021 6:45:00 AM 9.31 48.758 0.02 6.36 2.95 10.98
10/31/2021 7:00:00 AM 9.3 48.74 0.02 6.36 3 10.99
10/31/2021 7:15:00 AM 9.29 48.722 0.02 6.37 3 10.99
10/31/2021 7:30:00 AM 9.28 48.704 0.02 6.36 3.06 11
10/31/2021 7:45:00 AM 9.27 48.686 0.02 6.36 3.01 11.01
10/31/2021 8:00:00 AM 9.27 48.686 0.02 6.36 2.95 11
10/31/2021 8:15:00 AM 9.27 48.686 0.02 6.36 2.99 11.01
10/31/2021 8:30:00 AM 9.27 48.686 0.02 6.37 3 11.02
10/31/2021 8:45:00 AM 9.27 48.686 0.02 6.37 2.95 11.04
10/31/2021 9:00:00 AM 9.28 48.704 0.02 6.37 2.89 11.05
10/31/2021 9:15:00 AM 9.29 48.722 0.02 6.38 2.88 11.06
10/31/2021 9:30:00 AM 9.3 48.74 0.02 6.38 2.92 11.07
10/31/2021 9:45:00 AM 9.32 48.776 0.02 6.39 2.87 11.08
10/31/2021 10:00:00 AM 9.34 48.812 0.02 6.39 2.84 11.08
10/31/2021 10:15:00 AM 9.36 48.848 0.02 6.39 2.84 11.09
10/31/2021 10:30:00 AM 9.39 48.902 0.02 6.4 2.88 11.1
10/31/2021 10:45:00 AM 9.43 48.974 0.02 6.41 2.83 11.1
10/31/2021 11:00:00 AM 9.47 49.046 0.02 6.41 2.91 11.11
10/31/2021 11:15:00 AM 9.52 49.136 0.02 6.42 2.96 11.12
10/31/2021 11:30:00 AM 9.55 49.19 0.02 6.43 2.84 11.11
10/31/2021 11:45:00 AM 9.58 49.244 0.02 6.43 2.9 11.11
10/31/2021 12:00:00 PM 9.63 49.334 0.02 6.44 2.86 11.11
10/31/2021 12:15:00 PM 9.71 49.478 0.02 6.44 2.81 11.11
10/31/2021 12:30:00 PM 9.76 49.568 0.02 6.44 2.83 11.1
10/31/2021 12:45:00 PM 9.81 49.658 0.02 6.45 2.83 11.1
10/31/2021 1:00:00 PM 9.91 49.838 0.02 6.46 2.78 11.09
10/31/2021 1:15:00 PM 9.94 49.892 0.02 6.45 2.8 11.07
10/31/2021 1:30:00 PM 9.92 49.856 0.02 6.45 2.9 11.03
10/31/2021 1:45:00 PM 9.97 49.946 0.02 6.46 2.86 11.03
10/31/2021 2:00:00 PM 10.04 50.072 0.02 6.47 2.78 11.04
10/31/2021 2:15:00 PM 10.07 50.126 0.02 6.47 2.81 11.02
10/31/2021 2:30:00 PM 10.09 50.162 0.02 6.47 2.8 11.01
10/31/2021 2:45:00 PM 10.16 50.288 0.02 6.47 2.85 11.01
10/31/2021 3:00:00 PM 10.17 50.306 0.02 6.48 2.86 11.01
10/31/2021 3:15:00 PM 10.2 50.36 0.02 6.48 2.87 11.01
10/31/2021 3:30:00 PM 10.23 50.414 0.02 6.48 2.86 11
10/31/2021 3:45:00 PM 10.24 50.432 0.02 6.48 2.83 10.99
10/31/2021 4:00:00 PM 10.26 50.468 0.02 6.48 2.88 10.98
10/31/2021 4:15:00 PM 10.27 50.486 0.02 6.48 2.85 10.97
10/31/2021 4:30:00 PM 10.29 50.522 0.02 6.48 2.88 10.96
10/31/2021 4:45:00 PM 10.3 50.54 0.02 6.48 2.87 10.94
10/31/2021 5:00:00 PM 10.3 50.54 0.02 6.47 2.81 10.92
10/31/2021 5:15:00 PM 10.31 50.558 0.02 6.47 2.86 10.9
10/31/2021 5:30:00 PM 10.31 50.558 0.02 6.46 2.89 10.87
10/31/2021 5:45:00 PM 10.31 50.558 0.02 6.46 2.88 10.86
10/31/2021 6:00:00 PM 10.31 50.558 0.02 6.46 2.91 10.84
10/31/2021 6:15:00 PM 10.31 50.558 0.02 6.46 2.9 10.82
10/31/2021 6:30:00 PM 10.31 50.558 0.02 6.45 2.99 10.81
10/31/2021 6:45:00 PM 10.31 50.558 0.02 6.45 2.92 10.81
10/31/2021 7:00:00 PM 10.31 50.558 0.02 6.45 2.94 10.81
10/31/2021 7:15:00 PM 10.32 50.576 0.02 6.44 2.93 10.81
10/31/2021 7:30:00 PM 10.32 50.576 0.02 6.44 2.93 10.81
10/31/2021 7:45:00 PM 10.31 50.558 0.02 6.44 2.91 10.81
10/31/2021 8:00:00 PM 10.28 50.504 0.02 6.44 2.92 10.81
10/31/2021 8:15:00 PM 10.25 50.45 0.02 6.44 2.97 10.82
10/31/2021 8:30:00 PM 10.23 50.414 0.02 6.44 2.84 10.82
10/31/2021 8:45:00 PM 10.2 50.36 0.02 6.44 2.95 10.83
10/31/2021 9:00:00 PM 10.19 50.342 0.02 6.43 2.85 10.84
10/31/2021 9:15:00 PM 10.18 50.324 0.02 6.44 2.93 10.85
10/31/2021 9:30:00 PM 10.14 50.252 0.02 6.44 2.91 10.85
10/31/2021 9:45:00 PM 10.11 50.198 0.02 6.43 2.98 10.86
10/31/2021 10:00:00 PM 10.07 50.126 0.02 6.44 2.92 10.87
10/31/2021 10:15:00 PM 10.04 50.072 0.021 6.43 2.88 10.88
10/31/2021 10:30:00 PM 10 50 0.02 6.43 2.85 10.89
10/31/2021 10:45:00 PM 9.97 49.946 0.021 6.43 2.82 10.9
10/31/2021 11:00:00 PM 9.93 49.874 0.021 6.43 2.83 10.91
10/31/2021 11:15:00 PM 9.89 49.802 0.021 6.43 2.85 10.92
10/31/2021 11:30:00 PM 9.84 49.712 0.021 6.43 2.93 10.93
10/31/2021 11:45:00 PM 9.8 49.64 0.021 6.43 2.83 10.94
11/1/2021 12:00:00 AM 9.77 49.586 0.021 6.42 2.83 10.95
11/1/2021 12:15:00 AM 9.74 49.532 0.021 6.43 2.81 10.95
11/1/2021 12:30:00 AM 9.69 49.442 0.02 6.43 2.75 10.97
11/1/2021 12:45:00 AM 9.66 49.388 0.02 6.42 2.76 10.98
11/1/2021 1:00:00 AM 9.63 49.334 0.021 6.42 2.78 10.99
11/1/2021 1:15:00 AM 9.6 49.28 0.021 6.43 2.71 11
11/1/2021 1:30:00 AM 9.57 49.226 0.021 6.43 2.72 11.01
11/1/2021 1:45:00 AM 9.54 49.172 0.021 6.42 2.83 11.02
11/1/2021 2:00:00 AM 9.51 49.118 0.021 6.42 2.76 11.02
11/1/2021 2:15:00 AM 9.48 49.064 0.021 6.42 2.75 11.02
11/1/2021 2:30:00 AM 9.46 49.028 0.021 6.42 2.71 11.03
11/1/2021 2:45:00 AM 9.44 48.992 0.021 6.42 2.72 11.04
11/1/2021 3:00:00 AM 9.43 48.974 0.021 6.43 2.66 11.05
11/1/2021 3:15:00 AM 9.4 48.92 0.021 6.43 2.82 11.05
11/1/2021 3:30:00 AM 9.38 48.884 0.021 6.42 2.68 11.05
11/1/2021 3:45:00 AM 9.36 48.848 0.021 6.43 2.72 11.07
11/1/2021 4:00:00 AM 9.35 48.83 0.021 6.43 2.68 11.07
11/1/2021 4:15:00 AM 9.35 48.83 0.021 6.43 2.71 11.08
11/1/2021 4:30:00 AM 9.36 48.848 0.021 6.43 2.72 11.08
11/1/2021 4:45:00 AM 9.36 48.848 0.021 6.44 2.62 11.1
11/1/2021 5:00:00 AM 9.36 48.848 0.021 6.44 2.65 11.1
11/1/2021 5:15:00 AM 9.36 48.848 0.021 6.44 2.71 11.1
11/1/2021 5:30:00 AM 9.36 48.848 0.021 6.44 2.71 11.1
11/1/2021 5:45:00 AM 9.36 48.848 0.021 6.43 2.65 11.1
11/1/2021 6:00:00 AM 9.37 48.866 0.021 6.43 2.66 11.1
11/1/2021 6:15:00 AM 9.37 48.866 0.021 6.44 2.64 11.12
11/1/2021 6:30:00 AM 9.36 48.848 0.021 6.44 2.56 11.11
11/1/2021 6:45:00 AM 9.35 48.83 0.021 6.43 2.77 11.12
11/1/2021 7:00:00 AM 9.32 48.776 0.021 6.44 2.72 11.13
11/1/2021 7:15:00 AM 9.29 48.722 0.021 6.44 2.68 11.13
11/1/2021 7:30:00 AM 9.25 48.65 0.021 6.44 2.67 11.15
11/1/2021 7:45:00 AM 9.22 48.596 0.021 6.44 2.64 11.15
11/1/2021 8:00:00 AM 9.19 48.542 0.021 6.44 2.71 11.18
11/1/2021 8:15:00 AM 9.15 48.47 0.021 6.45 2.59 11.2
11/1/2021 8:30:00 AM 9.12 48.416 0.021 6.44 2.66 11.21
11/1/2021 8:45:00 AM 9.1 48.38 0.021 6.45 2.64 11.24
11/1/2021 9:00:00 AM 9.07 48.326 0.021 6.45 2.65 11.27
11/1/2021 9:15:00 AM 9.05 48.29 0.021 6.45 2.66 11.29
11/1/2021 9:30:00 AM 9.05 48.29 0.021 6.46 2.62 11.31
11/1/2021 9:45:00 AM 9.06 48.308 0.021 6.47 2.62 11.34
11/1/2021 10:00:00 AM 9.09 48.362 0.021 6.48 2.55 11.37
11/1/2021 10:15:00 AM 9.1 48.38 0.021 6.48 2.66 11.39
11/1/2021 10:30:00 AM 9.13 48.434 0.021 6.49 2.67 11.4
11/1/2021 10:45:00 AM 9.14 48.452 0.021 6.49 2.58 11.42
11/1/2021 11:00:00 AM 9.14 48.452 0.021 6.49 2.63 11.43
11/1/2021 11:15:00 AM 9.22 48.596 0.021 6.49 2.66 11.43
11/1/2021 11:30:00 AM 9.27 48.686 0.021 6.49 2.61 11.42
11/1/2021 11:45:00 AM 9.28 48.704 0.021 6.5 2.63 11.41
11/1/2021 12:00:00 PM 9.26 48.668 0.021 6.51 2.55 11.41
11/1/2021 12:15:00 PM 9.27 48.686 0.021 6.5 2.63 11.41
11/1/2021 12:30:00 PM 9.32 48.776 0.021 6.5 2.61 11.41
11/1/2021 12:45:00 PM 9.38 48.884 0.021 6.51 2.54 11.42
11/1/2021 1:00:00 PM 9.45 49.01 0.021 6.51 2.58 11.41
11/1/2021 1:15:00 PM 9.48 49.064 0.021 6.51 2.57 11.4
11/1/2021 1:30:00 PM 9.52 49.136 0.021 6.51 2.58 11.41
11/1/2021 1:45:00 PM 9.55 49.19 0.021 6.52 2.7 11.4
11/1/2021 2:00:00 PM 9.57 49.226 0.021 6.52 2.61 11.4
11/1/2021 2:15:00 PM 9.58 49.244 0.021 6.52 2.67 11.39
11/1/2021 2:30:00 PM 9.58 49.244 0.021 6.52 2.6 11.38
11/1/2021 2:45:00 PM 9.6 49.28 0.021 6.53 2.67 11.38
11/1/2021 3:00:00 PM 9.62 49.316 0.021 6.53 2.55 11.38
11/1/2021 3:15:00 PM 9.62 49.316 0.021 6.53 2.54 11.37
11/1/2021 3:30:00 PM 9.62 49.316 0.021 6.53 2.76 11.36
11/1/2021 3:45:00 PM 9.61 49.298 0.021 6.53 2.55 11.35
11/1/2021 4:00:00 PM 9.6 49.28 0.021 6.52 2.5 11.34
11/1/2021 4:15:00 PM 9.59 49.262 0.021 6.53 2.55 11.33
11/1/2021 4:30:00 PM 9.59 49.262 0.021 6.52 2.53 11.31
11/1/2021 4:45:00 PM 9.56 49.208 0.021 6.52 2.6 11.29
11/1/2021 5:00:00 PM 9.53 49.154 0.021 6.51 2.5 11.27
11/1/2021 5:15:00 PM 9.52 49.136 0.021 6.52 2.61 11.25
11/1/2021 5:30:00 PM 9.51 49.118 0.021 6.51 2.6 11.24
11/1/2021 5:45:00 PM 9.49 49.082 0.021 6.51 2.58 11.22
11/1/2021 6:00:00 PM 9.48 49.064 0.021 6.5 2.5 11.19
11/1/2021 6:15:00 PM 9.46 49.028 0.021 6.49 2.52 11.17
11/1/2021 6:30:00 PM 9.44 48.992 0.021 6.49 2.55 11.16
11/1/2021 6:45:00 PM 9.41 48.938 0.021 6.48 2.52 11.15
11/1/2021 7:00:00 PM 9.39 48.902 0.021 6.48 2.59 11.15
11/1/2021 7:15:00 PM 9.37 48.866 0.021 6.47 2.53 11.15
11/1/2021 7:30:00 PM 9.34 48.812 0.021 6.47 2.61 11.16
11/1/2021 7:45:00 PM 9.3 48.74 0.021 6.47 2.64 11.16
11/1/2021 8:00:00 PM 9.27 48.686 0.021 6.47 2.6 11.17
11/1/2021 8:15:00 PM 9.24 48.632 0.021 6.47 2.57 11.18
11/1/2021 8:30:00 PM 9.2 48.56 0.021 6.47 2.6 11.19
11/1/2021 8:45:00 PM 9.15 48.47 0.021 6.47 2.57 11.21
11/1/2021 9:00:00 PM 9.1 48.38 0.021 6.47 2.59 11.22
11/1/2021 9:15:00 PM 9.05 48.29 0.021 6.47 2.58 11.23
11/1/2021 9:30:00 PM 9.01 48.218 0.021 6.46 2.57 11.25
11/1/2021 9:45:00 PM 8.96 48.128 0.021 6.47 2.63 11.26
11/1/2021 10:00:00 PM 8.9 48.02 0.022 6.46 2.61 11.27
11/1/2021 10:15:00 PM 8.85 47.93 0.022 6.47 2.65 11.29
11/1/2021 10:30:00 PM 8.79 47.822 0.022 6.47 2.55 11.3
11/1/2021 10:45:00 PM 8.74 47.732 0.021 6.46 2.61 11.32
11/1/2021 11:00:00 PM 8.69 47.642 0.022 6.46 2.61 11.34
11/1/2021 11:15:00 PM 8.64 47.552 0.022 6.46 2.62 11.35
11/1/2021 11:30:00 PM 8.61 47.498 0.022 6.47 2.54 11.36
11/1/2021 11:45:00 PM 8.56 47.408 0.022 6.47 2.58 11.36
11/2/2021 12:00:00 AM 8.51 47.318 0.022 6.46 2.55 11.38
11/2/2021 12:15:00 AM 8.47 47.246 0.022 6.47 2.51 11.4
11/2/2021 12:30:00 AM 8.44 47.192 0.022 6.46 2.57 11.39
11/2/2021 12:45:00 AM 8.41 47.138 0.022 6.47 2.46 11.42
11/2/2021 1:00:00 AM 8.38 47.084 0.022 6.46 2.56 11.43
11/2/2021 1:15:00 AM 8.36 47.048 0.022 6.46 2.5 11.43
11/2/2021 1:30:00 AM 8.34 47.012 0.022 6.46 2.5 11.44
11/2/2021 1:45:00 AM 8.32 46.976 0.022 6.46 2.57 11.45
11/2/2021 2:00:00 AM 8.29 46.922 0.022 6.46 2.5 11.44
11/2/2021 2:15:00 AM 8.27 46.886 0.022 6.46 2.55 11.46
11/2/2021 2:30:00 AM 8.25 46.85 0.022 6.47 2.49 11.46
11/2/2021 2:45:00 AM 8.23 46.814 0.022 6.46 2.54 11.46
11/2/2021 3:00:00 AM 8.21 46.778 0.022 6.47 2.46 11.47
11/2/2021 3:15:00 AM 8.2 46.76 0.022 6.46 2.45 11.48
11/2/2021 3:30:00 AM 8.18 46.724 0.022 6.46 2.51 11.48
11/2/2021 3:45:00 AM 8.16 46.688 0.022 6.46 2.46 11.48
11/2/2021 4:00:00 AM 8.15 46.67 0.022 6.46 2.52 11.48
11/2/2021 4:15:00 AM 8.13 46.634 0.022 6.46 2.51 11.49
11/2/2021 4:30:00 AM 8.11 46.598 0.022 6.46 2.5 11.5
11/2/2021 4:45:00 AM 8.09 46.562 0.022 6.46 2.55 11.5
11/2/2021 5:00:00 AM 8.08 46.544 0.022 6.46 2.51 11.51
11/2/2021 5:15:00 AM 8.07 46.526 0.022 6.46 2.48 11.51
11/2/2021 5:30:00 AM 8.05 46.49 0.022 6.46 2.55 11.52
11/2/2021 5:45:00 AM 8.03 46.454 0.022 6.46 2.45 11.53
11/2/2021 6:00:00 AM 8.01 46.418 0.022 6.46 2.45 11.52
11/2/2021 6:15:00 AM 7.98 46.364 0.022 6.47 2.43 11.54
11/2/2021 6:30:00 AM 7.97 46.346 0.022 6.46 2.39 11.54
11/2/2021 6:45:00 AM 7.95 46.31 0.022 6.46 2.39 11.54
11/2/2021 7:00:00 AM 7.94 46.292 0.022 6.46 2.36 11.55
11/2/2021 7:15:00 AM 7.93 46.274 0.022 6.46 2.43 11.55
11/2/2021 7:30:00 AM 7.92 46.256 0.022 6.46 2.51 11.56
11/2/2021 7:45:00 AM 7.91 46.238 0.022 6.47 2.4 11.55
11/2/2021 8:00:00 AM 7.9 46.22 0.022 6.47 2.41 11.58
11/2/2021 8:15:00 AM 7.89 46.202 0.022 6.47 2.43 11.58
11/2/2021 8:30:00 AM 7.89 46.202 0.022 6.48 2.52 11.6
11/2/2021 8:45:00 AM 7.9 46.22 0.022 6.47 2.49 11.6
11/2/2021 9:00:00 AM 7.9 46.22 0.022 6.49 2.46 11.66
11/2/2021 9:15:00 AM 7.91 46.238 0.022 6.5 2.5 11.68
11/2/2021 9:30:00 AM 7.93 46.274 0.022 6.49 2.4 11.7
11/2/2021 9:45:00 AM 7.97 46.346 0.022 6.51 2.42 11.74
11/2/2021 10:00:00 AM 7.99 46.382 0.022 6.52 2.41 11.76
11/2/2021 10:15:00 AM 8.01 46.418 0.022 6.53 2.47 11.78
11/2/2021 10:30:00 AM 8.04 46.472 0.022 6.52 2.37 11.78
11/2/2021 10:45:00 AM 8.06 46.508 0.022 6.53 2.37 11.78
11/2/2021 11:00:00 AM 8.09 46.562 0.022 6.55 2.35 11.81
11/2/2021 11:15:00 AM 8.13 46.634 0.022 6.54 2.38 11.8
11/2/2021 11:30:00 AM 8.18 46.724 0.022 6.55 2.39 11.81
11/2/2021 11:45:00 AM 8.24 46.832 0.022 6.55 2.41 11.8
11/2/2021 12:00:00 PM 8.3 46.94 0.022 6.54 2.45 11.79
11/2/2021 12:15:00 PM 8.35 47.03 0.022 6.55 2.41 11.79
11/2/2021 12:30:00 PM 8.41 47.138 0.022 6.56 2.45 11.78
11/2/2021 12:45:00 PM 8.45 47.21 0.022 6.55 2.57 11.76
11/2/2021 1:00:00 PM 8.48 47.264 0.022 6.57 2.4 11.76
11/2/2021 1:15:00 PM 8.49 47.282 0.022 6.57 2.38 11.76
11/2/2021 1:30:00 PM 8.47 47.246 0.022 6.56 2.47 11.71
11/2/2021 1:45:00 PM 8.46 47.228 0.022 6.56 2.4 11.71
11/2/2021 2:00:00 PM 8.46 47.228 0.023 6.56 2.33 11.71
11/2/2021 2:15:00 PM 8.5 47.3 0.022 6.56 2.39 11.71
11/2/2021 2:30:00 PM 8.51 47.318 0.023 6.57 2.36 11.71
11/2/2021 2:45:00 PM 8.52 47.336 0.022 6.56 2.39 11.7
11/2/2021 3:00:00 PM 8.52 47.336 0.023 6.57 2.5 11.69
11/2/2021 3:15:00 PM 8.54 47.372 0.023 6.55 2.45 11.67
11/2/2021 3:30:00 PM 8.55 47.39 0.023 6.57 2.33 11.68
11/2/2021 3:45:00 PM 8.57 47.426 0.023 6.56 2.37 11.66
11/2/2021 4:00:00 PM 8.54 47.372 0.023 6.57 2.34 11.65
11/2/2021 4:15:00 PM 8.5 47.3 0.023 6.56 2.38 11.61
11/2/2021 4:30:00 PM 8.47 47.246 0.023 6.55 2.41 11.58
11/2/2021 4:45:00 PM 8.46 47.228 0.023 6.56 2.39 11.58
11/2/2021 5:00:00 PM 8.47 47.246 0.023 6.55 2.46 11.59
11/2/2021 5:15:00 PM 8.47 47.246 0.023 6.55 2.39 11.57
11/2/2021 5:30:00 PM 8.43 47.174 0.023 6.54 2.44 11.53
11/2/2021 5:45:00 PM 8.4 47.12 0.023 6.54 2.35 11.49
11/2/2021 6:00:00 PM 8.36 47.048 0.023 6.53 2.41 11.49
11/2/2021 6:15:00 PM 8.34 47.012 0.023 6.53 2.34 11.47
11/2/2021 6:30:00 PM 8.31 46.958 0.024 6.53 2.36 11.47
11/2/2021 6:45:00 PM 8.27 46.886 0.024 6.53 2.59 11.46
11/2/2021 7:00:00 PM 8.21 46.778 0.023 6.52 2.48 11.46
11/2/2021 7:15:00 PM 8.17 46.706 0.023 6.52 2.48 11.48
11/2/2021 7:30:00 PM 8.13 46.634 0.023 6.51 2.45 11.48
11/2/2021 7:45:00 PM 8.1 46.58 0.023 6.52 2.42 11.49
11/2/2021 8:00:00 PM 8.07 46.526 0.023 6.51 2.49 11.49
11/2/2021 8:15:00 PM 8.05 46.49 0.023 6.51 2.5 11.51
11/2/2021 8:30:00 PM 8.03 46.454 0.023 6.52 2.36 11.51
11/2/2021 8:45:00 PM 8 46.4 0.023 6.51 2.48 11.52
11/2/2021 9:00:00 PM 7.97 46.346 0.023 6.51 2.38 11.52
11/2/2021 9:15:00 PM 7.94 46.292 0.023 6.51 2.46 11.54
11/2/2021 9:30:00 PM 7.91 46.238 0.023 6.51 2.55 11.56
11/2/2021 9:45:00 PM 7.88 46.184 0.023 6.51 2.44 11.55
11/2/2021 10:00:00 PM 7.85 46.13 0.023 6.51 2.36 11.57
11/2/2021 10:15:00 PM 7.8 46.04 0.023 6.51 2.46 11.59
11/2/2021 10:30:00 PM 7.75 45.95 0.023 6.5 2.51 11.58
11/2/2021 10:45:00 PM 7.7 45.86 0.023 6.51 2.45 11.6
11/2/2021 11:00:00 PM 7.64 45.752 0.023 6.5 2.5 11.61
11/2/2021 11:15:00 PM 7.59 45.662 0.023 6.5 2.41 11.62
11/2/2021 11:30:00 PM 7.54 45.572 0.023 6.5 2.5 11.62
11/2/2021 11:45:00 PM 7.47 45.446 0.023 6.51 2.41 11.66
11/3/2021 12:00:00 AM 7.43 45.374 0.023 6.5 2.44 11.68
11/3/2021 12:15:00 AM 7.39 45.302 0.023 6.51 2.45 11.69
11/3/2021 12:30:00 AM 7.34 45.212 0.023 6.51 2.39 11.7
11/3/2021 12:45:00 AM 7.3 45.14 0.023 6.5 2.48 11.71
11/3/2021 1:00:00 AM 7.23 45.014 0.023 6.51 2.45 11.72
11/3/2021 1:15:00 AM 7.17 44.906 0.023 6.5 2.36 11.73
11/3/2021 1:30:00 AM 7.1 44.78 0.023 6.49 2.41 11.75
11/3/2021 1:45:00 AM 7.04 44.672 0.023 6.48 2.37 11.77
11/3/2021 2:00:00 AM 6.99 44.582 0.023 6.48 2.45 11.78
11/3/2021 2:15:00 AM 6.93 44.474 0.023 6.49 2.51 11.8
11/3/2021 2:30:00 AM 6.87 44.366 0.023 6.48 2.4 11.82
11/3/2021 2:45:00 AM 6.82 44.276 0.023 6.49 2.5 11.84
11/3/2021 3:00:00 AM 6.77 44.186 0.023 6.48 2.39 11.86
11/3/2021 3:15:00 AM 6.73 44.114 0.023 6.49 2.43 11.88
11/3/2021 3:30:00 AM 6.69 44.042 0.023 6.49 2.47 11.89
11/3/2021 3:45:00 AM 6.67 44.006 0.023 6.49 2.43 11.89
11/3/2021 4:00:00 AM 6.64 43.952 0.023 6.49 2.32 11.9
11/3/2021 4:15:00 AM 6.59 43.862 0.023 6.49 2.39 11.93
11/3/2021 4:30:00 AM 6.56 43.808 0.023 6.5 2.48 11.94
11/3/2021 4:45:00 AM 6.52 43.736 0.023 6.49 2.37 11.94
11/3/2021 5:00:00 AM 6.48 43.664 0.023 6.5 2.31 11.95
11/3/2021 5:15:00 AM 6.44 43.592 0.023 6.49 2.43 11.97
11/3/2021 5:30:00 AM 6.41 43.538 0.023 6.49 2.35 11.97
11/3/2021 5:45:00 AM 6.36 43.448 0.023 6.5 2.52 11.99
11/3/2021 6:00:00 AM 6.32 43.376 0.023 6.49 2.45 11.99
11/3/2021 6:15:00 AM 6.28 43.304 0.023 6.5 2.34 12.01
11/3/2021 6:30:00 AM 6.24 43.232 0.023 6.49 2.33 12.01
11/3/2021 6:45:00 AM 6.2 43.16 0.023 6.49 2.33 12.03
11/3/2021 7:00:00 AM 6.15 43.07 0.023 6.49 2.49 12.05
11/3/2021 7:15:00 AM 6.12 43.016 0.023 6.49 2.33 12.06
11/3/2021 7:30:00 AM 6.08 42.944 0.023 6.49 2.41 12.05
11/3/2021 7:45:00 AM 6.03 42.854 0.023 6.49 2.44 12.1
11/3/2021 8:00:00 AM 5.99 42.782 0.023 6.5 2.33 12.13
11/3/2021 8:15:00 AM 5.96 42.728 0.023 6.49 2.38 12.15
11/3/2021 8:30:00 AM 5.95 42.71 0.023 6.5 2.35 12.18
11/3/2021 8:45:00 AM 5.95 42.71 0.023 6.52 2.35 12.22
11/3/2021 9:00:00 AM 5.95 42.71 0.023 6.52 2.28 12.25
11/3/2021 9:15:00 AM 5.94 42.692 0.023 6.53 2.34 12.28
11/3/2021 9:30:00 AM 5.93 42.674 0.023 6.53 2.35 12.29
11/3/2021 9:45:00 AM 5.97 42.746 0.023 6.55 2.26 12.32
11/3/2021 10:00:00 AM 6.02 42.836 0.023 6.55 2.29 12.34
11/3/2021 10:15:00 AM 6.06 42.908 0.023 6.55 2.28 12.33
11/3/2021 10:30:00 AM 6.09 42.962 0.023 6.56 2.37 12.35
11/3/2021 10:45:00 AM 6.16 43.088 0.023 6.56 2.37 12.36
11/3/2021 11:00:00 AM 6.23 43.214 0.023 6.56 2.31 12.36
11/3/2021 11:15:00 AM 6.26 43.268 0.023 6.59 2.25 12.38
11/3/2021 11:30:00 AM 6.31 43.358 0.023 6.58 2.3 12.37
11/3/2021 11:45:00 AM 6.36 43.448 0.023 6.59 2.35 12.36
11/3/2021 12:00:00 PM 6.41 43.538 0.023 6.6 2.35 12.35
11/3/2021 12:15:00 PM 6.47 43.646 0.023 6.6 2.22 12.34
11/3/2021 12:30:00 PM 6.52 43.736 0.023 6.59 2.42 12.33
11/3/2021 12:45:00 PM 6.57 43.826 0.023 6.6 2.27 12.32
11/3/2021 1:00:00 PM 6.62 43.916 0.023 6.6 2.38 12.33
11/3/2021 1:15:00 PM 6.67 44.006 0.023 6.61 2.33 12.31
11/3/2021 1:30:00 PM 6.67 44.006 0.023 6.62 2.33 12.3
11/3/2021 1:45:00 PM 6.69 44.042 0.023 6.62 2.5 12.3
11/3/2021 2:00:00 PM 6.73 44.114 0.023 6.61 2.37 12.27
11/3/2021 2:15:00 PM 6.79 44.222 0.023 6.62 2.21 12.27
11/3/2021 2:30:00 PM 6.84 44.312 0.023 6.62 2.28 12.26
11/3/2021 2:45:00 PM 6.87 44.366 0.023 6.6 2.35 12.23
11/3/2021 3:00:00 PM 6.91 44.438 0.023 6.62 2.43 12.23
11/3/2021 3:15:00 PM 6.91 44.438 0.023 6.61 2.32 12.2
11/3/2021 3:30:00 PM 6.91 44.438 0.023 6.62 2.25 12.2
11/3/2021 3:45:00 PM 6.9 44.42 0.023 6.62 2.28 12.18
11/3/2021 4:00:00 PM 6.88 44.384 0.023 6.62 2.25 12.17
11/3/2021 4:15:00 PM 6.87 44.366 0.023 6.6 2.47 12.16
11/3/2021 4:30:00 PM 6.86 44.348 0.023 6.62 2.37 12.16
11/3/2021 4:45:00 PM 6.84 44.312 0.023 6.61 2.27 12.17
11/3/2021 5:00:00 PM 6.83 44.294 0.023 6.6 2.3 12.14
11/3/2021 5:15:00 PM 6.81 44.258 0.023 6.6 2.32 12.12
11/3/2021 5:30:00 PM 6.78 44.204 0.023 6.6 2.32 12.09
11/3/2021 5:45:00 PM 6.74 44.132 0.023 6.58 2.26 12.06
11/3/2021 6:00:00 PM 6.69 44.042 0.023 6.58 2.32 12.04
11/3/2021 6:15:00 PM 6.65 43.97 0.023 6.58 2.23 12.02
11/3/2021 6:30:00 PM 6.61 43.898 0.023 6.56 2.33 12
11/3/2021 6:45:00 PM 6.57 43.826 0.023 6.56 2.28 11.99
11/3/2021 7:00:00 PM 6.54 43.772 0.023 6.57 2.32 12.01
11/3/2021 7:15:00 PM 6.51 43.718 0.023 6.56 2.35 11.99
11/3/2021 7:30:00 PM 6.48 43.664 0.023 6.56 2.27 12
11/3/2021 7:45:00 PM 6.46 43.628 0.023 6.56 2.3 12.02
11/3/2021 8:00:00 PM 6.44 43.592 0.023 6.55 2.32 12.01
11/3/2021 8:15:00 PM 6.43 43.574 0.023 6.55 2.3 12.01
11/3/2021 8:30:00 PM 6.42 43.556 0.023 6.55 2.3 12.03
11/3/2021 8:45:00 PM 6.4 43.52 0.024 6.55 2.28 12.03
11/3/2021 9:00:00 PM 6.39 43.502 0.023 6.55 2.25 12.04
11/3/2021 9:15:00 PM 6.38 43.484 0.024 6.54 2.26 12.04
11/3/2021 9:30:00 PM 6.36 43.448 0.024 6.55 2.28 12.04
11/3/2021 9:45:00 PM 6.34 43.412 0.024 6.55 2.28 12.05
11/3/2021 10:00:00 PM 6.32 43.376 0.024 6.55 2.3 12.05
11/3/2021 10:15:00 PM 6.29 43.322 0.024 6.55 2.35 12.06
11/3/2021 10:30:00 PM 6.26 43.268 0.024 6.54 2.29 12.05
11/3/2021 10:45:00 PM 6.22 43.196 0.024 6.55 2.23 12.07
11/3/2021 11:00:00 PM 6.19 43.142 0.024 6.55 2.33 12.09
11/3/2021 11:15:00 PM 6.17 43.106 0.024 6.54 2.31 12.08
11/3/2021 11:30:00 PM 6.13 43.034 0.024 6.54 2.3 12.09
11/3/2021 11:45:00 PM 6.1 42.98 0.024 6.53 2.3 12.12
11/4/2021 12:00:00 AM 6.05 42.89 0.024 6.55 2.29 12.14
11/4/2021 12:15:00 AM 6 42.8 0.024 6.53 2.35 12.15
11/4/2021 12:30:00 AM 5.95 42.71 0.024 6.54 2.27 12.13
11/4/2021 12:45:00 AM 5.9 42.62 0.024 6.53 2.29 12.16
11/4/2021 1:00:00 AM 5.87 42.566 0.024 6.53 2.39 12.18
11/4/2021 1:15:00 AM 5.82 42.476 0.024 6.53 2.42 12.2
11/4/2021 1:30:00 AM 5.78 42.404 0.024 6.52 2.25 12.21
11/4/2021 1:45:00 AM 5.75 42.35 0.024 6.54 2.42 12.22
11/4/2021 2:00:00 AM 5.7 42.26 0.024 6.53 2.3 12.25
11/4/2021 2:15:00 AM 5.67 42.206 0.024 6.53 2.22 12.25
11/4/2021 2:30:00 AM 5.63 42.134 0.024 6.53 2.28 12.26
11/4/2021 2:45:00 AM 5.59 42.062 0.024 6.53 2.24 12.26
11/4/2021 3:00:00 AM 5.55 41.99 0.024 6.53 2.23 12.29
11/4/2021 3:15:00 AM 5.5 41.9 0.024 6.53 2.3 12.3
11/4/2021 3:30:00 AM 5.46 41.828 0.024 6.53 2.3 12.31
11/4/2021 3:45:00 AM 5.4 41.72 0.024 6.53 2.37 12.34
11/4/2021 4:00:00 AM 5.35 41.63 0.024 6.53 2.27 12.35
11/4/2021 4:15:00 AM 5.31 41.558 0.024 6.53 2.22 12.36
11/4/2021 4:30:00 AM 5.26 41.468 0.024 6.53 2.27 12.37
11/4/2021 4:45:00 AM 5.22 41.396 0.024 6.53 2.33 12.39
11/4/2021 5:00:00 AM 5.19 41.342 0.024 6.52 2.27 12.4
11/4/2021 5:15:00 AM 5.15 41.27 0.024 6.53 2.26 12.41
11/4/2021 5:30:00 AM 5.11 41.198 0.024 6.52 2.21 12.43
11/4/2021 5:45:00 AM 5.07 41.126 0.024 6.53 2.26 12.44
11/4/2021 6:00:00 AM 5.03 41.054 0.024 6.52 2.24 12.46
11/4/2021 6:15:00 AM 4.98 40.964 0.024 6.53 2.31 12.46
11/4/2021 6:30:00 AM 4.93 40.874 0.024 6.53 2.22 12.5
11/4/2021 6:45:00 AM 4.88 40.784 0.024 6.53 2.29 12.5
11/4/2021 7:00:00 AM 4.84 40.712 0.024 6.53 2.32 12.52
11/4/2021 7:15:00 AM 4.79 40.622 0.024 6.52 2.29 12.52
11/4/2021 7:30:00 AM 4.75 40.55 0.024 6.52 2.29 12.54
11/4/2021 7:45:00 AM 4.71 40.478 0.024 6.53 2.15 12.55
11/4/2021 8:00:00 AM 4.66 40.388 0.024 6.53 2.24 12.59
11/4/2021 8:15:00 AM 4.62 40.316 0.024 6.52 2.15 12.6
11/4/2021 8:30:00 AM 4.59 40.262 0.024 6.53 2.29 12.64
11/4/2021 8:45:00 AM 4.56 40.208 0.024 6.53 2.24 12.68
11/4/2021 9:00:00 AM 4.54 40.172 0.024 6.55 2.26 12.74
11/4/2021 9:15:00 AM 4.55 40.19 0.024 6.55 2.19 12.76
11/4/2021 9:30:00 AM 4.56 40.208 0.024 6.56 2.32 12.79
11/4/2021 9:45:00 AM 4.59 40.262 0.024 6.56 2.21 12.81
11/4/2021 10:00:00 AM 4.62 40.316 0.024 6.58 2.2 12.82
11/4/2021 10:15:00 AM 4.67 40.406 0.024 6.59 2.29 12.84
11/4/2021 10:30:00 AM 4.75 40.55 0.024 6.59 2.18 12.84
11/4/2021 10:45:00 AM 4.83 40.694 0.024 6.59 2.3 12.82
11/4/2021 11:00:00 AM 4.93 40.874 0.024 6.6 2.23 12.83
11/4/2021 11:15:00 AM 5.03 41.054 0.024 6.61 2.22 12.81
11/4/2021 11:30:00 AM 5.13 41.234 0.024 6.6 2.17 12.78
11/4/2021 11:45:00 AM 5.26 41.468 0.024 6.63 2.21 12.79
11/4/2021 12:00:00 PM 5.38 41.684 0.024 6.62 2.24 12.77
11/4/2021 12:15:00 PM 5.45 41.81 0.024 6.63 2.18 12.73
11/4/2021 12:30:00 PM 5.49 41.882 0.024 6.64 2.28 12.71
11/4/2021 12:45:00 PM 5.51 41.918 0.024 6.64 2.24 12.72
11/4/2021 1:00:00 PM 5.58 42.044 0.024 6.63 2.21 12.7
11/4/2021 1:15:00 PM 5.7 42.26 0.024 6.65 2.22 12.68
11/4/2021 1:30:00 PM 5.86 42.548 0.024 6.65 2.12 12.65
11/4/2021 1:45:00 PM 5.97 42.746 0.024 6.66 2.27 12.65
11/4/2021 2:00:00 PM 6.03 42.854 0.024 6.66 2.3 12.59
11/4/2021 2:15:00 PM 6.02 42.836 0.024 6.66 2.26 12.61
11/4/2021 2:30:00 PM 5.99 42.782 0.024 6.66 2.22 12.58
11/4/2021 2:45:00 PM 5.99 42.782 0.024 6.66 2.25 12.59
11/4/2021 3:00:00 PM 6 42.8 0.024 6.65 2.23 12.58
11/4/2021 3:15:00 PM 6 42.8 0.024 6.65 2.15 12.57
11/4/2021 3:30:00 PM 5.99 42.782 0.024 6.66 2.21 12.54
11/4/2021 3:45:00 PM 5.99 42.782 0.024 6.65 2.26 12.55
11/4/2021 4:00:00 PM 5.98 42.764 0.024 6.65 2.3 12.53
11/4/2021 4:15:00 PM 5.98 42.764 0.024 6.65 2.21 12.53
11/4/2021 4:30:00 PM 5.98 42.764 0.024 6.66 2.3 12.53
11/4/2021 4:45:00 PM 5.98 42.764 0.024 6.66 2.25 12.51
11/4/2021 5:00:00 PM 5.97 42.746 0.024 6.65 2.18 12.46
11/4/2021 5:15:00 PM 5.95 42.71 0.024 6.64 2.18 12.44
11/4/2021 5:30:00 PM 5.92 42.656 0.024 6.64 2.25 12.43
11/4/2021 5:45:00 PM 5.88 42.584 0.024 6.62 2.2 12.41
11/4/2021 6:00:00 PM 5.85 42.53 0.024 6.64 2.2 12.37
11/4/2021 6:15:00 PM 5.82 42.476 0.024 6.62 2.25 12.32
11/4/2021 6:30:00 PM 5.78 42.404 0.024 6.6 2.31 12.29
11/4/2021 6:45:00 PM 5.74 42.332 0.024 6.61 2.29 12.29
11/4/2021 7:00:00 PM 5.71 42.278 0.024 6.6 2.21 12.27
11/4/2021 7:15:00 PM 5.67 42.206 0.024 6.61 2.3 12.27
11/4/2021 7:30:00 PM 5.62 42.116 0.024 6.6 2.24 12.28
11/4/2021 7:45:00 PM 5.59 42.062 0.024 6.6 2.25 12.29
11/4/2021 8:00:00 PM 5.54 41.972 0.024 6.6 2.31 12.29
11/4/2021 8:15:00 PM 5.5 41.9 0.024 6.59 2.35 12.3
11/4/2021 8:30:00 PM 5.46 41.828 0.024 6.6 2.2 12.32
11/4/2021 8:45:00 PM 5.42 41.756 0.024 6.59 2.44 12.32
11/4/2021 9:00:00 PM 5.39 41.702 0.024 6.59 2.28 12.32
11/4/2021 9:15:00 PM 5.35 41.63 0.024 6.59 2.28 12.34
11/4/2021 9:30:00 PM 5.31 41.558 0.024 6.59 2.21 12.34
11/4/2021 9:45:00 PM 5.27 41.486 0.024 6.59 2.3 12.37
11/4/2021 10:00:00 PM 5.24 41.432 0.024 6.59 2.31 12.36
11/4/2021 10:15:00 PM 5.2 41.36 0.024 6.58 2.25 12.38
11/4/2021 10:30:00 PM 5.17 41.306 0.024 6.58 2.3 12.39
11/4/2021 10:45:00 PM 5.13 41.234 0.024 6.58 2.27 12.4
11/4/2021 11:00:00 PM 5.09 41.162 0.024 6.58 2.34 12.41
11/4/2021 11:15:00 PM 5.06 41.108 0.024 6.58 2.31 12.42
11/4/2021 11:30:00 PM 5.02 41.036 0.024 6.58 2.3 12.44
11/4/2021 11:45:00 PM 4.98 40.964 0.024 6.59 2.37 12.46
11/5/2021 12:00:00 AM 4.95 40.91 0.024 6.58 2.25 12.46
11/5/2021 12:15:00 AM 4.9 40.82 0.024 6.59 2.26 12.49
11/5/2021 12:30:00 AM 4.86 40.748 0.024 6.58 2.26 12.48
11/5/2021 12:45:00 AM 4.82 40.676 0.024 6.57 2.22 12.5
11/5/2021 1:00:00 AM 4.78 40.604 0.024 6.57 2.25 12.51
11/5/2021 1:15:00 AM 4.74 40.532 0.024 6.57 2.24 12.53
11/5/2021 1:30:00 AM 4.7 40.46 0.024 6.56 2.25 12.53
11/5/2021 1:45:00 AM 4.65 40.37 0.024 6.59 2.3 12.56
11/5/2021 2:00:00 AM 4.6 40.28 0.024 6.58 2.25 12.57
11/5/2021 2:15:00 AM 4.56 40.208 0.024 6.57 2.24 12.59
11/5/2021 2:30:00 AM 4.52 40.136 0.024 6.57 2.27 12.6
11/5/2021 2:45:00 AM 4.48 40.064 0.024 6.56 2.26 12.6
11/5/2021 3:00:00 AM 4.44 39.992 0.024 6.55 2.23 12.61
11/5/2021 3:15:00 AM 4.39 39.902 0.024 6.56 2.27 12.63
11/5/2021 3:30:00 AM 4.34 39.812 0.024 6.56 2.2 12.65
11/5/2021 3:45:00 AM 4.29 39.722 0.024 6.55 2.31 12.68
11/5/2021 4:00:00 AM 4.25 39.65 0.024 6.56 2.25 12.69
11/5/2021 4:15:00 AM 4.21 39.578 0.024 6.55 2.26 12.7
11/5/2021 4:30:00 AM 4.16 39.488 0.024 6.55 2.29 12.72
11/5/2021 4:45:00 AM 4.12 39.416 0.024 6.55 2.3 12.73
11/5/2021 5:00:00 AM 4.07 39.326 0.024 6.56 2.27 12.75
11/5/2021 5:15:00 AM 4.02 39.236 0.025 6.55 2.18 12.76
11/5/2021 5:30:00 AM 3.97 39.146 0.024 6.55 2.23 12.79
11/5/2021 5:45:00 AM 3.93 39.074 0.024 6.55 2.27 12.8
11/5/2021 6:00:00 AM 3.88 38.984 0.024 6.56 2.26 12.82
11/5/2021 6:15:00 AM 3.83 38.894 0.024 6.55 2.28 12.84
11/5/2021 6:30:00 AM 3.8 38.84 0.025 6.55 2.16 12.84
11/5/2021 6:45:00 AM 3.75 38.75 0.025 6.55 2.25 12.87
11/5/2021 7:00:00 AM 3.71 38.678 0.025 6.55 2.28 12.87
11/5/2021 7:15:00 AM 3.66 38.588 0.025 6.55 2.23 12.91
11/5/2021 7:30:00 AM 3.62 38.516 0.025 6.55 2.24 12.91
11/5/2021 7:45:00 AM 3.58 38.444 0.025 6.56 2.25 12.95
11/5/2021 8:00:00 AM 3.54 38.372 0.025 6.55 2.24 12.97
11/5/2021 8:15:00 AM 3.51 38.318 0.025 6.55 2.26 12.99
11/5/2021 8:30:00 AM 3.47 38.246 0.025 6.56 2.22 13.03
11/5/2021 8:45:00 AM 3.45 38.21 0.025 6.56 2.29 13.04
11/5/2021 9:00:00 AM 3.42 38.156 0.025 6.57 2.34 13.09
11/5/2021 9:15:00 AM 3.42 38.156 0.025 6.56 2.28 13.12
11/5/2021 9:30:00 AM 3.42 38.156 0.025 6.58 2.27 13.17
11/5/2021 9:45:00 AM 3.45 38.21 0.025 6.59 2.17 13.19
11/5/2021 10:00:00 AM 3.49 38.282 0.025 6.6 2.2 13.2
11/5/2021 10:15:00 AM 3.54 38.372 0.025 6.62 2.25 13.24
11/5/2021 10:30:00 AM 3.63 38.534 0.025 6.61 2.2 13.24
11/5/2021 10:45:00 AM 3.72 38.696 0.025 6.63 2.14 13.24
11/5/2021 11:00:00 AM 3.81 38.858 0.024 6.64 2.18 13.24
11/5/2021 11:15:00 AM 3.94 39.092 0.024 6.64 2.22 13.22
11/5/2021 11:30:00 AM 4.06 39.308 0.025 6.66 2.22 13.19
11/5/2021 11:45:00 AM 4.19 39.542 0.025 6.67 2.24 13.17
11/5/2021 12:00:00 PM 4.33 39.794 0.025 6.68 2.24 13.13
11/5/2021 12:15:00 PM 4.46 40.028 0.025 6.7 2.22 13.11
11/5/2021 12:30:00 PM 4.6 40.28 0.025 6.7 2.23 13.08
11/5/2021 12:45:00 PM 4.72 40.496 0.025 6.7 2.16 13.04
11/5/2021 1:00:00 PM 4.86 40.748 0.025 6.7 2.18 13.01
11/5/2021 1:15:00 PM 4.98 40.964 0.025 6.69 2.16 12.95
11/5/2021 1:30:00 PM 5.02 41.036 0.025 6.71 2.21 12.93
11/5/2021 1:45:00 PM 5.09 41.162 0.025 6.71 2.22 12.9
11/5/2021 2:00:00 PM 5.2 41.36 0.025 6.72 2.17 12.88
11/5/2021 2:15:00 PM 5.27 41.486 0.025 6.73 2.18 12.85
11/5/2021 2:30:00 PM 5.3 41.54 0.025 6.72 2.16 12.81
11/5/2021 2:45:00 PM 5.31 41.558 0.025 6.72 2.22 12.8
11/5/2021 3:00:00 PM 5.34 41.612 0.025 6.72 2.2 12.79
11/5/2021 3:15:00 PM 5.4 41.72 0.025 6.73 2.21 12.77
11/5/2021 3:30:00 PM 5.45 41.81 0.025 6.72 2.18 12.76
11/5/2021 3:45:00 PM 5.47 41.846 0.025 6.7 2.19 12.74
11/5/2021 4:00:00 PM 5.45 41.81 0.025 6.71 2.19 12.73
11/5/2021 4:15:00 PM 5.42 41.756 0.025 6.71 2.21 12.73
11/5/2021 4:30:00 PM 5.37 41.666 0.025 6.71 2.18 12.71
11/5/2021 4:45:00 PM 5.33 41.594 0.025 6.69 2.24 12.68
11/5/2021 5:00:00 PM 5.25 41.45 0.025 6.72 2.19 12.7
11/5/2021 5:15:00 PM 5.21 41.378 0.025 6.69 2.24 12.67
11/5/2021 5:30:00 PM 5.14 41.252 0.025 6.7 2.26 12.67
11/5/2021 5:45:00 PM 5.09 41.162 0.025 6.68 2.16 12.65
11/5/2021 6:00:00 PM 5.04 41.072 0.025 6.69 2.2 12.64
11/5/2021 6:15:00 PM 4.99 40.982 0.025 6.67 2.23 12.61
11/5/2021 6:30:00 PM 4.94 40.892 0.025 6.67 2.13 12.6
11/5/2021 6:45:00 PM 4.88 40.784 0.025 6.67 2.19 12.6
11/5/2021 7:00:00 PM 4.84 40.712 0.025 6.66 2.16 12.59
11/5/2021 7:15:00 PM 4.79 40.622 0.026 6.66 2.27 12.6
11/5/2021 7:30:00 PM 4.75 40.55 0.026 6.66 2.23 12.6
11/5/2021 7:45:00 PM 4.72 40.496 0.027 6.65 2.3 12.59
11/5/2021 8:00:00 PM 4.69 40.442 0.027 6.64 2.3 12.6
11/5/2021 8:15:00 PM 4.64 40.352 0.027 6.64 2.33 12.62
11/5/2021 8:30:00 PM 4.61 40.298 0.026 6.64 2.28 12.63
11/5/2021 8:45:00 PM 4.57 40.226 0.026 6.64 2.28 12.62
11/5/2021 9:00:00 PM 4.54 40.172 0.026 6.64 2.25 12.64
11/5/2021 9:15:00 PM 4.51 40.118 0.026 6.63 2.23 12.65
11/5/2021 9:30:00 PM 4.48 40.064 0.026 6.63 2.17 12.66
11/5/2021 9:45:00 PM 4.44 39.992 0.026 6.64 2.24 12.68
11/5/2021 10:00:00 PM 4.42 39.956 0.026 6.62 2.21 12.67
11/5/2021 10:15:00 PM 4.39 39.902 0.026 6.61 2.23 12.68
11/5/2021 10:30:00 PM 4.36 39.848 0.026 6.62 2.22 12.69
11/5/2021 10:45:00 PM 4.32 39.776 0.025 6.62 2.23 12.71
11/5/2021 11:00:00 PM 4.29 39.722 0.025 6.62 2.25 12.71
11/5/2021 11:15:00 PM 4.27 39.686 0.025 6.61 2.23 12.71
11/5/2021 11:30:00 PM 4.23 39.614 0.025 6.62 2.22 12.74
11/5/2021 11:45:00 PM 4.19 39.542 0.025 6.61 2.35 12.74
11/6/2021 12:00:00 AM 4.16 39.488 0.025 6.61 2.24 12.76
11/6/2021 12:15:00 AM 4.13 39.434 0.025 6.61 2.32 12.77
11/6/2021 12:30:00 AM 4.09 39.362 0.025 6.61 2.2 12.78
11/6/2021 12:45:00 AM 4.06 39.308 0.025 6.61 2.25 12.79
11/6/2021 1:00:00 AM 4.03 39.254 0.025 6.6 2.28 12.79
11/6/2021 1:15:00 AM 3.98 39.164 0.025 6.6 2.21 12.81
11/6/2021 1:30:00 AM 3.96 39.128 0.025 6.58 2.24 12.81
11/6/2021 1:45:00 AM 3.91 39.038 0.025 6.6 2.2 12.85
11/6/2021 2:00:00 AM 3.87 38.966 0.025 6.59 2.24 12.85
11/6/2021 2:15:00 AM 3.84 38.912 0.025 6.6 2.21 12.87
11/6/2021 2:30:00 AM 3.8 38.84 0.025 6.59 2.38 12.89
11/6/2021 2:45:00 AM 3.77 38.786 0.025 6.58 2.21 12.88
11/6/2021 3:00:00 AM 3.73 38.714 0.025 6.59 2.22 12.9
11/6/2021 3:15:00 AM 3.68 38.624 0.025 6.6 2.27 12.91
11/6/2021 3:30:00 AM 3.65 38.57 0.025 6.59 2.23 12.91
11/6/2021 3:45:00 AM 3.61 38.498 0.025 6.58 2.18 12.93
11/6/2021 4:00:00 AM 3.55 38.39 0.025 6.59 2.19 12.96
11/6/2021 4:15:00 AM 3.52 38.336 0.025 6.58 2.18 12.96
11/6/2021 4:30:00 AM 3.48 38.264 0.025 6.58 2.2 13
11/6/2021 4:45:00 AM 3.44 38.192 0.025 6.58 2.43 13
11/6/2021 5:00:00 AM 3.4 38.12 0.025 6.57 2.26 13
11/6/2021 5:15:00 AM 3.34 38.012 0.025 6.58 2.25 13.06
11/6/2021 5:30:00 AM 3.29 37.922 0.025 6.59 2.16 13.08
11/6/2021 5:45:00 AM 3.26 37.868 0.025 6.58 2.19 13.07
11/6/2021 6:00:00 AM 3.21 37.778 0.025 6.58 2.19 13.09
11/6/2021 6:15:00 AM 3.17 37.706 0.025 6.58 2.2 13.1
11/6/2021 6:30:00 AM 3.13 37.634 0.025 6.58 2.2 13.13
11/6/2021 6:45:00 AM 3.08 37.544 0.025 6.58 2.28 13.14
11/6/2021 7:00:00 AM 3.03 37.454 0.025 6.58 2.19 13.16
11/6/2021 7:15:00 AM 3 37.4 0.025 6.58 2.13 13.17
11/6/2021 7:30:00 AM 2.95 37.31 0.025 6.57 2.18 13.19
11/6/2021 7:45:00 AM 2.9 37.22 0.025 6.58 2.18 13.21
11/6/2021 8:00:00 AM 2.87 37.166 0.025 6.59 2.1 13.23
11/6/2021 8:15:00 AM 2.83 37.094 0.025 6.58 2.24 13.27
11/6/2021 8:30:00 AM 2.8 37.04 0.025 6.59 2.2 13.3
11/6/2021 8:45:00 AM 2.77 36.986 0.025 6.59 2.19 13.32
11/6/2021 9:00:00 AM 2.75 36.95 0.025 6.6 2.15 13.37
11/6/2021 9:15:00 AM 2.73 36.914 0.025 6.61 2.23 13.42
11/6/2021 9:30:00 AM 2.75 36.95 0.025 6.61 2.13 13.41
11/6/2021 9:45:00 AM 2.78 37.004 0.025 6.62 2.11 13.43
11/6/2021 10:00:00 AM 2.82 37.076 0.025 6.64 2.18 13.46
11/6/2021 10:15:00 AM 2.89 37.202 0.025 6.64 2.19 13.47
11/6/2021 10:30:00 AM 2.97 37.346 0.025 6.65 2.17 13.49
11/6/2021 10:45:00 AM 3.07 37.526 0.025 6.65 2.29 13.46
11/6/2021 11:00:00 AM 3.2 37.76 0.025 6.66 2.21 13.46
11/6/2021 11:15:00 AM 3.34 38.012 0.025 6.66 2.14 13.43
11/6/2021 11:30:00 AM 3.48 38.264 0.025 6.67 2.13 13.41
11/6/2021 11:45:00 AM 3.62 38.516 0.025 6.68 2.17 13.4
11/6/2021 12:00:00 PM 3.76 38.768 0.025 6.68 2.17 13.36
11/6/2021 12:15:00 PM 3.9 39.02 0.025 6.66 2.1 13.31
11/6/2021 12:30:00 PM 4.05 39.29 0.025 6.68 2.12 13.27
11/6/2021 12:45:00 PM 4.18 39.524 0.025 6.69 2.09 13.24
11/6/2021 1:00:00 PM 4.31 39.758 0.025 6.69 2.13 13.2
11/6/2021 1:15:00 PM 4.44 39.992 0.025 6.69 2.15 13.16
11/6/2021 1:30:00 PM 4.57 40.226 0.025 6.7 2.06 13.12
11/6/2021 1:45:00 PM 4.69 40.442 0.025 6.69 2.08 13.07
11/6/2021 2:00:00 PM 4.8 40.64 0.025 6.7 2.15 13.05
11/6/2021 2:15:00 PM 4.88 40.784 0.025 6.7 2.14 13
11/6/2021 2:30:00 PM 4.96 40.928 0.025 6.7 2.13 12.95
11/6/2021 2:45:00 PM 5.02 41.036 0.025 6.7 2.14 12.94
11/6/2021 3:00:00 PM 5.07 41.126 0.025 6.71 2.15 12.91
11/6/2021 3:15:00 PM 5.1 41.18 0.025 6.71 2.12 12.88
11/6/2021 3:30:00 PM 5.12 41.216 0.025 6.71 2.14 12.85
11/6/2021 3:45:00 PM 5.12 41.216 0.025 6.71 2.15 12.85
11/6/2021 4:00:00 PM 5.09 41.162 0.025 6.72 2.03 12.85
11/6/2021 4:15:00 PM 5.05 41.09 0.025 6.7 2.26 12.83
11/6/2021 4:30:00 PM 5 41 0.025 6.71 2.17 12.82
11/6/2021 4:45:00 PM 4.95 40.91 0.025 6.7 2.16 12.81
11/6/2021 5:00:00 PM 4.88 40.784 0.025 6.7 2.14 12.81
11/6/2021 5:15:00 PM 4.82 40.676 0.025 6.69 2.11 12.78
11/6/2021 5:30:00 PM 4.75 40.55 0.026 6.68 2.48 12.77
11/6/2021 5:45:00 PM 4.68 40.424 0.026 6.69 2.19 12.76
11/6/2021 6:00:00 PM 4.62 40.316 0.026 6.69 2.16 12.76
11/6/2021 6:15:00 PM 4.56 40.208 0.026 6.68 2.16 12.73
11/6/2021 6:30:00 PM 4.49 40.082 0.026 6.68 2.14 12.72
11/6/2021 6:45:00 PM 4.44 39.992 0.026 6.67 2.18 12.71
11/6/2021 7:00:00 PM 4.39 39.902 0.026 6.67 2.18 12.72
11/6/2021 7:15:00 PM 4.34 39.812 0.026 6.66 2.21 12.72
11/6/2021 7:30:00 PM 4.3 39.74 0.026 6.66 2.13 12.71
11/6/2021 7:45:00 PM 4.25 39.65 0.026 6.66 2.2 12.72
11/6/2021 8:00:00 PM 4.21 39.578 0.026 6.65 2.15 12.73
11/6/2021 8:15:00 PM 4.17 39.506 0.026 6.65 2.23 12.73
11/6/2021 8:30:00 PM 4.13 39.434 0.026 6.64 2.16 12.75
11/6/2021 8:45:00 PM 4.08 39.344 0.026 6.65 2.19 12.77
11/6/2021 9:00:00 PM 4.04 39.272 0.026 6.64 2.25 12.77
11/6/2021 9:15:00 PM 4.01 39.218 0.026 6.64 2.2 12.77
11/6/2021 9:30:00 PM 3.96 39.128 0.026 6.65 2.25 12.8
11/6/2021 9:45:00 PM 3.94 39.092 0.026 6.65 2.19 12.8
11/6/2021 10:00:00 PM 3.91 39.038 0.026 6.64 2.16 12.8
11/6/2021 10:15:00 PM 3.87 38.966 0.026 6.64 2.22 12.82
11/6/2021 10:30:00 PM 3.85 38.93 0.026 6.63 2.16 12.82
11/6/2021 10:45:00 PM 3.82 38.876 0.026 6.63 2.23 12.84
11/6/2021 11:00:00 PM 3.78 38.804 0.026 6.64 2.22 12.84
11/6/2021 11:15:00 PM 3.76 38.768 0.026 6.63 2.19 12.85
11/6/2021 11:30:00 PM 3.72 38.696 0.026 6.64 2.17 12.87
11/6/2021 11:45:00 PM 3.69 38.642 0.026 6.63 2.13 12.87
11/7/2021 12:00:00 AM 3.66 38.588 0.026 6.64 2.26 12.88
11/7/2021 12:15:00 AM 3.64 38.552 0.026 6.64 2.19 12.89
11/7/2021 12:30:00 AM 3.61 38.498 0.026 6.64 2.22 12.89
11/7/2021 12:45:00 AM 3.58 38.444 0.026 6.64 2.16 12.9
11/7/2021 1:00:00 AM 3.54 38.372 0.026 6.64 2.17 12.92
11/7/2021 1:15:00 AM 3.51 38.318 0.026 6.63 2.26 12.92
11/7/2021 1:30:00 AM 3.47 38.246 0.026 6.63 2.2 12.94
11/7/2021 1:45:00 AM 3.45 38.21 0.026 6.62 2.3 12.93
11/7/2021 2:00:00 AM 3.41 38.138 0.026 6.63 2.23 12.96
11/7/2021 2:15:00 AM 3.37 38.066 0.026 6.64 2.19 12.98
11/7/2021 2:30:00 AM 3.34 38.012 0.026 6.64 2.17 12.97
11/7/2021 2:45:00 AM 3.32 37.976 0.026 6.63 2.23 12.99
11/7/2021 3:00:00 AM 3.28 37.904 0.026 6.63 2.18 13.01
11/7/2021 3:15:00 AM 3.25 37.85 0.026 6.62 2.18 13
11/7/2021 3:30:00 AM 3.21 37.778 0.026 6.63 2.2 13.03
11/7/2021 3:45:00 AM 3.18 37.724 0.026 6.62 2.17 13.03
11/7/2021 4:00:00 AM 3.15 37.67 0.026 6.62 2.15 13.04
11/7/2021 4:15:00 AM 2.97 37.346 0.026 6.61 2.17 13.09
11/7/2021 4:30:00 AM 2.94 37.292 0.026 6.62 2.2 13.11
11/7/2021 4:45:00 AM 2.9 37.22 0.026 6.62 2.18 13.13
11/7/2021 5:00:00 AM 2.86 37.148 0.026 6.62 2.21 13.14
11/7/2021 5:15:00 AM 2.82 37.076 0.026 6.62 2.19 13.15
11/7/2021 5:30:00 AM 2.78 37.004 0.026 6.62 2.19 13.15
11/7/2021 5:45:00 AM 2.75 36.95 0.026 6.62 2.18 13.17
11/7/2021 6:00:00 AM 2.71 36.878 0.026 6.62 2.18 13.2
11/7/2021 6:15:00 AM 2.67 36.806 0.026 6.62 2.17 13.21
11/7/2021 6:30:00 AM 2.64 36.752 0.026 6.62 2.22 13.21
11/7/2021 6:45:00 AM 2.59 36.662 0.026 6.62 2.22 13.25
11/7/2021 7:00:00 AM 2.56 36.608 0.026 6.61 2.17 13.26
11/7/2021 7:15:00 AM 2.54 36.572 0.026 6.6 2.15 13.28
11/7/2021 7:30:00 AM 2.5 36.5 0.026 6.62 2.17 13.32
11/7/2021 7:45:00 AM 2.49 36.482 0.026 6.61 2.15 13.35
11/7/2021 8:00:00 AM 2.46 36.428 0.026 6.63 2.21 13.39
11/7/2021 8:15:00 AM 2.46 36.428 0.026 6.62 2.14 13.42
11/7/2021 8:30:00 AM 2.46 36.428 0.026 6.64 2.16 13.46
11/7/2021 8:45:00 AM 2.48 36.464 0.026 6.64 2.12 13.48
11/7/2021 9:00:00 AM 2.53 36.554 0.026 6.66 2.15 13.51
11/7/2021 9:15:00 AM 2.6 36.68 0.026 6.66 2.13 13.51
11/7/2021 9:30:00 AM 2.69 36.842 0.026 6.66 2.17 13.51
11/7/2021 9:45:00 AM 2.79 37.022 0.026 6.67 2.14 13.51
11/7/2021 10:00:00 AM 2.92 37.256 0.026 6.68 2.17 13.5
11/7/2021 10:15:00 AM 3.06 37.508 0.026 6.68 2.11 13.47
11/7/2021 10:30:00 AM 3.19 37.742 0.026 6.69 2.08 13.45
11/7/2021 10:45:00 AM 3.36 38.048 0.026 6.69 2.12 13.42
11/7/2021 11:00:00 AM 3.52 38.336 0.026 6.7 2.09 13.36
11/7/2021 11:15:00 AM 3.68 38.624 0.026 6.7 2.14 13.34
11/7/2021 11:30:00 AM 3.84 38.912 0.026 6.7 2.11 13.31
11/7/2021 11:45:00 AM 4 39.2 0.026 6.7 2.15 13.26
11/7/2021 12:00:00 PM 4.14 39.452 0.026 6.72 2.07 13.22
11/7/2021 12:15:00 PM 4.28 39.704 0.026 6.71 2.05 13.17
11/7/2021 12:30:00 PM 4.42 39.956 0.026 6.71 2.14 13.12
11/7/2021 12:45:00 PM 4.56 40.208 0.026 6.71 2.11 13.09
11/7/2021 1:00:00 PM 4.7 40.46 0.026 6.71 2.13 13.04
11/7/2021 1:15:00 PM 4.8 40.64 0.026 6.72 2.14 12.99
11/7/2021 1:30:00 PM 4.89 40.802 0.026 6.73 2.17 12.96
11/7/2021 1:45:00 PM 4.97 40.946 0.026 6.73 2.14 12.91
11/7/2021 2:00:00 PM 5.03 41.054 0.026 6.72 2.12 12.89
11/7/2021 2:15:00 PM 5.08 41.144 0.026 6.73 2.11 12.86
11/7/2021 2:30:00 PM 5.13 41.234 0.026 6.72 2.15 12.82
11/7/2021 2:45:00 PM 5.14 41.252 0.026 6.71 2.11 12.8
11/7/2021 3:00:00 PM 5.14 41.252 0.026 6.72 2.15 12.79
11/7/2021 3:15:00 PM 5.12 41.216 0.026 6.7 2.11 12.77
11/7/2021 3:30:00 PM 5.08 41.144 0.026 6.73 2.13 12.78
11/7/2021 3:45:00 PM 5.03 41.054 0.026 6.73 2.12 12.76
11/7/2021 4:00:00 PM 4.98 40.964 0.026 6.72 2.13 12.75
11/7/2021 4:15:00 PM 4.91 40.838 0.026 6.72 2.18 12.74
11/7/2021 4:30:00 PM 4.85 40.73 0.026 6.71 2.2 12.72
11/7/2021 4:45:00 PM 4.8 40.64 0.026 6.7 2.16 12.7
11/7/2021 5:00:00 PM 4.75 40.55 0.026 6.69 2.2 12.67
11/7/2021 5:15:00 PM 4.69 40.442 0.026 6.7 2.17 12.66
11/7/2021 5:30:00 PM 4.65 40.37 0.026 6.68 2.17 12.63
11/7/2021 5:45:00 PM 4.59 40.262 0.026 6.69 2.15 12.64
11/7/2021 6:00:00 PM 4.55 40.19 0.026 6.68 2.16 12.61
11/7/2021 6:15:00 PM 4.5 40.1 0.026 6.67 2.19 12.61
11/7/2021 6:30:00 PM 4.47 40.046 0.026 6.67 2.19 12.62
11/7/2021 6:45:00 PM 4.42 39.956 0.026 6.66 2.17 12.62
11/7/2021 7:00:00 PM 4.39 39.902 0.026 6.67 2.24 12.62
11/7/2021 7:15:00 PM 4.36 39.848 0.026 6.67 2.2 12.65
11/7/2021 7:30:00 PM 4.32 39.776 0.026 6.67 2.22 12.64
11/7/2021 7:45:00 PM 4.29 39.722 0.026 6.66 2.25 12.66
11/7/2021 8:00:00 PM 4.25 39.65 0.026 6.67 2.19 12.67
11/7/2021 8:15:00 PM 4.21 39.578 0.026 6.67 2.24 12.68
11/7/2021 8:30:00 PM 4.18 39.524 0.026 6.67 2.29 12.7
11/7/2021 8:45:00 PM 4.15 39.47 0.026 6.66 2.2 12.7
11/7/2021 9:00:00 PM 4.12 39.416 0.026 6.66 2.23 12.71
11/7/2021 9:15:00 PM 4.09 39.362 0.026 6.66 2.17 12.72
11/7/2021 9:30:00 PM 4.07 39.326 0.026 6.65 2.26 12.72
11/7/2021 9:45:00 PM 4.04 39.272 0.026 6.66 2.25 12.73
11/7/2021 10:00:00 PM 4.03 39.254 0.026 6.65 2.22 12.73
11/7/2021 10:15:00 PM 4.01 39.218 0.026 6.65 2.19 12.73
11/7/2021 10:30:00 PM 3.98 39.164 0.026 6.66 2.19 12.75
11/7/2021 10:45:00 PM 3.97 39.146 0.026 6.65 2.21 12.75
11/7/2021 11:00:00 PM 3.94 39.092 0.026 6.65 2.22 12.76
11/7/2021 11:15:00 PM 3.93 39.074 0.026 6.64 2.23 12.76
11/7/2021 11:30:00 PM 3.92 39.056 0.026 6.64 2.17 12.76
11/7/2021 11:45:00 PM 3.9 39.02 0.026 6.64 2.18 12.78
11/8/2021 12:00:00 AM 3.88 38.984 0.026 6.65 2.24 12.79
11/8/2021 12:15:00 AM 3.86 38.948 0.026 6.65 2.19 12.79
11/8/2021 12:30:00 AM 3.85 38.93 0.026 6.64 2.26 12.79
11/8/2021 12:45:00 AM 3.83 38.894 0.026 6.65 2.21 12.8
11/8/2021 1:00:00 AM 3.82 38.876 0.026 6.64 2.26 12.8
11/8/2021 1:15:00 AM 3.8 38.84 0.026 6.63 2.21 12.79
11/8/2021 1:30:00 AM 3.78 38.804 0.026 6.64 2.19 12.82
11/8/2021 1:45:00 AM 3.76 38.768 0.026 6.65 2.22 12.83
11/8/2021 2:00:00 AM 3.75 38.75 0.026 6.64 2.24 12.83
11/8/2021 2:15:00 AM 3.72 38.696 0.026 6.64 2.2 12.84
11/8/2021 2:30:00 AM 3.7 38.66 0.026 6.64 2.22 12.85
11/8/2021 2:45:00 AM 3.69 38.642 0.026 6.63 2.26 12.84
11/8/2021 3:00:00 AM 3.67 38.606 0.026 6.64 2.21 12.86
11/8/2021 3:15:00 AM 3.65 38.57 0.026 6.63 2.27 12.84
11/8/2021 3:30:00 AM 3.64 38.552 0.026 6.63 2.19 12.85
11/8/2021 3:45:00 AM 3.61 38.498 0.026 6.63 2.21 12.88
11/8/2021 4:00:00 AM 3.58 38.444 0.026 6.64 2.23 12.89
11/8/2021 4:15:00 AM 3.56 38.408 0.026 6.64 2.2 12.89
11/8/2021 4:30:00 AM 3.54 38.372 0.026 6.64 2.22 12.9
11/8/2021 4:45:00 AM 3.51 38.318 0.026 6.65 2.24 12.92
11/8/2021 5:00:00 AM 3.47 38.246 0.026 6.65 2.18 12.93
11/8/2021 5:15:00 AM 3.46 38.228 0.026 6.64 2.21 12.93
11/8/2021 5:30:00 AM 3.44 38.192 0.026 6.63 2.21 12.93
11/8/2021 5:45:00 AM 3.41 38.138 0.026 6.64 2.22 12.95
11/8/2021 6:00:00 AM 3.38 38.084 0.026 6.64 2.17 12.96
11/8/2021 6:15:00 AM 3.34 38.012 0.026 6.65 2.26 12.98
11/8/2021 6:30:00 AM 3.32 37.976 0.026 6.64 2.26 12.97
11/8/2021 6:45:00 AM 3.29 37.922 0.026 6.64 2.23 13
11/8/2021 7:00:00 AM 3.26 37.868 0.026 6.64 2.28 13
11/8/2021 7:15:00 AM 3.23 37.814 0.026 6.65 2.24 13.03
11/8/2021 7:30:00 AM 3.22 37.796 0.026 6.65 2.24 13.07
11/8/2021 7:45:00 AM 3.2 37.76 0.026 6.66 2.16 13.11
11/8/2021 8:00:00 AM 3.19 37.742 0.026 6.67 2.2 13.15
11/8/2021 8:15:00 AM 3.19 37.742 0.026 6.66 2.24 13.19
11/8/2021 8:30:00 AM 3.2 37.76 0.026 6.67 2.21 13.21
11/8/2021 8:45:00 AM 3.22 37.796 0.026 6.68 2.2 13.26
11/8/2021 9:00:00 AM 3.28 37.904 0.026 6.68 2.19 13.26
11/8/2021 9:15:00 AM 3.34 38.012 0.026 6.7 2.23 13.29
11/8/2021 9:30:00 AM 3.43 38.174 0.026 6.7 2.22 13.29
11/8/2021 9:45:00 AM 3.52 38.336 0.026 6.7 2.21 13.29
11/8/2021 10:00:00 AM 3.64 38.552 0.026 6.7 2.22 13.27
11/8/2021 10:15:00 AM 3.78 38.804 0.026 6.71 2.24 13.26
11/8/2021 10:30:00 AM 3.93 39.074 0.026 6.71 2.17 13.23
11/8/2021 10:45:00 AM 4.09 39.362 0.026 6.71 2.23 13.21
11/8/2021 11:00:00 AM 4.28 39.704 0.026 6.7 2.22 13.15
11/8/2021 11:15:00 AM 4.45 40.01 0.026 6.71 2.26 13.13
11/8/2021 11:30:00 AM 4.63 40.334 0.026 6.73 2.23 13.1
11/8/2021 11:45:00 AM 4.79 40.622 0.026 6.72 2.22 13.05
11/8/2021 12:00:00 PM 4.95 40.91 0.026 6.72 2.27 13
11/8/2021 12:15:00 PM 5.12 41.216 0.026 6.71 2.19 12.95
11/8/2021 12:30:00 PM 5.27 41.486 0.026 6.75 2.17 12.92
11/8/2021 12:45:00 PM 5.42 41.756 0.026 6.74 2.17 12.87
11/8/2021 1:00:00 PM 5.56 42.008 0.026 6.74 2.19 12.81
11/8/2021 1:15:00 PM 5.69 42.242 0.026 6.77 2.2 12.79
11/8/2021 1:30:00 PM 5.79 42.422 0.026 6.76 2.2 12.74
11/8/2021 1:45:00 PM 5.9 42.62 0.026 6.72 2.18 12.68
11/8/2021 2:00:00 PM 5.96 42.728 0.026 6.76 2.19 12.66
11/8/2021 2:15:00 PM 6.03 42.854 0.026 6.74 2.36 12.61
11/8/2021 2:30:00 PM 6.07 42.926 0.026 6.75 2.19 12.59
11/8/2021 2:45:00 PM 6.1 42.98 0.026 6.76 2.22 12.55
11/8/2021 3:00:00 PM 6.11 42.998 0.026 6.76 2.15 12.55
11/8/2021 3:15:00 PM 6.1 42.98 0.026 6.77 2.19 12.53
11/8/2021 3:30:00 PM 6.07 42.926 0.026 6.77 2.21 12.51
11/8/2021 3:45:00 PM 6.03 42.854 0.026 6.76 2.23 12.49
11/8/2021 4:00:00 PM 5.99 42.782 0.026 6.73 2.2 12.46
11/8/2021 4:15:00 PM 5.89 42.602 0.026 6.77 2.19 12.48
11/8/2021 4:30:00 PM 5.85 42.53 0.026 6.74 2.19 12.44
11/8/2021 4:45:00 PM 5.78 42.404 0.026 6.74 2.22 12.44
11/8/2021 5:00:00 PM 5.72 42.296 0.026 6.73 2.2 12.4
11/8/2021 5:15:00 PM 5.67 42.206 0.026 6.72 2.22 12.37
11/8/2021 5:30:00 PM 5.62 42.116 0.026 6.71 2.27 12.35
11/8/2021 5:45:00 PM 5.57 42.026 0.026 6.73 2.23 12.35
11/8/2021 6:00:00 PM 5.54 41.972 0.026 6.7 2.25 12.32
11/8/2021 6:15:00 PM 5.49 41.882 0.026 6.71 2.26 12.33
11/8/2021 6:30:00 PM 5.46 41.828 0.026 6.69 2.28 12.31
11/8/2021 6:45:00 PM 5.42 41.756 0.027 6.7 2.31 12.32
11/8/2021 7:00:00 PM 5.38 41.684 0.027 6.69 2.29 12.33
11/8/2021 7:15:00 PM 5.35 41.63 0.027 6.69 2.32 12.33
11/8/2021 7:30:00 PM 5.31 41.558 0.027 6.68 2.28 12.33
11/8/2021 7:45:00 PM 5.27 41.486 0.027 6.68 2.31 12.35
11/8/2021 8:00:00 PM 5.25 41.45 0.027 6.68 2.27 12.37
11/8/2021 8:15:00 PM 5.21 41.378 0.028 6.67 2.4 12.35
11/8/2021 8:30:00 PM 5.17 41.306 0.027 6.69 2.25 12.38
11/8/2021 8:45:00 PM 5.16 41.288 0.027 6.66 2.32 12.37
11/8/2021 9:00:00 PM 5.11 41.198 0.027 6.68 2.23 12.39
11/8/2021 9:15:00 PM 5.08 41.144 0.027 6.68 2.3 12.41
11/8/2021 9:30:00 PM 5.04 41.072 0.027 6.69 2.32 12.41
11/8/2021 9:45:00 PM 5.02 41.036 0.027 6.68 2.27 12.43
11/8/2021 10:00:00 PM 4.99 40.982 0.027 6.67 2.31 12.42
11/8/2021 10:15:00 PM 4.97 40.946 0.027 6.66 2.19 12.42
11/8/2021 10:30:00 PM 4.94 40.892 0.027 6.68 2.32 12.43
11/8/2021 10:45:00 PM 4.91 40.838 0.027 6.68 2.31 12.45
11/8/2021 11:00:00 PM 4.89 40.802 0.027 6.67 2.3 12.46
11/8/2021 11:15:00 PM 4.87 40.766 0.027 6.67 2.31 12.45
11/8/2021 11:30:00 PM 4.85 40.73 0.027 6.67 2.29 12.48
11/8/2021 11:45:00 PM 4.83 40.694 0.027 6.66 2.23 12.46
11/9/2021 12:00:00 AM 4.81 40.658 0.027 6.67 2.3 12.47
11/9/2021 12:15:00 AM 4.79 40.622 0.027 6.67 2.32 12.49
11/9/2021 12:30:00 AM 4.77 40.586 0.027 6.67 2.34 12.49
11/9/2021 12:45:00 AM 4.76 40.568 0.027 6.66 2.24 12.48
11/9/2021 1:00:00 AM 4.74 40.532 0.027 6.66 2.26 12.49
11/9/2021 1:15:00 AM 4.72 40.496 0.027 6.66 2.33 12.49
11/9/2021 1:30:00 AM 4.71 40.478 0.027 6.66 2.57 12.5
11/9/2021 1:45:00 AM 4.68 40.424 0.027 6.67 2.39 12.52
11/9/2021 2:00:00 AM 4.67 40.406 0.027 6.67 2.35 12.51
11/9/2021 2:15:00 AM 4.65 40.37 0.027 6.67 2.22 12.53
11/9/2021 2:30:00 AM 4.64 40.352 0.027 6.65 2.27 12.51
11/9/2021 2:45:00 AM 4.61 40.298 0.027 6.66 2.22 12.53
11/9/2021 3:00:00 AM 4.59 40.262 0.027 6.66 2.21 12.54
11/9/2021 3:15:00 AM 4.56 40.208 0.027 6.67 2.3 12.56
11/9/2021 3:30:00 AM 4.55 40.19 0.027 6.65 2.28 12.56
11/9/2021 3:45:00 AM 4.53 40.154 0.027 6.65 2.25 12.55
11/9/2021 4:00:00 AM 4.51 40.118 0.027 6.66 2.25 12.56
11/9/2021 4:15:00 AM 4.49 40.082 0.027 6.66 2.43 12.57
11/9/2021 4:30:00 AM 4.47 40.046 0.027 6.66 2.25 12.58
11/9/2021 4:45:00 AM 4.46 40.028 0.027 6.64 2.23 12.57
11/9/2021 5:00:00 AM 4.43 39.974 0.027 6.65 2.25 12.59
11/9/2021 5:15:00 AM 4.41 39.938 0.027 6.65 2.25 12.6
11/9/2021 5:30:00 AM 4.38 39.884 0.027 6.66 2.46 12.62
11/9/2021 5:45:00 AM 4.36 39.848 0.027 6.66 2.28 12.61
11/9/2021 6:00:00 AM 4.34 39.812 0.027 6.65 2.3 12.62
11/9/2021 6:15:00 AM 4.31 39.758 0.027 6.65 2.29 12.64
11/9/2021 6:30:00 AM 4.29 39.722 0.027 6.65 2.21 12.64
11/9/2021 6:45:00 AM 4.26 39.668 0.027 6.67 2.21 12.66
11/9/2021 7:00:00 AM 4.24 39.632 0.027 6.66 2.24 12.67
11/9/2021 7:15:00 AM 4.22 39.596 0.027 6.66 2.28 12.7
11/9/2021 7:30:00 AM 4.21 39.578 0.027 6.67 2.25 12.73
11/9/2021 7:45:00 AM 4.21 39.578 0.027 6.66 2.22 12.74
11/9/2021 8:00:00 AM 4.21 39.578 0.027 6.66 2.19 12.78
11/9/2021 8:15:00 AM 4.2 39.56 0.027 6.67 2.23 12.82
11/9/2021 8:30:00 AM 4.21 39.578 0.027 6.68 2.22 12.86
11/9/2021 8:45:00 AM 4.23 39.614 0.027 6.7 2.19 12.9
11/9/2021 9:00:00 AM 4.29 39.722 0.027 6.69 2.26 12.9
11/9/2021 9:15:00 AM 4.35 39.83 0.027 6.71 2.28 12.94
11/9/2021 9:30:00 AM 4.44 39.992 0.027 6.7 2.22 12.93
11/9/2021 9:45:00 AM 4.55 40.19 0.027 6.72 2.22 12.93
11/9/2021 10:00:00 AM 4.67 40.406 0.027 6.74 2.35 12.93
11/9/2021 10:15:00 AM 4.8 40.64 0.027 6.73 2.24 12.92
11/9/2021 10:30:00 AM 4.96 40.928 0.027 6.73 2.23 12.9
11/9/2021 10:45:00 AM 5.12 41.216 0.027 6.74 2.13 12.88
11/9/2021 11:00:00 AM 5.29 41.522 0.027 6.74 2.26 12.82
11/9/2021 11:15:00 AM 5.46 41.828 0.027 6.73 2.23 12.8
11/9/2021 11:30:00 AM 5.62 42.116 0.027 6.75 2.23 12.76
11/9/2021 11:45:00 AM 5.8 42.44 0.027 6.75 2.22 12.74
11/9/2021 12:00:00 PM 5.93 42.674 0.027 6.74 2.22 12.69
11/9/2021 12:15:00 PM 6.1 42.98 0.027 6.76 2.15 12.65
11/9/2021 12:30:00 PM 6.25 43.25 0.027 6.77 2.14 12.6
11/9/2021 12:45:00 PM 6.39 43.502 0.027 6.77 2.21 12.57
11/9/2021 1:00:00 PM 6.53 43.754 0.026 6.75 2.21 12.52
11/9/2021 1:15:00 PM 6.66 43.988 0.026 6.77 2.2 12.49
11/9/2021 1:30:00 PM 6.79 44.222 0.026 6.78 2.2 12.46
11/9/2021 1:45:00 PM 6.89 44.402 0.026 6.76 2.19 12.42
11/9/2021 2:00:00 PM 6.99 44.582 0.026 6.77 2.22 12.39
11/9/2021 2:15:00 PM 7.05 44.69 0.026 6.78 2.22 12.35
11/9/2021 2:30:00 PM 7.11 44.798 0.026 6.79 2.16 12.34
11/9/2021 2:45:00 PM 7.14 44.852 0.026 6.79 2.15 12.31
11/9/2021 3:00:00 PM 7.16 44.888 0.026 6.77 2.18 12.29
11/9/2021 3:15:00 PM 7.16 44.888 0.026 6.8 2.19 12.28
11/9/2021 3:30:00 PM 7.16 44.888 0.026 6.76 2.18 12.24
11/9/2021 3:45:00 PM 7.13 44.834 0.026 6.77 2.23 12.23
11/9/2021 4:00:00 PM 7.08 44.744 0.026 6.8 2.31 12.23
11/9/2021 4:15:00 PM 7.03 44.654 0.026 6.78 2.25 12.18
11/9/2021 4:30:00 PM 6.99 44.582 0.026 6.76 2.25 12.14
11/9/2021 4:45:00 PM 6.93 44.474 0.026 6.76 2.26 12.12
11/9/2021 5:00:00 PM 6.87 44.366 0.027 6.78 2.3 12.09
11/9/2021 5:15:00 PM 6.83 44.294 0.027 6.76 2.3 12.04
11/9/2021 5:30:00 PM 6.8 44.24 0.028 6.76 2.27 12
11/9/2021 5:45:00 PM 6.79 44.222 0.028 6.77 2.27 11.97
11/9/2021 6:00:00 PM 6.77 44.186 0.027 6.77 2.23 11.96
11/9/2021 6:15:00 PM 6.77 44.186 0.027 6.76 2.32 11.93
11/9/2021 6:30:00 PM 6.78 44.204 0.027 6.74 2.27 11.93
11/9/2021 6:45:00 PM 6.78 44.204 0.028 6.75 2.35 11.91
11/9/2021 7:00:00 PM 6.78 44.204 0.027 6.74 2.24 11.91
11/9/2021 7:15:00 PM 6.78 44.204 0.028 6.73 2.32 11.9
11/9/2021 7:30:00 PM 6.78 44.204 0.028 6.73 2.33 11.9
11/9/2021 7:45:00 PM 6.79 44.222 0.028 6.73 2.28 11.89
11/9/2021 8:00:00 PM 6.78 44.204 0.028 6.71 2.23 11.88
11/9/2021 8:15:00 PM 6.78 44.204 0.028 6.71 2.29 11.87
11/9/2021 8:30:00 PM 6.78 44.204 0.028 6.7 2.29 11.87
11/9/2021 8:45:00 PM 6.77 44.186 0.028 6.71 2.29 11.88
11/9/2021 9:00:00 PM 6.76 44.168 0.028 6.7 2.31 11.88
11/9/2021 9:15:00 PM 6.75 44.15 0.028 6.7 2.31 11.88
11/9/2021 9:30:00 PM 6.74 44.132 0.028 6.69 2.27 11.86
11/9/2021 9:45:00 PM 6.73 44.114 0.028 6.7 2.31 11.87
11/9/2021 10:00:00 PM 6.73 44.114 0.028 6.7 2.36 11.87
11/9/2021 10:15:00 PM 6.72 44.096 0.028 6.7 2.35 11.87
11/9/2021 10:30:00 PM 6.73 44.114 0.028 6.69 2.24 11.86
11/9/2021 10:45:00 PM 6.74 44.132 0.028 6.7 2.42 11.87
11/9/2021 11:00:00 PM 6.75 44.15 0.028 6.7 2.3 11.87
11/9/2021 11:15:00 PM 6.77 44.186 0.028 6.69 2.36 11.86
11/9/2021 11:30:00 PM 6.78 44.204 0.028 6.69 2.33 11.85
11/9/2021 11:45:00 PM 6.79 44.222 0.027 6.69 2.33 11.85
11/10/2021 12:00:00 AM 6.8 44.24 0.027 6.69 2.31 11.84
11/10/2021 12:15:00 AM 6.81 44.258 0.027 6.68 2.34 11.83
11/10/2021 12:30:00 AM 6.82 44.276 0.027 6.69 2.24 11.83
11/10/2021 12:45:00 AM 6.82 44.276 0.027 6.68 2.32 11.84
11/10/2021 1:00:00 AM 6.82 44.276 0.027 6.68 2.28 11.83
11/10/2021 1:15:00 AM 6.83 44.294 0.027 6.67 2.31 11.82
11/10/2021 1:30:00 AM 6.82 44.276 0.027 6.67 2.27 11.81
11/10/2021 1:45:00 AM 6.81 44.258 0.027 6.66 2.28 11.8
11/10/2021 2:00:00 AM 6.8 44.24 0.027 6.66 2.34 11.8
11/10/2021 2:15:00 AM 6.78 44.204 0.027 6.67 2.28 11.81
11/10/2021 2:30:00 AM 6.78 44.204 0.027 6.66 2.39 11.81
11/10/2021 2:45:00 AM 6.76 44.168 0.027 6.66 2.32 11.81
11/10/2021 3:00:00 AM 6.76 44.168 0.027 6.66 2.32 11.8
11/10/2021 3:15:00 AM 6.75 44.15 0.027 6.66 2.31 11.8
11/10/2021 3:30:00 AM 6.74 44.132 0.027 6.66 2.33 11.82
11/10/2021 3:45:00 AM 6.72 44.096 0.027 6.66 2.32 11.81
11/10/2021 4:00:00 AM 6.71 44.078 0.027 6.65 2.38 11.81
11/10/2021 4:15:00 AM 6.69 44.042 0.027 6.65 2.29 11.81
11/10/2021 4:30:00 AM 6.67 44.006 0.027 6.67 2.47 11.83
11/10/2021 4:45:00 AM 6.66 43.988 0.027 6.65 2.27 11.82
11/10/2021 5:00:00 AM 6.65 43.97 0.027 6.65 2.29 11.82
11/10/2021 5:15:00 AM 6.61 43.898 0.027 6.66 2.35 11.84
11/10/2021 5:30:00 AM 6.59 43.862 0.027 6.66 2.27 11.85
11/10/2021 5:45:00 AM 6.57 43.826 0.027 6.66 2.31 11.85
11/10/2021 6:00:00 AM 6.57 43.826 0.027 6.66 2.3 11.85
11/10/2021 6:15:00 AM 6.58 43.844 0.027 6.65 2.33 11.86
11/10/2021 6:30:00 AM 6.6 43.88 0.027 6.67 2.32 11.88
11/10/2021 6:45:00 AM 6.63 43.934 0.027 6.66 2.31 11.86
11/10/2021 7:00:00 AM 6.67 44.006 0.027 6.67 2.28 11.86
11/10/2021 7:15:00 AM 6.7 44.06 0.027 6.67 2.29 11.88
11/10/2021 7:30:00 AM 6.73 44.114 0.027 6.68 2.34 11.87
11/10/2021 7:45:00 AM 6.75 44.15 0.027 6.7 2.33 11.9
11/10/2021 8:00:00 AM 6.77 44.186 0.027 6.71 2.3 11.93
11/10/2021 8:15:00 AM 6.8 44.24 0.027 6.72 2.29 11.95
11/10/2021 8:30:00 AM 6.84 44.312 0.027 6.72 2.51 11.98
11/10/2021 8:45:00 AM 6.89 44.402 0.027 6.74 2.27 12.04
11/10/2021 9:00:00 AM 6.95 44.51 0.027 6.75 2.34 12.1
11/10/2021 9:15:00 AM 7 44.6 0.027 6.75 2.28 12.11
11/10/2021 9:30:00 AM 7.09 44.762 0.027 6.77 2.3 12.16
11/10/2021 9:45:00 AM 7.19 44.942 0.027 6.78 2.27 12.18
11/10/2021 10:00:00 AM 7.28 45.104 0.027 6.79 2.24 12.19
11/10/2021 10:15:00 AM 7.38 45.284 0.027 6.78 2.24 12.18
11/10/2021 10:30:00 AM 7.47 45.446 0.027 6.82 2.28 12.18
11/10/2021 10:45:00 AM 7.57 45.626 0.027 6.77 2.27 12.11
11/10/2021 11:00:00 AM 7.68 45.824 0.027 6.81 2.25 12.13
11/10/2021 11:15:00 AM 7.78 46.004 0.027 6.81 2.6 12.1
11/10/2021 11:30:00 AM 7.89 46.202 0.027 6.8 2.32 12.07
11/10/2021 11:45:00 AM 7.98 46.364 0.027 6.81 2.29 12.07
11/10/2021 12:00:00 PM 8.07 46.526 0.027 6.81 2.36 12.04
11/10/2021 12:15:00 PM 8.15 46.67 0.027 6.81 2.4 12.03
11/10/2021 12:30:00 PM 8.23 46.814 0.027 6.8 2.25 11.99
11/10/2021 12:45:00 PM 8.31 46.958 0.027 6.81 2.31 12
11/10/2021 1:00:00 PM 8.38 47.084 0.027 6.81 2.26 11.98
11/10/2021 1:15:00 PM 8.44 47.192 0.027 6.8 2.31 11.94
11/10/2021 1:30:00 PM 8.48 47.264 0.027 6.8 2.28 11.91
11/10/2021 1:45:00 PM 8.52 47.336 0.027 6.82 2.29 11.92
11/10/2021 2:00:00 PM 8.54 47.372 0.026 6.84 2.32 11.92
11/10/2021 2:15:00 PM 8.55 47.39 0.027 6.8 2.33 11.86
11/10/2021 2:30:00 PM 8.55 47.39 0.026 6.82 2.29 11.88
11/10/2021 2:45:00 PM 8.53 47.354 0.027 6.81 2.22 11.86
11/10/2021 3:00:00 PM 8.49 47.282 0.026 6.84 2.29 11.87
11/10/2021 3:15:00 PM 8.43 47.174 0.027 6.82 2.24 11.84
11/10/2021 3:30:00 PM 8.36 47.048 0.027 6.82 2.26 11.84
11/10/2021 3:45:00 PM 8.27 46.886 0.027 6.82 2.27 11.84
11/10/2021 4:00:00 PM 8.17 46.706 0.027 6.8 2.3 11.81
11/10/2021 4:15:00 PM 8.07 46.526 0.027 6.79 2.31 11.81
11/10/2021 4:30:00 PM 7.96 46.328 0.027 6.79 2.3 11.8
11/10/2021 4:45:00 PM 7.87 46.166 0.027 6.76 2.27 11.76
11/10/2021 5:00:00 PM 7.75 45.95 0.027 6.77 2.29 11.76
11/10/2021 5:15:00 PM 7.65 45.77 0.027 6.76 2.31 11.75
11/10/2021 5:30:00 PM 7.55 45.59 0.027 6.75 2.29 11.74
11/10/2021 5:45:00 PM 7.46 45.428 0.027 6.75 2.3 11.74
11/10/2021 6:00:00 PM 7.37 45.266 0.027 6.75 2.42 11.74
11/10/2021 6:15:00 PM 7.29 45.122 0.027 6.75 2.32 11.75
11/10/2021 6:30:00 PM 7.21 44.978 0.027 6.74 2.31 11.75
11/10/2021 6:45:00 PM 7.12 44.816 0.027 6.74 2.34 11.78
11/10/2021 7:00:00 PM 7.06 44.708 0.027 6.73 2.33 11.76
11/10/2021 7:15:00 PM 6.98 44.564 0.027 6.73 2.38 11.79
11/10/2021 7:30:00 PM 6.91 44.438 0.027 6.72 2.33 11.8
11/10/2021 7:45:00 PM 6.84 44.312 0.027 6.72 2.4 11.81
11/10/2021 8:00:00 PM 6.77 44.186 0.027 6.71 2.26 11.84
11/10/2021 8:15:00 PM 6.71 44.078 0.027 6.71 2.36 11.86
11/10/2021 8:30:00 PM 6.64 43.952 0.027 6.72 2.34 11.89
11/10/2021 8:45:00 PM 6.58 43.844 0.027 6.72 2.38 11.9
11/10/2021 9:00:00 PM 6.51 43.718 0.027 6.73 2.34 11.93
11/10/2021 9:15:00 PM 6.44 43.592 0.027 6.71 2.35 11.94
11/10/2021 9:30:00 PM 6.36 43.448 0.027 6.72 2.47 11.96
11/10/2021 9:45:00 PM 6.3 43.34 0.027 6.71 2.47 11.99
11/10/2021 10:00:00 PM 6.23 43.214 0.027 6.72 2.39 12.02
11/10/2021 10:15:00 PM 6.15 43.07 0.027 6.73 2.42 12.05
11/10/2021 10:30:00 PM 6.11 42.998 0.027 6.71 2.35 12.05
11/10/2021 10:45:00 PM 6.04 42.872 0.027 6.72 2.31 12.09
11/10/2021 11:00:00 PM 5.99 42.782 0.027 6.71 2.41 12.08
11/10/2021 11:15:00 PM 5.94 42.692 0.027 6.71 2.38 12.11
11/10/2021 11:30:00 PM 5.89 42.602 0.027 6.71 2.36 12.11
11/10/2021 11:45:00 PM 5.85 42.53 0.027 6.71 2.4 12.12
11/11/2021 12:00:00 AM 5.8 42.44 0.027 6.72 2.36 12.15
11/11/2021 12:15:00 AM 5.76 42.368 0.027 6.72 2.43 12.17
11/11/2021 12:30:00 AM 5.71 42.278 0.027 6.71 2.37 12.17
11/11/2021 12:45:00 AM 5.67 42.206 0.027 6.71 2.4 12.2
11/11/2021 1:00:00 AM 5.63 42.134 0.027 6.71 2.34 12.21
11/11/2021 1:15:00 AM 5.58 42.044 0.027 6.71 2.4 12.22
11/11/2021 1:30:00 AM 5.54 41.972 0.027 6.7 2.34 12.23
11/11/2021 1:45:00 AM 5.49 41.882 0.027 6.71 2.39 12.25
11/11/2021 2:00:00 AM 5.45 41.81 0.027 6.71 2.3 12.25
11/11/2021 2:15:00 AM 5.4 41.72 0.027 6.71 2.36 12.26
11/11/2021 2:30:00 AM 5.37 41.666 0.027 6.71 2.37 12.27
11/11/2021 2:45:00 AM 5.33 41.594 0.027 6.7 2.37 12.29
11/11/2021 3:00:00 AM 5.28 41.504 0.027 6.71 2.34 12.32
11/11/2021 3:15:00 AM 5.26 41.468 0.027 6.71 2.35 12.33
11/11/2021 3:30:00 AM 5.24 41.432 0.027 6.7 2.4 12.35
11/11/2021 3:45:00 AM 5.23 41.414 0.027 6.7 2.34 12.34
11/11/2021 4:00:00 AM 5.21 41.378 0.027 6.7 2.35 12.35
11/11/2021 4:15:00 AM 5.19 41.342 0.027 6.72 2.33 12.37
11/11/2021 4:30:00 AM 5.18 41.324 0.027 6.71 2.37 12.37
11/11/2021 4:45:00 AM 5.17 41.306 0.027 6.7 2.46 12.37
11/11/2021 5:00:00 AM 5.16 41.288 0.027 6.7 2.32 12.38
11/11/2021 5:15:00 AM 5.14 41.252 0.027 6.71 2.47 12.39
11/11/2021 5:30:00 AM 5.11 41.198 0.027 6.71 2.35 12.41
11/11/2021 5:45:00 AM 5.08 41.144 0.027 6.71 2.4 12.41
11/11/2021 6:00:00 AM 5.06 41.108 0.027 6.71 2.4 12.41
11/11/2021 6:15:00 AM 5.03 41.054 0.027 6.71 2.35 12.42
11/11/2021 6:30:00 AM 5.01 41.018 0.027 6.71 2.4 12.43
11/11/2021 6:45:00 AM 4.98 40.964 0.027 6.7 2.35 12.43
11/11/2021 7:00:00 AM 4.96 40.928 0.027 6.71 2.33 12.44
11/11/2021 7:15:00 AM 4.93 40.874 0.027 6.72 2.42 12.48
11/11/2021 7:30:00 AM 4.92 40.856 0.027 6.71 2.35 12.5
11/11/2021 7:45:00 AM 4.9 40.82 0.027 6.71 2.4 12.54
11/11/2021 8:00:00 AM 4.91 40.838 0.027 6.72 2.36 12.57
11/11/2021 8:15:00 AM 4.92 40.856 0.027 6.72 2.34 12.64
11/11/2021 8:30:00 AM 4.93 40.874 0.027 6.74 2.35 12.68
11/11/2021 8:45:00 AM 4.96 40.928 0.027 6.75 2.38 12.72
11/11/2021 9:00:00 AM 5.01 41.018 0.027 6.76 2.35 12.76
11/11/2021 9:15:00 AM 5.08 41.144 0.027 6.75 2.29 12.76
11/11/2021 9:30:00 AM 5.13 41.234 0.027 6.78 2.3 12.8
11/11/2021 9:45:00 AM 5.21 41.378 0.027 6.78 2.31 12.8
11/11/2021 10:00:00 AM 5.32 41.576 0.027 6.78 2.3 12.79
11/11/2021 10:15:00 AM 5.41 41.738 0.027 6.78 2.29 12.79
11/11/2021 10:30:00 AM 5.54 41.972 0.027 6.79 2.38 12.78
11/11/2021 10:45:00 AM 5.65 42.17 0.027 6.79 2.33 12.76
11/11/2021 11:00:00 AM 5.77 42.386 0.027 6.78 2.28 12.74
11/11/2021 11:15:00 AM 5.89 42.602 0.027 6.81 2.32 12.73
11/11/2021 11:30:00 AM 5.99 42.782 0.027 6.79 3.47 12.67
11/11/2021 11:45:00 AM 6.1 42.98 0.027 6.8 2.29 12.69
11/11/2021 12:00:00 PM 6.19 43.142 0.027 6.84 2.28 12.69
11/11/2021 12:15:00 PM 6.27 43.286 0.027 6.8 2.26 12.64
11/11/2021 12:30:00 PM 6.35 43.43 0.027 6.81 2.22 12.61
11/11/2021 12:45:00 PM 6.44 43.592 0.027 6.81 2.38 12.59
11/11/2021 1:00:00 PM 6.52 43.736 0.027 6.84 2.29 12.58
11/11/2021 1:15:00 PM 6.6 43.88 0.027 6.83 2.25 12.54
11/11/2021 1:30:00 PM 6.68 44.024 0.027 6.81 2.31 12.5
11/11/2021 1:45:00 PM 6.75 44.15 0.027 6.83 2.23 12.49
11/11/2021 2:00:00 PM 6.82 44.276 0.027 6.82 2.26 12.46
11/11/2021 2:15:00 PM 6.87 44.366 0.027 6.84 2.33 12.45
11/11/2021 2:30:00 PM 6.92 44.456 0.027 6.84 2.29 12.41
11/11/2021 2:45:00 PM 6.95 44.51 0.027 6.84 2.43 12.39
11/11/2021 3:00:00 PM 6.99 44.582 0.027 6.85 2.3 12.37
11/11/2021 3:15:00 PM 7.02 44.636 0.027 6.81 2.28 12.34
11/11/2021 3:30:00 PM 7.04 44.672 0.027 6.83 2.3 12.33
11/11/2021 3:45:00 PM 7.05 44.69 0.027 6.82 2.28 12.29
11/11/2021 4:00:00 PM 7.05 44.69 0.027 6.8 2.32 12.25
11/11/2021 4:15:00 PM 7.03 44.654 0.027 6.81 2.3 12.22
11/11/2021 4:30:00 PM 7.01 44.618 0.027 6.81 2.31 12.19
11/11/2021 4:45:00 PM 6.97 44.546 0.027 6.81 2.32 12.13
11/11/2021 5:00:00 PM 6.94 44.492 0.027 6.8 2.29 12.08
11/11/2021 5:15:00 PM 6.9 44.42 0.027 6.8 2.29 12.04
11/11/2021 5:30:00 PM 6.88 44.384 0.027 6.78 2.32 11.98
11/11/2021 5:45:00 PM 6.85 44.33 0.027 6.78 2.32 11.96
11/11/2021 6:00:00 PM 6.83 44.294 0.027 6.78 2.28 11.94
11/11/2021 6:15:00 PM 6.81 44.258 0.027 6.78 2.31 11.91
11/11/2021 6:30:00 PM 6.79 44.222 0.028 6.76 2.38 11.89
11/11/2021 6:45:00 PM 6.78 44.204 0.028 6.77 2.37 11.89
11/11/2021 7:00:00 PM 6.77 44.186 0.028 6.76 2.34 11.89
11/11/2021 7:15:00 PM 6.77 44.186 0.028 6.76 2.39 11.88
11/11/2021 7:30:00 PM 6.78 44.204 0.028 6.77 2.38 11.88
11/11/2021 7:45:00 PM 6.79 44.222 0.028 6.77 2.48 11.87
11/11/2021 8:00:00 PM 6.81 44.258 0.028 6.77 2.4 11.88
11/11/2021 8:15:00 PM 6.84 44.312 0.028 6.77 2.29 11.87
11/11/2021 8:30:00 PM 6.86 44.348 0.028 6.77 2.33 11.87
11/11/2021 8:45:00 PM 6.9 44.42 0.029 6.77 2.34 11.86
11/11/2021 9:00:00 PM 6.94 44.492 0.029 6.77 2.31 11.84
11/11/2021 9:15:00 PM 6.97 44.546 0.029 6.76 2.42 11.83
11/11/2021 9:30:00 PM 7.01 44.618 0.029 6.75 2.39 11.81
11/11/2021 9:45:00 PM 7.04 44.672 0.029 6.76 2.38 11.81
11/11/2021 10:00:00 PM 7.08 44.744 0.029 6.76 2.38 11.8
11/11/2021 10:15:00 PM 7.12 44.816 0.029 6.77 2.5 11.79
11/11/2021 10:30:00 PM 7.16 44.888 0.029 6.76 2.61 11.77
11/11/2021 10:45:00 PM 7.2 44.96 0.029 6.76 2.46 11.76
11/11/2021 11:00:00 PM 7.24 45.032 0.029 6.76 2.38 11.75
11/11/2021 11:15:00 PM 7.29 45.122 0.029 6.76 2.42 11.73
11/11/2021 11:30:00 PM 7.33 45.194 0.029 6.75 2.38 11.71
11/11/2021 11:45:00 PM 7.38 45.284 0.029 6.76 2.39 11.71
11/12/2021 12:00:00 AM 7.41 45.338 0.029 6.76 2.31 11.7
11/12/2021 12:15:00 AM 7.45 45.41 0.029 6.75 2.41 11.67
11/12/2021 12:30:00 AM 7.47 45.446 0.029 6.76 2.33 11.68
11/12/2021 12:45:00 AM 7.49 45.482 0.028 6.77 2.4 11.67
11/12/2021 1:00:00 AM 7.52 45.536 0.028 6.76 2.42 11.64
11/12/2021 1:15:00 AM 7.56 45.608 0.029 6.76 2.37 11.62
11/12/2021 1:30:00 AM 7.6 45.68 0.029 6.76 2.44 11.6
11/12/2021 1:45:00 AM 7.65 45.77 0.028 6.74 2.41 11.59
11/12/2021 2:00:00 AM 7.68 45.824 0.028 6.77 2.48 11.59
11/12/2021 2:15:00 AM 7.74 45.932 0.028 6.76 2.46 11.56
11/12/2021 2:30:00 AM 7.79 46.022 0.028 6.78 2.48 11.56
11/12/2021 2:45:00 AM 7.85 46.13 0.028 6.76 2.39 11.54
11/12/2021 3:00:00 AM 7.91 46.238 0.028 6.76 2.45 11.51
11/12/2021 3:15:00 AM 7.98 46.364 0.028 6.76 2.42 11.49
11/12/2021 3:30:00 AM 8.06 46.508 0.028 6.77 2.42 11.48
11/12/2021 3:45:00 AM 8.15 46.67 0.028 6.77 2.74 11.45
11/12/2021 4:00:00 AM 8.25 46.85 0.041 6.79 4.75 11.42
11/12/2021 4:15:00 AM 8.36 47.048 0.058 6.83 7.01 11.37
11/12/2021 4:30:00 AM 8.46 47.228 0.066 6.86 7.91 11.31
11/12/2021 4:45:00 AM 8.59 47.462 0.072 6.89 9.21 11.27
11/12/2021 5:00:00 AM 8.73 47.714 0.089 6.91 13.1 11.21
11/12/2021 5:15:00 AM 8.82 47.876 0.091 6.9 13.72 11.22
11/12/2021 5:30:00 AM 8.88 47.984 0.073 6.87 10.74 11.2
11/12/2021 5:45:00 AM 8.93 48.074 0.06 6.85 8.47 11.18
11/12/2021 6:00:00 AM 9.06 48.308 0.059 6.85 14.54 11.15
11/12/2021 6:15:00 AM 9.14 48.452 0.061 6.89 17.37 11.11
11/12/2021 6:30:00 AM 9.17 48.506 0.044 6.85 17.11 11.12
11/12/2021 6:45:00 AM 9.18 48.524 0.037 6.82 21 11.15
11/12/2021 7:00:00 AM 9.23 48.614 0.034 6.79 29.79 11.16
11/12/2021 7:15:00 AM 9.19 48.542 0.03 6.71 23.91 11.18
11/12/2021 7:30:00 AM 9.14 48.452 0.028 6.67 23.02 11.21
11/12/2021 7:45:00 AM 9.12 48.416 0.027 6.65 22.32 11.22
11/12/2021 8:00:00 AM 9.12 48.416 0.026 6.63 25.96 11.24
11/12/2021 8:15:00 AM 9.12 48.416 0.026 6.61 28.96 11.25
11/12/2021 8:30:00 AM 9.11 48.398 0.026 6.59 30.22 11.26
11/12/2021 8:45:00 AM 9.09 48.362 0.025 6.57 26.49 11.27
11/12/2021 9:00:00 AM 9.07 48.326 0.024 6.53 26.45 11.29
11/12/2021 9:15:00 AM 9.09 48.362 0.024 6.52 23.54 11.28
11/12/2021 9:30:00 AM 9.13 48.434 0.024 6.52 23.3 11.27
11/12/2021 9:45:00 AM 9.17 48.506 0.024 6.53 20.96 11.27
11/12/2021 10:00:00 AM 9.2 48.56 0.024 6.53 23.91 11.27
11/12/2021 10:15:00 AM 9.23 48.614 0.024 6.5 24.08 11.26
11/12/2021 10:30:00 AM 9.25 48.65 0.023 6.48 20.25 11.28
11/12/2021 10:45:00 AM 9.27 48.686 0.023 6.46 19.81 11.28
11/12/2021 11:00:00 AM 9.29 48.722 0.022 6.44 17.18 11.29
11/12/2021 11:15:00 AM 9.32 48.776 0.022 6.43 16.12 11.29
11/12/2021 11:30:00 AM 9.33 48.794 0.022 6.4 17.06 11.29
11/12/2021 11:45:00 AM 9.35 48.83 0.022 6.39 14.92 11.29
11/12/2021 12:00:00 PM 9.36 48.848 0.021 6.39 15.52 11.29
11/12/2021 12:15:00 PM 9.37 48.866 0.021 6.38 14.22 11.29
11/12/2021 12:30:00 PM 9.4 48.92 0.021 6.37 397.12 11.29
11/12/2021 12:45:00 PM 9.4 48.92 0.021 6.36 12.72 11.29
11/12/2021 1:00:00 PM 9.42 48.956 0.021 6.38 12.39 11.29
11/12/2021 1:15:00 PM 9.43 48.974 0.021 6.37 12 11.28
11/12/2021 1:30:00 PM 9.45 49.01 0.021 6.37 11.63 11.26
11/12/2021 1:45:00 PM 9.46 49.028 0.02 6.37 11.09 11.25
11/12/2021 2:00:00 PM 9.47 49.046 0.02 6.36 10.83 11.24
11/12/2021 2:15:00 PM 9.48 49.064 0.02 6.34 11.2 11.23
11/12/2021 2:30:00 PM 9.48 49.064 0.02 6.36 10.45 11.22
11/12/2021 2:45:00 PM 9.49 49.082 0.02 6.36 9.95 11.21
11/12/2021 3:00:00 PM 9.49 49.082 0.02 6.35 9.75 11.21
11/12/2021 3:15:00 PM 9.5 49.1 0.02 6.35 9.36 11.19
11/12/2021 3:30:00 PM 9.5 49.1 0.02 6.34 456.93 11.18
11/12/2021 3:45:00 PM 9.49 49.082 0.02 6.35 9.79 11.18
11/12/2021 4:00:00 PM 9.48 49.064 0.02 6.33 9.22 11.18
11/12/2021 4:15:00 PM 9.48 49.064 0.02 6.32 8.72 11.18
11/12/2021 4:30:00 PM 9.46 49.028 0.02 6.31 8.79 11.17
11/12/2021 4:45:00 PM 9.44 48.992 0.019 6.31 8.32 11.17
11/12/2021 5:00:00 PM 9.41 48.938 0.019 6.3 7.86 11.18
11/12/2021 5:15:00 PM 9.38 48.884 0.019 6.28 7.69 11.19
11/12/2021 5:30:00 PM 9.34 48.812 0.019 6.29 8.02 11.19
11/12/2021 5:45:00 PM 9.29 48.722 0.019 6.28 7.75 11.21
11/12/2021 6:00:00 PM 9.25 48.65 0.019 6.27 7.31 11.22
11/12/2021 6:15:00 PM 9.2 48.56 0.019 6.27 7.18 11.23
11/12/2021 6:30:00 PM 9.15 48.47 0.019 6.26 6.97 11.24
11/12/2021 6:45:00 PM 9.09 48.362 0.019 6.27 6.96 11.25
11/12/2021 7:00:00 PM 9.04 48.272 0.019 6.25 7.31 11.27
11/12/2021 7:15:00 PM 8.98 48.164 0.019 6.26 6.8 11.28
11/12/2021 7:30:00 PM 8.93 48.074 0.019 6.26 6.52 11.3
11/12/2021 7:45:00 PM 8.87 47.966 0.019 6.25 6.54 11.31
11/12/2021 8:00:00 PM 8.82 47.876 0.019 6.26 6.29 11.33
11/12/2021 8:15:00 PM 8.76 47.768 0.019 6.28 6.11 11.35
11/12/2021 8:30:00 PM 8.7 47.66 0.019 6.27 6.05 11.36
11/12/2021 8:45:00 PM 8.64 47.552 0.019 6.26 6.01 11.38
11/12/2021 9:00:00 PM 8.59 47.462 0.019 6.26 6.09 11.39
11/12/2021 9:15:00 PM 8.53 47.354 0.019 6.25 5.83 11.4
11/12/2021 9:30:00 PM 8.47 47.246 0.019 6.26 5.8 11.42
11/12/2021 9:45:00 PM 8.42 47.156 0.019 6.26 5.66 11.42
11/12/2021 10:00:00 PM 8.36 47.048 0.019 6.26 5.75 11.45
11/12/2021 10:15:00 PM 8.31 46.958 0.019 6.26 5.66 11.46
11/12/2021 10:30:00 PM 8.25 46.85 0.019 6.26 5.45 11.47
11/12/2021 10:45:00 PM 8.2 46.76 0.019 6.25 5.63 11.48
11/12/2021 11:00:00 PM 8.15 46.67 0.019 6.26 5.41 11.49
11/12/2021 11:15:00 PM 8.09 46.562 0.019 6.26 5.39 11.51
11/12/2021 11:30:00 PM 8.04 46.472 0.019 6.26 5.37 11.52
11/12/2021 11:45:00 PM 7.99 46.382 0.019 6.26 5.1 11.53
11/13/2021 12:00:00 AM 7.93 46.274 0.019 6.26 5 11.54
11/13/2021 12:15:00 AM 7.88 46.184 0.019 6.26 5.05 11.56
11/13/2021 12:30:00 AM 7.83 46.094 0.019 6.26 4.95 11.57
11/13/2021 12:45:00 AM 7.79 46.022 0.019 6.26 5.01 11.58
11/13/2021 1:00:00 AM 7.76 45.968 0.019 6.26 5.01 11.59
11/13/2021 1:15:00 AM 7.72 45.896 0.019 6.26 4.84 11.6
11/13/2021 1:30:00 AM 7.69 45.842 0.019 6.26 4.84 11.61
11/13/2021 1:45:00 AM 7.66 45.788 0.019 6.26 4.89 11.62
11/13/2021 2:00:00 AM 7.63 45.734 0.019 6.26 4.92 11.62
11/13/2021 2:15:00 AM 7.6 45.68 0.019 6.26 4.85 11.63
11/13/2021 2:30:00 AM 7.58 45.644 0.019 6.26 4.69 11.63
11/13/2021 2:45:00 AM 7.56 45.608 0.019 6.27 4.52 11.64
11/13/2021 3:00:00 AM 7.54 45.572 0.019 6.3 4.44 11.64
11/13/2021 3:15:00 AM 7.53 45.554 0.019 6.29 4.42 11.65
11/13/2021 3:30:00 AM 7.52 45.536 0.019 6.29 4.31 11.65
11/13/2021 3:45:00 AM 7.51 45.518 0.019 6.27 4.38 11.65
11/13/2021 4:00:00 AM 7.5 45.5 0.019 6.28 4.23 11.65
11/13/2021 4:15:00 AM 7.5 45.5 0.019 6.29 4.13 11.65
11/13/2021 4:30:00 AM 7.5 45.5 0.019 6.29 4.2 11.65
11/13/2021 4:45:00 AM 7.5 45.5 0.019 6.29 4.28 11.65
11/13/2021 5:00:00 AM 7.5 45.5 0.019 6.29 4.18 11.65
11/13/2021 5:15:00 AM 7.5 45.5 0.019 6.3 4.18 11.65
11/13/2021 5:30:00 AM 7.5 45.5 0.019 6.29 4.13 11.65
11/13/2021 5:45:00 AM 7.5 45.5 0.019 6.31 4.15 11.65
11/13/2021 6:00:00 AM 7.5 45.5 0.019 6.31 4.09 11.65
11/13/2021 6:15:00 AM 7.5 45.5 0.019 6.31 4.01 11.65
11/13/2021 6:30:00 AM 7.5 45.5 0.019 6.3 3.94 11.65
11/13/2021 6:45:00 AM 7.5 45.5 0.019 6.31 4.09 11.65
11/13/2021 7:00:00 AM 7.49 45.482 0.019 6.31 3.91 11.64
11/13/2021 7:15:00 AM 7.49 45.482 0.019 6.3 3.92 11.65
11/13/2021 7:30:00 AM 7.48 45.464 0.019 6.3 3.97 11.66
11/13/2021 7:45:00 AM 7.49 45.482 0.019 6.31 3.84 11.67
11/13/2021 8:00:00 AM 7.5 45.5 0.019 6.3 3.95 11.68
11/13/2021 8:15:00 AM 7.51 45.518 0.019 6.32 3.8 11.69
11/13/2021 8:30:00 AM 7.51 45.518 0.019 6.31 3.78 11.71
11/13/2021 8:45:00 AM 7.52 45.536 0.019 6.32 3.8 11.71
11/13/2021 9:00:00 AM 7.53 45.554 0.019 6.32 3.76 11.73
11/13/2021 9:15:00 AM 7.54 45.572 0.019 6.32 3.75 11.73
11/13/2021 9:30:00 AM 7.55 45.59 0.019 6.32 3.67 11.74
11/13/2021 9:45:00 AM 7.55 45.59 0.019 6.33 3.68 11.73
11/13/2021 10:00:00 AM 7.55 45.59 0.019 6.34 3.72 11.73
11/13/2021 10:15:00 AM 7.55 45.59 0.019 6.33 3.54 11.73
11/13/2021 10:30:00 AM 7.54 45.572 0.019 6.34 3.64 11.74
11/13/2021 10:45:00 AM 7.54 45.572 0.019 6.35 3.65 11.74
11/13/2021 11:00:00 AM 7.53 45.554 0.019 6.35 3.66 11.73
11/13/2021 11:15:00 AM 7.52 45.536 0.019 6.35 4 11.71
11/13/2021 11:30:00 AM 7.51 45.518 0.019 6.34 3.62 11.7
11/13/2021 11:45:00 AM 7.49 45.482 0.019 6.35 3.52 11.71
11/13/2021 12:00:00 PM 7.47 45.446 0.019 6.36 3.6 11.72
11/13/2021 12:15:00 PM 7.44 45.392 0.019 6.36 3.52 11.72
11/13/2021 12:30:00 PM 7.41 45.338 0.02 6.37 3.51 11.72
11/13/2021 12:45:00 PM 7.37 45.266 0.02 6.37 3.54 11.73
11/13/2021 1:00:00 PM 7.33 45.194 0.02 6.37 3.46 11.75
11/13/2021 1:15:00 PM 7.3 45.14 0.02 6.37 3.57 11.76
11/13/2021 1:30:00 PM 7.28 45.104 0.019 6.38 3.73 11.78
11/13/2021 1:45:00 PM 7.26 45.068 0.019 6.38 3.67 11.78
11/13/2021 2:00:00 PM 7.25 45.05 0.019 6.39 3.66 11.78
11/13/2021 2:15:00 PM 7.24 45.032 0.019 6.39 3.65 11.81
11/13/2021 2:30:00 PM 7.26 45.068 0.019 6.41 3.6 11.83
11/13/2021 2:45:00 PM 7.26 45.068 0.019 6.4 3.53 11.84
11/13/2021 3:00:00 PM 7.22 44.996 0.019 6.41 3.54 11.82
11/13/2021 3:15:00 PM 7.2 44.96 0.019 6.41 3.56 11.81
11/13/2021 3:30:00 PM 7.18 44.924 0.019 6.4 3.47 11.82
11/13/2021 3:45:00 PM 7.16 44.888 0.019 6.4 3.47 11.82
11/13/2021 4:00:00 PM 7.11 44.798 0.019 6.41 3.5 11.82
11/13/2021 4:15:00 PM 7.07 44.726 0.019 6.41 3.47 11.81
11/13/2021 4:30:00 PM 7.03 44.654 0.019 6.39 3.51 11.81
11/13/2021 4:45:00 PM 6.97 44.546 0.02 6.39 3.57 11.8
11/13/2021 5:00:00 PM 6.92 44.456 0.019 6.4 3.55 11.81
11/13/2021 5:15:00 PM 6.87 44.366 0.02 6.39 3.53 11.8
11/13/2021 5:30:00 PM 6.83 44.294 0.02 6.39 3.62 11.82
11/13/2021 5:45:00 PM 6.81 44.258 0.02 6.38 3.57 11.83
11/13/2021 6:00:00 PM 6.78 44.204 0.02 6.38 3.58 11.83
11/13/2021 6:15:00 PM 6.75 44.15 0.02 6.39 3.49 11.84
11/13/2021 6:30:00 PM 6.72 44.096 0.02 6.39 3.52 11.85
11/13/2021 6:45:00 PM 6.7 44.06 0.02 6.39 3.49 11.86
11/13/2021 7:00:00 PM 6.68 44.024 0.02 6.39 3.67 11.87
11/13/2021 7:15:00 PM 6.66 43.988 0.02 6.39 3.58 11.88
11/13/2021 7:30:00 PM 6.64 43.952 0.02 6.39 3.58 11.88
11/13/2021 7:45:00 PM 6.61 43.898 0.02 6.39 3.71 11.89
11/13/2021 8:00:00 PM 6.56 43.808 0.02 6.39 3.68 11.9
11/13/2021 8:15:00 PM 6.52 43.736 0.02 6.39 3.66 11.91
11/13/2021 8:30:00 PM 6.49 43.682 0.02 6.4 3.61 11.92
11/13/2021 8:45:00 PM 6.47 43.646 0.02 6.4 3.53 11.93
11/13/2021 9:00:00 PM 6.45 43.61 0.02 6.4 3.51 11.94
11/13/2021 9:15:00 PM 6.42 43.556 0.02 6.4 3.55 11.95
11/13/2021 9:30:00 PM 6.38 43.484 0.02 6.41 3.54 11.96
11/13/2021 9:45:00 PM 6.35 43.43 0.02 6.4 3.56 11.97
11/13/2021 10:00:00 PM 6.32 43.376 0.02 6.41 3.5 11.98
11/13/2021 10:15:00 PM 6.28 43.304 0.02 6.41 3.4 11.98
11/13/2021 10:30:00 PM 6.24 43.232 0.02 6.41 3.45 11.99
11/13/2021 10:45:00 PM 6.22 43.196 0.02 6.41 3.42 12
11/13/2021 11:00:00 PM 6.21 43.178 0.02 6.41 3.45 12.01
11/13/2021 11:15:00 PM 6.19 43.142 0.02 6.41 3.48 12.02
11/13/2021 11:30:00 PM 6.16 43.088 0.02 6.41 3.44 12.04
11/13/2021 11:45:00 PM 6.12 43.016 0.02 6.4 3.4 12.05
11/14/2021 12:00:00 AM 6.09 42.962 0.02 6.41 3.23 12.04
11/14/2021 12:15:00 AM 6.06 42.908 0.02 6.41 3.29 12.05
11/14/2021 12:30:00 AM 6.05 42.89 0.02 6.41 3.3 12.07
11/14/2021 12:45:00 AM 6.03 42.854 0.02 6.41 3.32 12.09
11/14/2021 1:00:00 AM 6.01 42.818 0.02 6.42 3.21 12.1
11/14/2021 1:15:00 AM 6 42.8 0.02 6.41 3.26 12.08
11/14/2021 1:30:00 AM 5.99 42.782 0.02 6.41 3.29 12.1
11/14/2021 1:45:00 AM 5.98 42.764 0.02 6.41 3.25 12.11
11/14/2021 2:00:00 AM 5.97 42.746 0.02 6.41 3.22 12.1
11/14/2021 2:15:00 AM 5.96 42.728 0.02 6.4 3.17 12.1
11/14/2021 2:30:00 AM 5.94 42.692 0.02 6.41 3.2 12.12
11/14/2021 2:45:00 AM 5.93 42.674 0.02 6.4 3.25 12.13
11/14/2021 3:00:00 AM 5.92 42.656 0.02 6.41 3.23 12.12
11/14/2021 3:15:00 AM 5.91 42.638 0.02 6.41 3.23 12.12
11/14/2021 3:30:00 AM 5.9 42.62 0.02 6.4 3.23 12.14
11/14/2021 3:45:00 AM 5.88 42.584 0.02 6.41 3.12 12.15
11/14/2021 4:00:00 AM 5.87 42.566 0.02 6.42 3.17 12.13
11/14/2021 4:15:00 AM 5.86 42.548 0.02 6.41 3.12 12.15
11/14/2021 4:30:00 AM 5.85 42.53 0.02 6.41 3.09 12.14
11/14/2021 4:45:00 AM 5.83 42.494 0.02 6.41 3.1 12.14
11/14/2021 5:00:00 AM 5.81 42.458 0.02 6.41 3.09 12.15
11/14/2021 5:15:00 AM 5.79 42.422 0.02 6.42 3.09 12.16
11/14/2021 5:30:00 AM 5.78 42.404 0.02 6.41 3.12 12.16
11/14/2021 5:45:00 AM 5.76 42.368 0.02 6.41 3.11 12.17
11/14/2021 6:00:00 AM 5.75 42.35 0.02 6.41 3.01 12.19
11/14/2021 6:15:00 AM 5.72 42.296 0.02 6.42 2.99 12.18
11/14/2021 6:30:00 AM 5.7 42.26 0.02 6.42 3.12 12.19
11/14/2021 6:45:00 AM 5.69 42.242 0.02 6.41 3.09 12.2
11/14/2021 7:00:00 AM 5.67 42.206 0.02 6.42 2.96 12.21
11/14/2021 7:15:00 AM 5.66 42.188 0.02 6.42 3.07 12.21
11/14/2021 7:30:00 AM 5.65 42.17 0.02 6.42 3.13 12.24
11/14/2021 7:45:00 AM 5.64 42.152 0.02 6.42 3.02 12.25
11/14/2021 8:00:00 AM 5.64 42.152 0.02 6.43 2.97 12.29
11/14/2021 8:15:00 AM 5.64 42.152 0.02 6.44 2.98 12.31
11/14/2021 8:30:00 AM 5.64 42.152 0.02 6.45 2.88 12.34
11/14/2021 8:45:00 AM 5.64 42.152 0.02 6.45 3.03 12.35
11/14/2021 9:00:00 AM 5.66 42.188 0.02 6.46 2.88 12.38
11/14/2021 9:15:00 AM 5.7 42.26 0.02 6.45 3.05 12.39
11/14/2021 9:30:00 AM 5.75 42.35 0.02 6.47 2.94 12.4
11/14/2021 9:45:00 AM 5.81 42.458 0.02 6.47 2.96 12.4
11/14/2021 10:00:00 AM 5.86 42.548 0.02 6.46 2.95 12.39
11/14/2021 10:15:00 AM 5.91 42.638 0.02 6.47 2.93 12.38
11/14/2021 10:30:00 AM 5.95 42.71 0.02 6.47 2.87 12.37
11/14/2021 10:45:00 AM 5.96 42.728 0.02 6.47 2.9 12.37
11/14/2021 11:00:00 AM 5.99 42.782 0.02 6.48 2.87 12.37
11/14/2021 11:15:00 AM 6.05 42.89 0.02 6.48 2.87 12.37
11/14/2021 11:30:00 AM 6.1 42.98 0.02 6.49 2.9 12.36
11/14/2021 11:45:00 AM 6.12 43.016 0.02 6.48 2.93 12.34
11/14/2021 12:00:00 PM 6.14 43.052 0.02 6.49 2.83 12.34
11/14/2021 12:15:00 PM 6.17 43.106 0.02 6.49 2.87 12.33
11/14/2021 12:30:00 PM 6.2 43.16 0.02 6.49 2.9 12.31
11/14/2021 12:45:00 PM 6.23 43.214 0.02 6.51 2.88 12.31
11/14/2021 1:00:00 PM 6.25 43.25 0.02 6.49 2.83 12.3
11/14/2021 1:15:00 PM 6.24 43.232 0.02 6.5 2.84 12.28
11/14/2021 1:30:00 PM 6.22 43.196 0.02 6.5 2.83 12.27
11/14/2021 1:45:00 PM 6.21 43.178 0.02 6.5 2.86 12.25
11/14/2021 2:00:00 PM 6.21 43.178 0.02 6.5 2.84 12.24
11/14/2021 2:15:00 PM 6.21 43.178 0.02 6.49 2.92 12.21
11/14/2021 2:30:00 PM 6.19 43.142 0.02 6.5 2.87 12.2
11/14/2021 2:45:00 PM 6.17 43.106 0.02 6.49 2.82 12.19
11/14/2021 3:00:00 PM 6.16 43.088 0.02 6.49 2.86 12.18
11/14/2021 3:15:00 PM 6.15 43.07 0.02 6.5 2.76 12.15
11/14/2021 3:30:00 PM 6.15 43.07 0.02 6.49 2.81 12.16
11/14/2021 3:45:00 PM 6.14 43.052 0.02 6.5 2.89 12.16
11/14/2021 4:00:00 PM 6.13 43.034 0.021 6.49 2.83 12.13
11/14/2021 4:15:00 PM 6.12 43.016 0.021 6.49 2.83 12.1
11/14/2021 4:30:00 PM 6.11 42.998 0.021 6.48 2.93 12.08
11/14/2021 4:45:00 PM 6.1 42.98 0.022 6.48 2.85 12.07
11/14/2021 5:00:00 PM 6.09 42.962 0.022 6.48 2.85 12.06
11/14/2021 5:15:00 PM 6.09 42.962 0.022 6.47 2.85 12.05
11/14/2021 5:30:00 PM 6.08 42.944 0.021 6.48 2.9 12.03
11/14/2021 5:45:00 PM 6.07 42.926 0.021 6.48 2.83 12.05
11/14/2021 6:00:00 PM 6.06 42.908 0.021 6.48 2.85 12.04
11/14/2021 6:15:00 PM 6.05 42.89 0.021 6.48 2.82 12.03
11/14/2021 6:30:00 PM 6.04 42.872 0.021 6.48 2.89 12.04
11/14/2021 6:45:00 PM 6.03 42.854 0.021 6.48 2.9 12.04
11/14/2021 7:00:00 PM 6.02 42.836 0.021 6.48 2.9 12.05
11/14/2021 7:15:00 PM 5.98 42.764 0.021 6.47 2.87 12.04
11/14/2021 7:30:00 PM 5.95 42.71 0.021 6.48 2.93 12.06
11/14/2021 7:45:00 PM 5.9 42.62 0.021 6.48 2.86 12.05
11/14/2021 8:00:00 PM 5.85 42.53 0.021 6.48 2.83 12.06
11/14/2021 8:15:00 PM 5.83 42.494 0.021 6.48 2.91 12.07
11/14/2021 8:30:00 PM 5.8 42.44 0.021 6.48 2.85 12.09
11/14/2021 8:45:00 PM 5.77 42.386 0.021 6.48 2.84 12.1
11/14/2021 9:00:00 PM 5.73 42.314 0.021 6.48 2.9 12.1
11/14/2021 9:15:00 PM 5.71 42.278 0.021 6.48 2.92 12.12
11/14/2021 9:30:00 PM 5.69 42.242 0.021 6.48 2.94 12.12
11/14/2021 9:45:00 PM 5.66 42.188 0.021 6.48 2.89 12.13
11/14/2021 10:00:00 PM 5.65 42.17 0.021 6.48 2.84 12.14
11/14/2021 10:15:00 PM 5.62 42.116 0.021 6.49 2.77 12.15
11/14/2021 10:30:00 PM 5.6 42.08 0.021 6.48 2.89 12.15
11/14/2021 10:45:00 PM 5.58 42.044 0.021 6.49 2.83 12.15
11/14/2021 11:00:00 PM 5.57 42.026 0.021 6.48 2.82 12.16
11/14/2021 11:15:00 PM 5.56 42.008 0.021 6.48 2.81 12.17
11/14/2021 11:30:00 PM 5.54 41.972 0.021 6.49 2.85 12.16
11/14/2021 11:45:00 PM 5.53 41.954 0.021 6.48 2.8 12.17
11/15/2021 12:00:00 AM 5.52 41.936 0.021 6.49 2.78 12.18
11/15/2021 12:15:00 AM 5.51 41.918 0.021 6.49 2.8 12.18
11/15/2021 12:30:00 AM 5.5 41.9 0.021 6.49 2.86 12.18
11/15/2021 12:45:00 AM 5.49 41.882 0.021 6.49 2.83 12.19
11/15/2021 1:00:00 AM 5.47 41.846 0.021 6.49 2.86 12.19
11/15/2021 1:15:00 AM 5.45 41.81 0.021 6.49 2.87 12.19
11/15/2021 1:30:00 AM 5.44 41.792 0.021 6.49 2.84 12.2
11/15/2021 1:45:00 AM 5.43 41.774 0.021 6.48 2.86 12.2
11/15/2021 2:00:00 AM 5.41 41.738 0.021 6.48 2.92 12.2
11/15/2021 2:15:00 AM 5.39 41.702 0.021 6.49 2.78 12.21
11/15/2021 2:30:00 AM 5.38 41.684 0.021 6.49 2.76 12.22
11/15/2021 2:45:00 AM 5.37 41.666 0.021 6.49 2.86 12.22
11/15/2021 3:00:00 AM 5.37 41.666 0.021 6.49 2.81 12.22
11/15/2021 3:15:00 AM 5.34 41.612 0.021 6.49 2.76 12.22
11/15/2021 3:30:00 AM 5.33 41.594 0.021 6.48 2.81 12.22
11/15/2021 3:45:00 AM 5.32 41.576 0.021 6.48 2.83 12.22
11/15/2021 4:00:00 AM 5.3 41.54 0.021 6.48 2.77 12.23
11/15/2021 4:15:00 AM 5.29 41.522 0.021 6.48 2.82 12.23
11/15/2021 4:30:00 AM 5.28 41.504 0.021 6.49 2.68 12.23
11/15/2021 4:45:00 AM 5.25 41.45 0.022 6.48 2.8 12.23
11/15/2021 5:00:00 AM 5.21 41.378 0.021 6.49 2.85 12.25
11/15/2021 5:15:00 AM 5.18 41.324 0.021 6.49 2.83 12.26
11/15/2021 5:30:00 AM 5.16 41.288 0.021 6.49 2.81 12.27
11/15/2021 5:45:00 AM 5.14 41.252 0.022 6.49 2.73 12.27
11/15/2021 6:00:00 AM 5.12 41.216 0.022 6.49 2.8 12.28
11/15/2021 6:15:00 AM 5.12 41.216 0.022 6.49 2.77 12.28
11/15/2021 6:30:00 AM 5.11 41.198 0.022 6.49 2.77 12.29
11/15/2021 6:45:00 AM 5.1 41.18 0.022 6.49 2.82 12.29
11/15/2021 7:00:00 AM 5.09 41.162 0.022 6.49 2.82 12.3
11/15/2021 7:15:00 AM 5.07 41.126 0.022 6.49 2.81 12.31
11/15/2021 7:30:00 AM 5.07 41.126 0.022 6.49 2.8 12.32
11/15/2021 7:45:00 AM 5.06 41.108 0.022 6.49 2.85 12.33
11/15/2021 8:00:00 AM 5.05 41.09 0.022 6.49 2.8 12.35
11/15/2021 8:15:00 AM 5.06 41.108 0.022 6.49 2.8 12.38
11/15/2021 8:30:00 AM 5.07 41.126 0.022 6.5 2.81 12.43
11/15/2021 8:45:00 AM 5.1 41.18 0.022 6.51 2.8 12.46
11/15/2021 9:00:00 AM 5.13 41.234 0.022 6.52 2.77 12.49
11/15/2021 9:15:00 AM 5.17 41.306 0.02